<?xml version="1.0" encoding="UTF-8" standalone="no" ?>
<gpx xmlns="http://www.topografix.com/GPX/1/1" xmlns:xsi="http://www.w3.org/2001/XMLSchema-instance" xsi:schemaLocation="http://www.topografix.com/GPX/1/1 http://www.topografix.com/GPX/1/1/gpx.xsd" version="1.1" creator="VisuGPX - https://www.visugpx.com">
  <metadata>
    <name>Albousiere</name>
    <desc><![CDATA[2009-02-25_Albousiere,Dist.99Km Asc.915m 3h58.gpx]]></desc>
  </metadata>
  <trk>
    <name><![CDATA[Albousiere]]></name>
    <trkseg>
      <trkpt lat="45.11933" lon="4.97612">
        <ele>195.57618713379</ele>
        <time>2009-02-25T12:16:10Z</time>
      </trkpt>
      <trkpt lat="45.1195" lon="4.97602">
        <ele>196.68208312988</ele>
        <time>2009-02-25T12:16:13Z</time>
      </trkpt>
      <trkpt lat="45.11939" lon="4.97559">
        <ele>196.46783447266</ele>
        <time>2009-02-25T12:16:18Z</time>
      </trkpt>
      <trkpt lat="45.11959" lon="4.97543">
        <ele>197.53593444824</ele>
        <time>2009-02-25T12:16:22Z</time>
      </trkpt>
      <trkpt lat="45.11967" lon="4.97519">
        <ele>197.86306762695</ele>
        <time>2009-02-25T12:16:25Z</time>
      </trkpt>
      <trkpt lat="45.11968" lon="4.97501">
        <ele>197.84530639648</ele>
        <time>2009-02-25T12:16:27Z</time>
      </trkpt>
      <trkpt lat="45.11956" lon="4.9747">
        <ele>197.24682617188</ele>
        <time>2009-02-25T12:16:31Z</time>
      </trkpt>
      <trkpt lat="45.11939" lon="4.97458">
        <ele>196.66461181641</ele>
        <time>2009-02-25T12:16:34Z</time>
      </trkpt>
      <trkpt lat="45.11926" lon="4.97458">
        <ele>196.27616882324</ele>
        <time>2009-02-25T12:16:36Z</time>
      </trkpt>
      <trkpt lat="45.11882" lon="4.97155">
        <ele>196.81089782715</ele>
        <time>2009-02-25T12:17:11Z</time>
      </trkpt>
      <trkpt lat="45.11883" lon="4.97098">
        <ele>197.12507629394</ele>
        <time>2009-02-25T12:17:17Z</time>
      </trkpt>
      <trkpt lat="45.1189" lon="4.97077">
        <ele>197.48553466797</ele>
        <time>2009-02-25T12:17:20Z</time>
      </trkpt>
      <trkpt lat="45.11901" lon="4.9707">
        <ele>197.84637451172</ele>
        <time>2009-02-25T12:17:22Z</time>
      </trkpt>
      <trkpt lat="45.119" lon="4.97057">
        <ele>198.04139709473</ele>
        <time>2009-02-25T12:17:23Z</time>
      </trkpt>
      <trkpt lat="45.11885" lon="4.97049">
        <ele>197.96617126465</ele>
        <time>2009-02-25T12:17:26Z</time>
      </trkpt>
      <trkpt lat="45.11764" lon="4.96882">
        <ele>196.38000488281</ele>
        <time>2009-02-25T12:17:53Z</time>
      </trkpt>
      <trkpt lat="45.1175" lon="4.96856">
        <ele>195.54531860352</ele>
        <time>2009-02-25T12:17:57Z</time>
      </trkpt>
      <trkpt lat="45.11755" lon="4.96836">
        <ele>195.23776245117</ele>
        <time>2009-02-25T12:17:59Z</time>
      </trkpt>
      <trkpt lat="45.11747" lon="4.9682">
        <ele>195.19021606445</ele>
        <time>2009-02-25T12:18:01Z</time>
      </trkpt>
      <trkpt lat="45.11737" lon="4.96817">
        <ele>195.32067871094</ele>
        <time>2009-02-25T12:18:03Z</time>
      </trkpt>
      <trkpt lat="45.11728" lon="4.96823">
        <ele>195.35646057129</ele>
        <time>2009-02-25T12:18:04Z</time>
      </trkpt>
      <trkpt lat="45.1171" lon="4.96795">
        <ele>195.71943664551</ele>
        <time>2009-02-25T12:18:09Z</time>
      </trkpt>
      <trkpt lat="45.11655" lon="4.9669">
        <ele>194.48162841797</ele>
        <time>2009-02-25T12:18:23Z</time>
      </trkpt>
      <trkpt lat="45.11583" lon="4.96501">
        <ele>194.98155212402</ele>
        <time>2009-02-25T12:18:48Z</time>
      </trkpt>
      <trkpt lat="45.1156" lon="4.96456">
        <ele>195.61415100098</ele>
        <time>2009-02-25T12:18:54Z</time>
      </trkpt>
      <trkpt lat="45.11475" lon="4.96328">
        <ele>198.77952575684</ele>
        <time>2009-02-25T12:19:14Z</time>
      </trkpt>
      <trkpt lat="45.11445" lon="4.96276">
        <ele>201.54397583008</ele>
        <time>2009-02-25T12:19:21Z</time>
      </trkpt>
      <trkpt lat="45.11408" lon="4.96193">
        <ele>203.10737609863</ele>
        <time>2009-02-25T12:19:32Z</time>
      </trkpt>
      <trkpt lat="45.11265" lon="4.95931">
        <ele>201.25721740723</ele>
        <time>2009-02-25T12:20:10Z</time>
      </trkpt>
      <trkpt lat="45.11149" lon="4.95754">
        <ele>195.98263549805</ele>
        <time>2009-02-25T12:20:37Z</time>
      </trkpt>
      <trkpt lat="45.11107" lon="4.95671">
        <ele>203.10209655762</ele>
        <time>2009-02-25T12:20:49Z</time>
      </trkpt>
      <trkpt lat="45.11095" lon="4.95655">
        <ele>204.96310424805</ele>
        <time>2009-02-25T12:20:51Z</time>
      </trkpt>
      <trkpt lat="45.11011" lon="4.95589">
        <ele>202.41423034668</ele>
        <time>2009-02-25T12:21:07Z</time>
      </trkpt>
      <trkpt lat="45.10984" lon="4.95557">
        <ele>199.33639526367</ele>
        <time>2009-02-25T12:21:12Z</time>
      </trkpt>
      <trkpt lat="45.10971" lon="4.95528">
        <ele>198.01824951172</ele>
        <time>2009-02-25T12:21:16Z</time>
      </trkpt>
      <trkpt lat="45.10964" lon="4.955">
        <ele>197.48745727539</ele>
        <time>2009-02-25T12:21:20Z</time>
      </trkpt>
      <trkpt lat="45.10949" lon="4.95398">
        <ele>191.72419738769</ele>
        <time>2009-02-25T12:21:31Z</time>
      </trkpt>
      <trkpt lat="45.10911" lon="4.95279">
        <ele>194.63291931152</ele>
        <time>2009-02-25T12:21:46Z</time>
      </trkpt>
      <trkpt lat="45.1086" lon="4.9514">
        <ele>198.02610778809</ele>
        <time>2009-02-25T12:22:04Z</time>
      </trkpt>
      <trkpt lat="45.10853" lon="4.95113">
        <ele>199.05169677734</ele>
        <time>2009-02-25T12:22:07Z</time>
      </trkpt>
      <trkpt lat="45.10849" lon="4.95055">
        <ele>203.23985290527</ele>
        <time>2009-02-25T12:22:14Z</time>
      </trkpt>
      <trkpt lat="45.10857" lon="4.94865">
        <ele>210.62014770508</ele>
        <time>2009-02-25T12:22:35Z</time>
      </trkpt>
      <trkpt lat="45.10862" lon="4.94821">
        <ele>210.90266418457</ele>
        <time>2009-02-25T12:22:40Z</time>
      </trkpt>
      <trkpt lat="45.10922" lon="4.94615">
        <ele>210.1483001709</ele>
        <time>2009-02-25T12:23:05Z</time>
      </trkpt>
      <trkpt lat="45.1093" lon="4.94574">
        <ele>210.29919433594</ele>
        <time>2009-02-25T12:23:10Z</time>
      </trkpt>
      <trkpt lat="45.10933" lon="4.94502">
        <ele>210.19979858398</ele>
        <time>2009-02-25T12:23:18Z</time>
      </trkpt>
      <trkpt lat="45.10929" lon="4.94413">
        <ele>209.29200744629</ele>
        <time>2009-02-25T12:23:28Z</time>
      </trkpt>
      <trkpt lat="45.10918" lon="4.94293">
        <ele>209.49227905273</ele>
        <time>2009-02-25T12:23:42Z</time>
      </trkpt>
      <trkpt lat="45.10912" lon="4.94281">
        <ele>209.57122802734</ele>
        <time>2009-02-25T12:23:44Z</time>
      </trkpt>
      <trkpt lat="45.10824" lon="4.94201">
        <ele>208.31788635254</ele>
        <time>2009-02-25T12:24:01Z</time>
      </trkpt>
      <trkpt lat="45.10739" lon="4.94067">
        <ele>207.20240783691</ele>
        <time>2009-02-25T12:24:21Z</time>
      </trkpt>
      <trkpt lat="45.10717" lon="4.94025">
        <ele>205.66226196289</ele>
        <time>2009-02-25T12:24:27Z</time>
      </trkpt>
      <trkpt lat="45.10697" lon="4.93962">
        <ele>204.54402160644</ele>
        <time>2009-02-25T12:24:35Z</time>
      </trkpt>
      <trkpt lat="45.10654" lon="4.93619">
        <ele>201.14750671387</ele>
        <time>2009-02-25T12:25:14Z</time>
      </trkpt>
      <trkpt lat="45.10616" lon="4.9345">
        <ele>197.93119812012</ele>
        <time>2009-02-25T12:25:34Z</time>
      </trkpt>
      <trkpt lat="45.10523" lon="4.92965">
        <ele>192.15892028809</ele>
        <time>2009-02-25T12:26:31Z</time>
      </trkpt>
      <trkpt lat="45.10479" lon="4.92758">
        <ele>192.32783508301</ele>
        <time>2009-02-25T12:26:55Z</time>
      </trkpt>
      <trkpt lat="45.10457" lon="4.92758">
        <ele>191.82228088379</ele>
        <time>2009-02-25T12:26:59Z</time>
      </trkpt>
      <trkpt lat="45.10439" lon="4.92765">
        <ele>191.30603027344</ele>
        <time>2009-02-25T12:27:02Z</time>
      </trkpt>
      <trkpt lat="45.10418" lon="4.92781">
        <ele>190.65260314941</ele>
        <time>2009-02-25T12:27:06Z</time>
      </trkpt>
      <trkpt lat="45.10399" lon="4.92617">
        <ele>191.84561157227</ele>
        <time>2009-02-25T12:27:24Z</time>
      </trkpt>
      <trkpt lat="45.10451" lon="4.92608">
        <ele>194.28651428223</ele>
        <time>2009-02-25T12:27:33Z</time>
      </trkpt>
      <trkpt lat="45.1037" lon="4.92128">
        <ele>188</ele>
        <time>2009-02-25T12:28:29Z</time>
      </trkpt>
      <trkpt lat="45.10304" lon="4.91765">
        <ele>190.99627685547</ele>
        <time>2009-02-25T12:29:11Z</time>
      </trkpt>
      <trkpt lat="45.10291" lon="4.91757">
        <ele>190.85636901856</ele>
        <time>2009-02-25T12:29:13Z</time>
      </trkpt>
      <trkpt lat="45.10271" lon="4.91756">
        <ele>190.41537475586</ele>
        <time>2009-02-25T12:29:16Z</time>
      </trkpt>
      <trkpt lat="45.10087" lon="4.91781">
        <ele>189.29795837402</ele>
        <time>2009-02-25T12:29:46Z</time>
      </trkpt>
      <trkpt lat="45.09825" lon="4.91827">
        <ele>192.4094543457</ele>
        <time>2009-02-25T12:30:28Z</time>
      </trkpt>
      <trkpt lat="45.09659" lon="4.91862">
        <ele>195.53263854981</ele>
        <time>2009-02-25T12:30:55Z</time>
      </trkpt>
      <trkpt lat="45.09498" lon="4.91888">
        <ele>199.10110473633</ele>
        <time>2009-02-25T12:31:21Z</time>
      </trkpt>
      <trkpt lat="45.09467" lon="4.91886">
        <ele>200.14848327637</ele>
        <time>2009-02-25T12:31:26Z</time>
      </trkpt>
      <trkpt lat="45.09384" lon="4.91849">
        <ele>203.33111572266</ele>
        <time>2009-02-25T12:31:40Z</time>
      </trkpt>
      <trkpt lat="45.09272" lon="4.91811">
        <ele>209.01397705078</ele>
        <time>2009-02-25T12:31:58Z</time>
      </trkpt>
      <trkpt lat="45.09217" lon="4.91806">
        <ele>213.06953430176</ele>
        <time>2009-02-25T12:32:07Z</time>
      </trkpt>
      <trkpt lat="45.09176" lon="4.91815">
        <ele>216.06939697266</ele>
        <time>2009-02-25T12:32:14Z</time>
      </trkpt>
      <trkpt lat="45.0906" lon="4.91856">
        <ele>223.59204101562</ele>
        <time>2009-02-25T12:32:33Z</time>
      </trkpt>
      <trkpt lat="45.08918" lon="4.91883">
        <ele>233.91305541992</ele>
        <time>2009-02-25T12:32:56Z</time>
      </trkpt>
      <trkpt lat="45.08886" lon="4.91895">
        <ele>233.89617919922</ele>
        <time>2009-02-25T12:33:01Z</time>
      </trkpt>
      <trkpt lat="45.08709" lon="4.91908">
        <ele>241.83517456055</ele>
        <time>2009-02-25T12:33:30Z</time>
      </trkpt>
      <trkpt lat="45.08603" lon="4.91917">
        <ele>246.01965332031</ele>
        <time>2009-02-25T12:33:47Z</time>
      </trkpt>
      <trkpt lat="45.08591" lon="4.91908">
        <ele>247.9181060791</ele>
        <time>2009-02-25T12:33:49Z</time>
      </trkpt>
      <trkpt lat="45.08465" lon="4.91913">
        <ele>255.58030700684</ele>
        <time>2009-02-25T12:34:09Z</time>
      </trkpt>
      <trkpt lat="45.08456" lon="4.91909">
        <ele>255.84785461426</ele>
        <time>2009-02-25T12:34:11Z</time>
      </trkpt>
      <trkpt lat="45.0845" lon="4.91898">
        <ele>256.36169433594</ele>
        <time>2009-02-25T12:34:12Z</time>
      </trkpt>
      <trkpt lat="45.0838" lon="4.91929">
        <ele>254.03182983398</ele>
        <time>2009-02-25T12:34:24Z</time>
      </trkpt>
      <trkpt lat="45.08325" lon="4.91942">
        <ele>252.71394348144</ele>
        <time>2009-02-25T12:34:33Z</time>
      </trkpt>
      <trkpt lat="45.08299" lon="4.91937">
        <ele>252.71063232422</ele>
        <time>2009-02-25T12:34:37Z</time>
      </trkpt>
      <trkpt lat="45.08154" lon="4.91883">
        <ele>248.84953308106</ele>
        <time>2009-02-25T12:35:01Z</time>
      </trkpt>
      <trkpt lat="45.08145" lon="4.9185">
        <ele>247.80645751953</ele>
        <time>2009-02-25T12:35:05Z</time>
      </trkpt>
      <trkpt lat="45.08154" lon="4.91765">
        <ele>245.51354980469</ele>
        <time>2009-02-25T12:35:15Z</time>
      </trkpt>
      <trkpt lat="45.0818" lon="4.91623">
        <ele>238.95777893066</ele>
        <time>2009-02-25T12:35:31Z</time>
      </trkpt>
      <trkpt lat="45.0818" lon="4.91594">
        <ele>236.75663757324</ele>
        <time>2009-02-25T12:35:35Z</time>
      </trkpt>
      <trkpt lat="45.08174" lon="4.91573">
        <ele>235.89848327637</ele>
        <time>2009-02-25T12:35:37Z</time>
      </trkpt>
      <trkpt lat="45.08157" lon="4.91546">
        <ele>236.76559448242</ele>
        <time>2009-02-25T12:35:41Z</time>
      </trkpt>
      <trkpt lat="45.0806" lon="4.91451">
        <ele>234.26945495606</ele>
        <time>2009-02-25T12:36:00Z</time>
      </trkpt>
      <trkpt lat="45.07979" lon="4.91351">
        <ele>228.87771606445</ele>
        <time>2009-02-25T12:36:17Z</time>
      </trkpt>
      <trkpt lat="45.0785" lon="4.91156">
        <ele>223.79370117188</ele>
        <time>2009-02-25T12:36:48Z</time>
      </trkpt>
      <trkpt lat="45.07798" lon="4.91103">
        <ele>223.35821533203</ele>
        <time>2009-02-25T12:36:58Z</time>
      </trkpt>
      <trkpt lat="45.07697" lon="4.90957">
        <ele>217.86322021484</ele>
        <time>2009-02-25T12:37:21Z</time>
      </trkpt>
      <trkpt lat="45.07673" lon="4.90914">
        <ele>215.63354492188</ele>
        <time>2009-02-25T12:37:27Z</time>
      </trkpt>
      <trkpt lat="45.0761" lon="4.90739">
        <ele>212.50143432617</ele>
        <time>2009-02-25T12:37:49Z</time>
      </trkpt>
      <trkpt lat="45.07612" lon="4.90609">
        <ele>210.21786499023</ele>
        <time>2009-02-25T12:38:04Z</time>
      </trkpt>
      <trkpt lat="45.07619" lon="4.9056">
        <ele>208.95239257812</ele>
        <time>2009-02-25T12:38:10Z</time>
      </trkpt>
      <trkpt lat="45.07638" lon="4.90505">
        <ele>206.08486938477</ele>
        <time>2009-02-25T12:38:17Z</time>
      </trkpt>
      <trkpt lat="45.07694" lon="4.90371">
        <ele>201.99996948242</ele>
        <time>2009-02-25T12:38:34Z</time>
      </trkpt>
      <trkpt lat="45.07704" lon="4.90328">
        <ele>199.74526977539</ele>
        <time>2009-02-25T12:38:39Z</time>
      </trkpt>
      <trkpt lat="45.07714" lon="4.90102">
        <ele>187.89959716797</ele>
        <time>2009-02-25T12:39:05Z</time>
      </trkpt>
      <trkpt lat="45.07731" lon="4.90011">
        <ele>186.81741333008</ele>
        <time>2009-02-25T12:39:16Z</time>
      </trkpt>
      <trkpt lat="45.07748" lon="4.89962">
        <ele>187.51170349121</ele>
        <time>2009-02-25T12:39:22Z</time>
      </trkpt>
      <trkpt lat="45.07861" lon="4.89779">
        <ele>182.08984375</ele>
        <time>2009-02-25T12:39:49Z</time>
      </trkpt>
      <trkpt lat="45.07869" lon="4.89756">
        <ele>182.21734619141</ele>
        <time>2009-02-25T12:39:52Z</time>
      </trkpt>
      <trkpt lat="45.07876" lon="4.89449">
        <ele>185.98016357422</ele>
        <time>2009-02-25T12:40:27Z</time>
      </trkpt>
      <trkpt lat="45.07869" lon="4.89395">
        <ele>186.29316711426</ele>
        <time>2009-02-25T12:40:33Z</time>
      </trkpt>
      <trkpt lat="45.0786" lon="4.89358">
        <ele>185.8670501709</ele>
        <time>2009-02-25T12:40:37Z</time>
      </trkpt>
      <trkpt lat="45.0782" lon="4.89242">
        <ele>179.10700988769</ele>
        <time>2009-02-25T12:40:52Z</time>
      </trkpt>
      <trkpt lat="45.07796" lon="4.89194">
        <ele>177.70959472656</ele>
        <time>2009-02-25T12:40:59Z</time>
      </trkpt>
      <trkpt lat="45.07764" lon="4.89094">
        <ele>170.00267028809</ele>
        <time>2009-02-25T12:41:11Z</time>
      </trkpt>
      <trkpt lat="45.07749" lon="4.89062">
        <ele>168.76382446289</ele>
        <time>2009-02-25T12:41:15Z</time>
      </trkpt>
      <trkpt lat="45.07716" lon="4.89012">
        <ele>167.97103881836</ele>
        <time>2009-02-25T12:41:23Z</time>
      </trkpt>
      <trkpt lat="45.07682" lon="4.88981">
        <ele>167.08265686035</ele>
        <time>2009-02-25T12:41:30Z</time>
      </trkpt>
      <trkpt lat="45.07647" lon="4.8896">
        <ele>166.40609741211</ele>
        <time>2009-02-25T12:41:36Z</time>
      </trkpt>
      <trkpt lat="45.0762" lon="4.88955">
        <ele>166.15707397461</ele>
        <time>2009-02-25T12:41:40Z</time>
      </trkpt>
      <trkpt lat="45.0755" lon="4.88957">
        <ele>165.76258850098</ele>
        <time>2009-02-25T12:41:51Z</time>
      </trkpt>
      <trkpt lat="45.0754" lon="4.88948">
        <ele>165.4288482666</ele>
        <time>2009-02-25T12:41:53Z</time>
      </trkpt>
      <trkpt lat="45.07515" lon="4.88954">
        <ele>165.44371032715</ele>
        <time>2009-02-25T12:41:57Z</time>
      </trkpt>
      <trkpt lat="45.07446" lon="4.88935">
        <ele>165.08804321289</ele>
        <time>2009-02-25T12:42:09Z</time>
      </trkpt>
      <trkpt lat="45.07425" lon="4.88915">
        <ele>163.94641113281</ele>
        <time>2009-02-25T12:42:13Z</time>
      </trkpt>
      <trkpt lat="45.07382" lon="4.88834">
        <ele>160.18434143066</ele>
        <time>2009-02-25T12:42:24Z</time>
      </trkpt>
      <trkpt lat="45.07366" lon="4.88738">
        <ele>158.99580383301</ele>
        <time>2009-02-25T12:42:35Z</time>
      </trkpt>
      <trkpt lat="45.07255" lon="4.88687">
        <ele>157.96820068359</ele>
        <time>2009-02-25T12:42:54Z</time>
      </trkpt>
      <trkpt lat="45.07201" lon="4.88674">
        <ele>157.94812011719</ele>
        <time>2009-02-25T12:43:03Z</time>
      </trkpt>
      <trkpt lat="45.07159" lon="4.88649">
        <ele>157.58544921875</ele>
        <time>2009-02-25T12:43:10Z</time>
      </trkpt>
      <trkpt lat="45.0713" lon="4.88625">
        <ele>156.40155029297</ele>
        <time>2009-02-25T12:43:15Z</time>
      </trkpt>
      <trkpt lat="45.07132" lon="4.88558">
        <ele>155.57315063477</ele>
        <time>2009-02-25T12:43:23Z</time>
      </trkpt>
      <trkpt lat="45.07127" lon="4.88545">
        <ele>155.33085632324</ele>
        <time>2009-02-25T12:43:25Z</time>
      </trkpt>
      <trkpt lat="45.06996" lon="4.88515">
        <ele>153.36819458008</ele>
        <time>2009-02-25T12:43:46Z</time>
      </trkpt>
      <trkpt lat="45.0668" lon="4.88442">
        <ele>155.09658813477</ele>
        <time>2009-02-25T12:44:37Z</time>
      </trkpt>
      <trkpt lat="45.06672" lon="4.88441">
        <ele>155.2106628418</ele>
        <time>2009-02-25T12:44:38Z</time>
      </trkpt>
      <trkpt lat="45.06651" lon="4.88436">
        <ele>154.99911499023</ele>
        <time>2009-02-25T12:44:42Z</time>
      </trkpt>
      <trkpt lat="45.06668" lon="4.88324">
        <ele>154.76516723633</ele>
        <time>2009-02-25T12:44:55Z</time>
      </trkpt>
      <trkpt lat="45.06694" lon="4.88203">
        <ele>151.95637512207</ele>
        <time>2009-02-25T12:45:09Z</time>
      </trkpt>
      <trkpt lat="45.06751" lon="4.88013">
        <ele>150.35005187988</ele>
        <time>2009-02-25T12:45:32Z</time>
      </trkpt>
      <trkpt lat="45.06819" lon="4.87726">
        <ele>146.79280090332</ele>
        <time>2009-02-25T12:46:07Z</time>
      </trkpt>
      <trkpt lat="45.06831" lon="4.87611">
        <ele>144.61715698242</ele>
        <time>2009-02-25T12:46:20Z</time>
      </trkpt>
      <trkpt lat="45.06841" lon="4.87583">
        <ele>144.17738342285</ele>
        <time>2009-02-25T12:46:23Z</time>
      </trkpt>
      <trkpt lat="45.06852" lon="4.87429">
        <ele>143.03308105469</ele>
        <time>2009-02-25T12:46:41Z</time>
      </trkpt>
      <trkpt lat="45.06871" lon="4.87284">
        <ele>143.03883361816</ele>
        <time>2009-02-25T12:46:58Z</time>
      </trkpt>
      <trkpt lat="45.06868" lon="4.87267">
        <ele>143.03439331055</ele>
        <time>2009-02-25T12:47:00Z</time>
      </trkpt>
      <trkpt lat="45.06879" lon="4.87235">
        <ele>142.83770751953</ele>
        <time>2009-02-25T12:47:04Z</time>
      </trkpt>
      <trkpt lat="45.06931" lon="4.87128">
        <ele>142.27340698242</ele>
        <time>2009-02-25T12:47:18Z</time>
      </trkpt>
      <trkpt lat="45.06966" lon="4.87072">
        <ele>141.0245513916</ele>
        <time>2009-02-25T12:47:27Z</time>
      </trkpt>
      <trkpt lat="45.06991" lon="4.87022">
        <ele>139.47645568848</ele>
        <time>2009-02-25T12:47:34Z</time>
      </trkpt>
      <trkpt lat="45.07002" lon="4.86988">
        <ele>138.66743469238</ele>
        <time>2009-02-25T12:47:38Z</time>
      </trkpt>
      <trkpt lat="45.07033" lon="4.86836">
        <ele>134.07064819336</ele>
        <time>2009-02-25T12:47:56Z</time>
      </trkpt>
      <trkpt lat="45.07039" lon="4.86724">
        <ele>133.26741027832</ele>
        <time>2009-02-25T12:48:08Z</time>
      </trkpt>
      <trkpt lat="45.07053" lon="4.86684">
        <ele>132.51542663574</ele>
        <time>2009-02-25T12:48:13Z</time>
      </trkpt>
      <trkpt lat="45.07074" lon="4.86644">
        <ele>131.80950927734</ele>
        <time>2009-02-25T12:48:19Z</time>
      </trkpt>
      <trkpt lat="45.07081" lon="4.86617">
        <ele>131.41600036621</ele>
        <time>2009-02-25T12:48:22Z</time>
      </trkpt>
      <trkpt lat="45.07084" lon="4.86587">
        <ele>131.05101013184</ele>
        <time>2009-02-25T12:48:26Z</time>
      </trkpt>
      <trkpt lat="45.07078" lon="4.8653">
        <ele>130.96035766602</ele>
        <time>2009-02-25T12:48:32Z</time>
      </trkpt>
      <trkpt lat="45.07054" lon="4.86472">
        <ele>130.31350708008</ele>
        <time>2009-02-25T12:48:40Z</time>
      </trkpt>
      <trkpt lat="45.07062" lon="4.86441">
        <ele>130.03768920898</ele>
        <time>2009-02-25T12:48:44Z</time>
      </trkpt>
      <trkpt lat="45.07057" lon="4.86415">
        <ele>129.66633605957</ele>
        <time>2009-02-25T12:48:47Z</time>
      </trkpt>
      <trkpt lat="45.07043" lon="4.86393">
        <ele>129.23318481445</ele>
        <time>2009-02-25T12:48:50Z</time>
      </trkpt>
      <trkpt lat="45.07024" lon="4.86383">
        <ele>128.88412475586</ele>
        <time>2009-02-25T12:48:53Z</time>
      </trkpt>
      <trkpt lat="45.07056" lon="4.86288">
        <ele>128.8505859375</ele>
        <time>2009-02-25T12:49:05Z</time>
      </trkpt>
      <trkpt lat="45.07071" lon="4.86217">
        <ele>128.60426330566</ele>
        <time>2009-02-25T12:49:14Z</time>
      </trkpt>
      <trkpt lat="45.07072" lon="4.86165">
        <ele>128.0173034668</ele>
        <time>2009-02-25T12:49:19Z</time>
      </trkpt>
      <trkpt lat="45.07065" lon="4.8601">
        <ele>128.77783203125</ele>
        <time>2009-02-25T12:49:37Z</time>
      </trkpt>
      <trkpt lat="45.07068" lon="4.85922">
        <ele>128.39949035644</ele>
        <time>2009-02-25T12:49:47Z</time>
      </trkpt>
      <trkpt lat="45.07081" lon="4.85851">
        <ele>128.01268005371</ele>
        <time>2009-02-25T12:49:55Z</time>
      </trkpt>
      <trkpt lat="45.07089" lon="4.8585">
        <ele>128.06622314453</ele>
        <time>2009-02-25T12:49:57Z</time>
      </trkpt>
      <trkpt lat="45.07095" lon="4.85838">
        <ele>128.13946533203</ele>
        <time>2009-02-25T12:49:58Z</time>
      </trkpt>
      <trkpt lat="45.0709" lon="4.85825">
        <ele>127.97214508057</ele>
        <time>2009-02-25T12:50:00Z</time>
      </trkpt>
      <trkpt lat="45.07081" lon="4.85821">
        <ele>127.84325408935</ele>
        <time>2009-02-25T12:50:01Z</time>
      </trkpt>
      <trkpt lat="45.0709" lon="4.85526">
        <ele>124.15991210938</ele>
        <time>2009-02-25T12:50:35Z</time>
      </trkpt>
      <trkpt lat="45.07091" lon="4.85366">
        <ele>122.57950592041</ele>
        <time>2009-02-25T12:50:53Z</time>
      </trkpt>
      <trkpt lat="45.07077" lon="4.85085">
        <ele>120.94444274902</ele>
        <time>2009-02-25T12:51:25Z</time>
      </trkpt>
      <trkpt lat="45.0708" lon="4.85009">
        <ele>120.99578094482</ele>
        <time>2009-02-25T12:51:33Z</time>
      </trkpt>
      <trkpt lat="45.07078" lon="4.84956">
        <ele>120.96727752685</ele>
        <time>2009-02-25T12:51:39Z</time>
      </trkpt>
      <trkpt lat="45.0705" lon="4.84794">
        <ele>121.59930419922</ele>
        <time>2009-02-25T12:51:58Z</time>
      </trkpt>
      <trkpt lat="45.07038" lon="4.84684">
        <ele>121.09508514404</ele>
        <time>2009-02-25T12:52:11Z</time>
      </trkpt>
      <trkpt lat="45.07022" lon="4.84579">
        <ele>120.3034286499</ele>
        <time>2009-02-25T12:52:23Z</time>
      </trkpt>
      <trkpt lat="45.07021" lon="4.84485">
        <ele>120.86531066894</ele>
        <time>2009-02-25T12:52:34Z</time>
      </trkpt>
      <trkpt lat="45.07038" lon="4.84325">
        <ele>121.05438995361</ele>
        <time>2009-02-25T12:52:52Z</time>
      </trkpt>
      <trkpt lat="45.07044" lon="4.8432">
        <ele>121.07571411133</ele>
        <time>2009-02-25T12:52:53Z</time>
      </trkpt>
      <trkpt lat="45.07042" lon="4.84315">
        <ele>121.10922241211</ele>
        <time>2009-02-25T12:52:54Z</time>
      </trkpt>
      <trkpt lat="45.07038" lon="4.84314">
        <ele>121.12580108643</ele>
        <time>2009-02-25T12:52:54Z</time>
      </trkpt>
      <trkpt lat="45.07035" lon="4.8432">
        <ele>121.09252929688</ele>
        <time>2009-02-25T12:52:55Z</time>
      </trkpt>
      <trkpt lat="45.06877" lon="4.84334">
        <ele>120.94457244873</ele>
        <time>2009-02-25T12:53:20Z</time>
      </trkpt>
      <trkpt lat="45.06905" lon="4.84236">
        <ele>120.58856964111</ele>
        <time>2009-02-25T12:53:32Z</time>
      </trkpt>
      <trkpt lat="45.06787" lon="4.84125">
        <ele>119.89450073242</ele>
        <time>2009-02-25T12:53:55Z</time>
      </trkpt>
      <trkpt lat="45.06682" lon="4.84052">
        <ele>116.11347198486</ele>
        <time>2009-02-25T12:54:14Z</time>
      </trkpt>
      <trkpt lat="45.0656" lon="4.83998">
        <ele>118.84178161621</ele>
        <time>2009-02-25T12:54:34Z</time>
      </trkpt>
      <trkpt lat="45.06559" lon="4.83986">
        <ele>118.92543029785</ele>
        <time>2009-02-25T12:54:36Z</time>
      </trkpt>
      <trkpt lat="45.06569" lon="4.83949">
        <ele>118.62523651123</ele>
        <time>2009-02-25T12:54:40Z</time>
      </trkpt>
      <trkpt lat="45.0664" lon="4.83769">
        <ele>119.12551879883</ele>
        <time>2009-02-25T12:55:03Z</time>
      </trkpt>
      <trkpt lat="45.0664" lon="4.83758">
        <ele>119.38412475586</ele>
        <time>2009-02-25T12:55:05Z</time>
      </trkpt>
      <trkpt lat="45.06668" lon="4.83684">
        <ele>121.6661529541</ele>
        <time>2009-02-25T12:55:14Z</time>
      </trkpt>
      <trkpt lat="45.0678" lon="4.83442">
        <ele>124.2205657959</ele>
        <time>2009-02-25T12:55:47Z</time>
      </trkpt>
      <trkpt lat="45.06746" lon="4.8342">
        <ele>127.97848510742</ele>
        <time>2009-02-25T12:55:53Z</time>
      </trkpt>
      <trkpt lat="45.06706" lon="4.83432">
        <ele>128.50720214844</ele>
        <time>2009-02-25T12:55:59Z</time>
      </trkpt>
      <trkpt lat="45.06615" lon="4.83447">
        <ele>126.65716552734</ele>
        <time>2009-02-25T12:56:14Z</time>
      </trkpt>
      <trkpt lat="45.06566" lon="4.83474">
        <ele>124.62361145019</ele>
        <time>2009-02-25T12:56:23Z</time>
      </trkpt>
      <trkpt lat="45.06538" lon="4.83428">
        <ele>125.72796630859</ele>
        <time>2009-02-25T12:56:29Z</time>
      </trkpt>
      <trkpt lat="45.06527" lon="4.83399">
        <ele>126.71050262451</ele>
        <time>2009-02-25T12:56:33Z</time>
      </trkpt>
      <trkpt lat="45.06534" lon="4.83219">
        <ele>138.88171386719</ele>
        <time>2009-02-25T12:56:54Z</time>
      </trkpt>
      <trkpt lat="45.06597" lon="4.8316">
        <ele>141.45971679688</ele>
        <time>2009-02-25T12:57:06Z</time>
      </trkpt>
      <trkpt lat="45.06609" lon="4.8314">
        <ele>147.00700378418</ele>
        <time>2009-02-25T12:57:09Z</time>
      </trkpt>
      <trkpt lat="45.06615" lon="4.83117">
        <ele>153.39210510254</ele>
        <time>2009-02-25T12:57:11Z</time>
      </trkpt>
      <trkpt lat="45.06614" lon="4.83111">
        <ele>155.43986511231</ele>
        <time>2009-02-25T12:57:12Z</time>
      </trkpt>
      <trkpt lat="45.06606" lon="4.8311">
        <ele>157.14645385742</ele>
        <time>2009-02-25T12:57:13Z</time>
      </trkpt>
      <trkpt lat="45.0655" lon="4.83124">
        <ele>159.05279541016</ele>
        <time>2009-02-25T12:57:22Z</time>
      </trkpt>
      <trkpt lat="45.06465" lon="4.8315">
        <ele>162.02061462402</ele>
        <time>2009-02-25T12:57:36Z</time>
      </trkpt>
      <trkpt lat="45.06373" lon="4.83165">
        <ele>172.42776489258</ele>
        <time>2009-02-25T12:57:51Z</time>
      </trkpt>
      <trkpt lat="45.06346" lon="4.83164">
        <ele>176.9845123291</ele>
        <time>2009-02-25T12:57:56Z</time>
      </trkpt>
      <trkpt lat="45.06304" lon="4.83166">
        <ele>181.4083404541</ele>
        <time>2009-02-25T12:58:02Z</time>
      </trkpt>
      <trkpt lat="45.06271" lon="4.83182">
        <ele>178.98593139648</ele>
        <time>2009-02-25T12:58:08Z</time>
      </trkpt>
      <trkpt lat="45.06254" lon="4.83185">
        <ele>179.39646911621</ele>
        <time>2009-02-25T12:58:11Z</time>
      </trkpt>
      <trkpt lat="45.0623" lon="4.83184">
        <ele>180.07537841797</ele>
        <time>2009-02-25T12:58:14Z</time>
      </trkpt>
      <trkpt lat="45.06179" lon="4.83159">
        <ele>191.33576965332</ele>
        <time>2009-02-25T12:58:23Z</time>
      </trkpt>
      <trkpt lat="45.06137" lon="4.83165">
        <ele>184.21150207519</ele>
        <time>2009-02-25T12:58:30Z</time>
      </trkpt>
      <trkpt lat="45.06088" lon="4.83138">
        <ele>190.7565612793</ele>
        <time>2009-02-25T12:58:38Z</time>
      </trkpt>
      <trkpt lat="45.06051" lon="4.83124">
        <ele>192.42726135254</ele>
        <time>2009-02-25T12:58:44Z</time>
      </trkpt>
      <trkpt lat="45.06034" lon="4.83084">
        <ele>209.21591186523</ele>
        <time>2009-02-25T12:58:50Z</time>
      </trkpt>
      <trkpt lat="45.0592" lon="4.83078">
        <ele>205.08558654785</ele>
        <time>2009-02-25T12:59:08Z</time>
      </trkpt>
      <trkpt lat="45.05895" lon="4.8306">
        <ele>207.30790710449</ele>
        <time>2009-02-25T12:59:12Z</time>
      </trkpt>
      <trkpt lat="45.05858" lon="4.83054">
        <ele>201.18699645996</ele>
        <time>2009-02-25T12:59:18Z</time>
      </trkpt>
      <trkpt lat="45.05853" lon="4.83049">
        <ele>201.54780578613</ele>
        <time>2009-02-25T12:59:19Z</time>
      </trkpt>
      <trkpt lat="45.05849" lon="4.83016">
        <ele>210.13185119629</ele>
        <time>2009-02-25T12:59:23Z</time>
      </trkpt>
      <trkpt lat="45.05842" lon="4.83">
        <ele>212.54782104492</ele>
        <time>2009-02-25T12:59:25Z</time>
      </trkpt>
      <trkpt lat="45.05821" lon="4.82977">
        <ele>206.27688598633</ele>
        <time>2009-02-25T12:59:30Z</time>
      </trkpt>
      <trkpt lat="45.05819" lon="4.82966">
        <ele>205.80465698242</ele>
        <time>2009-02-25T12:59:31Z</time>
      </trkpt>
      <trkpt lat="45.05825" lon="4.82956">
        <ele>206.64990234375</ele>
        <time>2009-02-25T12:59:32Z</time>
      </trkpt>
      <trkpt lat="45.05857" lon="4.82942">
        <ele>213.54887390137</ele>
        <time>2009-02-25T12:59:38Z</time>
      </trkpt>
      <trkpt lat="45.05903" lon="4.82896">
        <ele>223.26875305176</ele>
        <time>2009-02-25T12:59:47Z</time>
      </trkpt>
      <trkpt lat="45.05942" lon="4.82867">
        <ele>230.7453918457</ele>
        <time>2009-02-25T12:59:54Z</time>
      </trkpt>
      <trkpt lat="45.05973" lon="4.82836">
        <ele>234.1717376709</ele>
        <time>2009-02-25T13:00:00Z</time>
      </trkpt>
      <trkpt lat="45.05999" lon="4.82787">
        <ele>243.91261291504</ele>
        <time>2009-02-25T13:00:07Z</time>
      </trkpt>
      <trkpt lat="45.06008" lon="4.82762">
        <ele>249.10589599609</ele>
        <time>2009-02-25T13:00:10Z</time>
      </trkpt>
      <trkpt lat="45.06018" lon="4.82724">
        <ele>259.71682739258</ele>
        <time>2009-02-25T13:00:15Z</time>
      </trkpt>
      <trkpt lat="45.06013" lon="4.827">
        <ele>264.50180053711</ele>
        <time>2009-02-25T13:00:17Z</time>
      </trkpt>
      <trkpt lat="45.05992" lon="4.82706">
        <ele>260.49212646484</ele>
        <time>2009-02-25T13:00:21Z</time>
      </trkpt>
      <trkpt lat="45.05961" lon="4.82736">
        <ele>252.09956359863</ele>
        <time>2009-02-25T13:00:27Z</time>
      </trkpt>
      <trkpt lat="45.05929" lon="4.82726">
        <ele>255.97622680664</ele>
        <time>2009-02-25T13:00:32Z</time>
      </trkpt>
      <trkpt lat="45.05891" lon="4.82733">
        <ele>252.78317260742</ele>
        <time>2009-02-25T13:00:38Z</time>
      </trkpt>
      <trkpt lat="45.05881" lon="4.82728">
        <ele>254.36795043945</ele>
        <time>2009-02-25T13:00:40Z</time>
      </trkpt>
      <trkpt lat="45.05852" lon="4.82693">
        <ele>266.27789306641</ele>
        <time>2009-02-25T13:00:46Z</time>
      </trkpt>
      <trkpt lat="45.05843" lon="4.82691">
        <ele>266.63439941406</ele>
        <time>2009-02-25T13:00:47Z</time>
      </trkpt>
      <trkpt lat="45.05831" lon="4.82693">
        <ele>265.708984375</ele>
        <time>2009-02-25T13:00:49Z</time>
      </trkpt>
      <trkpt lat="45.05811" lon="4.82712">
        <ele>260.88418579102</ele>
        <time>2009-02-25T13:00:53Z</time>
      </trkpt>
      <trkpt lat="45.05763" lon="4.82709">
        <ele>266.55902099609</ele>
        <time>2009-02-25T13:01:01Z</time>
      </trkpt>
      <trkpt lat="45.05739" lon="4.82717">
        <ele>263.21041870117</ele>
        <time>2009-02-25T13:01:05Z</time>
      </trkpt>
      <trkpt lat="45.05732" lon="4.82713">
        <ele>263.13439941406</ele>
        <time>2009-02-25T13:01:06Z</time>
      </trkpt>
      <trkpt lat="45.05719" lon="4.82681">
        <ele>270.09014892578</ele>
        <time>2009-02-25T13:01:10Z</time>
      </trkpt>
      <trkpt lat="45.05699" lon="4.82659">
        <ele>272.39721679688</ele>
        <time>2009-02-25T13:01:14Z</time>
      </trkpt>
      <trkpt lat="45.05694" lon="4.82645">
        <ele>275.73089599609</ele>
        <time>2009-02-25T13:01:16Z</time>
      </trkpt>
      <trkpt lat="45.05691" lon="4.82599">
        <ele>289.92105102539</ele>
        <time>2009-02-25T13:01:21Z</time>
      </trkpt>
      <trkpt lat="45.05685" lon="4.82592">
        <ele>291.36923217773</ele>
        <time>2009-02-25T13:01:23Z</time>
      </trkpt>
      <trkpt lat="45.05638" lon="4.82581">
        <ele>292.13049316406</ele>
        <time>2009-02-25T13:01:30Z</time>
      </trkpt>
      <trkpt lat="45.05583" lon="4.82587">
        <ele>289.7239074707</ele>
        <time>2009-02-25T13:01:39Z</time>
      </trkpt>
      <trkpt lat="45.05553" lon="4.82579">
        <ele>286.31567382812</ele>
        <time>2009-02-25T13:01:44Z</time>
      </trkpt>
      <trkpt lat="45.05524" lon="4.82556">
        <ele>283.80422973633</ele>
        <time>2009-02-25T13:01:49Z</time>
      </trkpt>
      <trkpt lat="45.05502" lon="4.82531">
        <ele>282.94589233398</ele>
        <time>2009-02-25T13:01:54Z</time>
      </trkpt>
      <trkpt lat="45.05492" lon="4.82513">
        <ele>283.54888916016</ele>
        <time>2009-02-25T13:01:56Z</time>
      </trkpt>
      <trkpt lat="45.0549" lon="4.82483">
        <ele>283.15780639648</ele>
        <time>2009-02-25T13:02:00Z</time>
      </trkpt>
      <trkpt lat="45.05496" lon="4.82474">
        <ele>282.98788452148</ele>
        <time>2009-02-25T13:02:01Z</time>
      </trkpt>
      <trkpt lat="45.05542" lon="4.82451">
        <ele>288.23251342773</ele>
        <time>2009-02-25T13:02:09Z</time>
      </trkpt>
      <trkpt lat="45.05601" lon="4.82458">
        <ele>299.32629394531</ele>
        <time>2009-02-25T13:02:18Z</time>
      </trkpt>
      <trkpt lat="45.05613" lon="4.82432">
        <ele>300.76470947266</ele>
        <time>2009-02-25T13:02:22Z</time>
      </trkpt>
      <trkpt lat="45.05642" lon="4.82404">
        <ele>307.04330444336</ele>
        <time>2009-02-25T13:02:28Z</time>
      </trkpt>
      <trkpt lat="45.0566" lon="4.82367">
        <ele>309.61587524414</ele>
        <time>2009-02-25T13:02:33Z</time>
      </trkpt>
      <trkpt lat="45.05678" lon="4.8236">
        <ele>312.58303833008</ele>
        <time>2009-02-25T13:02:36Z</time>
      </trkpt>
      <trkpt lat="45.0571" lon="4.82364">
        <ele>319.08792114258</ele>
        <time>2009-02-25T13:02:41Z</time>
      </trkpt>
      <trkpt lat="45.05726" lon="4.82348">
        <ele>321.65505981445</ele>
        <time>2009-02-25T13:02:44Z</time>
      </trkpt>
      <trkpt lat="45.05762" lon="4.82332">
        <ele>328.13415527344</ele>
        <time>2009-02-25T13:02:50Z</time>
      </trkpt>
      <trkpt lat="45.05768" lon="4.82323">
        <ele>329.79281616211</ele>
        <time>2009-02-25T13:02:51Z</time>
      </trkpt>
      <trkpt lat="45.05771" lon="4.82303">
        <ele>331.87322998047</ele>
        <time>2009-02-25T13:02:54Z</time>
      </trkpt>
      <trkpt lat="45.05753" lon="4.82267">
        <ele>331.3271484375</ele>
        <time>2009-02-25T13:02:59Z</time>
      </trkpt>
      <trkpt lat="45.05741" lon="4.82231">
        <ele>331.72125244141</ele>
        <time>2009-02-25T13:03:03Z</time>
      </trkpt>
      <trkpt lat="45.05753" lon="4.82196">
        <ele>333.67828369141</ele>
        <time>2009-02-25T13:03:08Z</time>
      </trkpt>
      <trkpt lat="45.0576" lon="4.82187">
        <ele>334.68389892578</ele>
        <time>2009-02-25T13:03:09Z</time>
      </trkpt>
      <trkpt lat="45.05785" lon="4.82171">
        <ele>337.42971801758</ele>
        <time>2009-02-25T13:03:13Z</time>
      </trkpt>
      <trkpt lat="45.05841" lon="4.82164">
        <ele>342.88131713867</ele>
        <time>2009-02-25T13:03:22Z</time>
      </trkpt>
      <trkpt lat="45.05866" lon="4.82151">
        <ele>345.54934692383</ele>
        <time>2009-02-25T13:03:27Z</time>
      </trkpt>
      <trkpt lat="45.05989" lon="4.82059">
        <ele>349.97448730469</ele>
        <time>2009-02-25T13:03:49Z</time>
      </trkpt>
      <trkpt lat="45.05995" lon="4.82042">
        <ele>350.60317993164</ele>
        <time>2009-02-25T13:03:51Z</time>
      </trkpt>
      <trkpt lat="45.05993" lon="4.8193">
        <ele>355.57083129883</ele>
        <time>2009-02-25T13:04:04Z</time>
      </trkpt>
      <trkpt lat="45.05996" lon="4.81864">
        <ele>357.23779296875</ele>
        <time>2009-02-25T13:04:11Z</time>
      </trkpt>
      <trkpt lat="45.06012" lon="4.81752">
        <ele>355.63980102539</ele>
        <time>2009-02-25T13:04:24Z</time>
      </trkpt>
      <trkpt lat="45.0601" lon="4.81734">
        <ele>356.35055541992</ele>
        <time>2009-02-25T13:04:26Z</time>
      </trkpt>
      <trkpt lat="45.05941" lon="4.81545">
        <ele>358.14785766602</ele>
        <time>2009-02-25T13:04:50Z</time>
      </trkpt>
      <trkpt lat="45.05873" lon="4.81441">
        <ele>350.94125366211</ele>
        <time>2009-02-25T13:05:06Z</time>
      </trkpt>
      <trkpt lat="45.05855" lon="4.81433">
        <ele>350.71142578125</ele>
        <time>2009-02-25T13:05:09Z</time>
      </trkpt>
      <trkpt lat="45.05821" lon="4.81434">
        <ele>351.77966308594</ele>
        <time>2009-02-25T13:05:15Z</time>
      </trkpt>
      <trkpt lat="45.05798" lon="4.81423">
        <ele>350.58688354492</ele>
        <time>2009-02-25T13:05:19Z</time>
      </trkpt>
      <trkpt lat="45.05778" lon="4.81399">
        <ele>350.06362915039</ele>
        <time>2009-02-25T13:05:23Z</time>
      </trkpt>
      <trkpt lat="45.05767" lon="4.8137">
        <ele>350.76257324219</ele>
        <time>2009-02-25T13:05:27Z</time>
      </trkpt>
      <trkpt lat="45.05737" lon="4.81318">
        <ele>353.10491943359</ele>
        <time>2009-02-25T13:05:34Z</time>
      </trkpt>
      <trkpt lat="45.05726" lon="4.81282">
        <ele>354.60134887695</ele>
        <time>2009-02-25T13:05:39Z</time>
      </trkpt>
      <trkpt lat="45.0568" lon="4.81208">
        <ele>356.50042724609</ele>
        <time>2009-02-25T13:05:50Z</time>
      </trkpt>
      <trkpt lat="45.05673" lon="4.81171">
        <ele>359.84478759766</ele>
        <time>2009-02-25T13:05:54Z</time>
      </trkpt>
      <trkpt lat="45.05647" lon="4.81121">
        <ele>361.68280029297</ele>
        <time>2009-02-25T13:06:01Z</time>
      </trkpt>
      <trkpt lat="45.05618" lon="4.81088">
        <ele>362.3454284668</ele>
        <time>2009-02-25T13:06:07Z</time>
      </trkpt>
      <trkpt lat="45.05532" lon="4.81037">
        <ele>352.40341186523</ele>
        <time>2009-02-25T13:06:22Z</time>
      </trkpt>
      <trkpt lat="45.05475" lon="4.81022">
        <ele>349.65710449219</ele>
        <time>2009-02-25T13:06:31Z</time>
      </trkpt>
      <trkpt lat="45.05416" lon="4.81018">
        <ele>351.89758300781</ele>
        <time>2009-02-25T13:06:41Z</time>
      </trkpt>
      <trkpt lat="45.05384" lon="4.81025">
        <ele>349.84197998047</ele>
        <time>2009-02-25T13:06:46Z</time>
      </trkpt>
      <trkpt lat="45.05355" lon="4.81044">
        <ele>349.18841552734</ele>
        <time>2009-02-25T13:06:51Z</time>
      </trkpt>
      <trkpt lat="45.05321" lon="4.81106">
        <ele>348.73498535156</ele>
        <time>2009-02-25T13:07:00Z</time>
      </trkpt>
      <trkpt lat="45.05309" lon="4.81105">
        <ele>346.4638671875</ele>
        <time>2009-02-25T13:07:02Z</time>
      </trkpt>
      <trkpt lat="45.05308" lon="4.81012">
        <ele>339.83532714844</ele>
        <time>2009-02-25T13:07:12Z</time>
      </trkpt>
      <trkpt lat="45.05322" lon="4.80982">
        <ele>339.37985229492</ele>
        <time>2009-02-25T13:07:17Z</time>
      </trkpt>
      <trkpt lat="45.05323" lon="4.8097">
        <ele>338.43344116211</ele>
        <time>2009-02-25T13:07:18Z</time>
      </trkpt>
      <trkpt lat="45.05323" lon="4.80938">
        <ele>335.40930175781</ele>
        <time>2009-02-25T13:07:22Z</time>
      </trkpt>
      <trkpt lat="45.05313" lon="4.80894">
        <ele>330.32089233398</ele>
        <time>2009-02-25T13:07:27Z</time>
      </trkpt>
      <trkpt lat="45.05283" lon="4.80825">
        <ele>326.57333374023</ele>
        <time>2009-02-25T13:07:36Z</time>
      </trkpt>
      <trkpt lat="45.0527" lon="4.80724">
        <ele>328.7204284668</ele>
        <time>2009-02-25T13:07:48Z</time>
      </trkpt>
      <trkpt lat="45.05251" lon="4.80667">
        <ele>332.70712280273</ele>
        <time>2009-02-25T13:07:55Z</time>
      </trkpt>
      <trkpt lat="45.05227" lon="4.8063">
        <ele>330.04318237305</ele>
        <time>2009-02-25T13:08:00Z</time>
      </trkpt>
      <trkpt lat="45.05164" lon="4.8058">
        <ele>334.9475402832</ele>
        <time>2009-02-25T13:08:12Z</time>
      </trkpt>
      <trkpt lat="45.05149" lon="4.80558">
        <ele>334.63888549805</ele>
        <time>2009-02-25T13:08:15Z</time>
      </trkpt>
      <trkpt lat="45.0513" lon="4.80518">
        <ele>334.21789550781</ele>
        <time>2009-02-25T13:08:21Z</time>
      </trkpt>
      <trkpt lat="45.05124" lon="4.80484">
        <ele>335.1838684082</ele>
        <time>2009-02-25T13:08:25Z</time>
      </trkpt>
      <trkpt lat="45.05127" lon="4.80434">
        <ele>338.80758666992</ele>
        <time>2009-02-25T13:08:30Z</time>
      </trkpt>
      <trkpt lat="45.05136" lon="4.80405">
        <ele>342.64779663086</ele>
        <time>2009-02-25T13:08:34Z</time>
      </trkpt>
      <trkpt lat="45.0515" lon="4.80378">
        <ele>347.9680480957</ele>
        <time>2009-02-25T13:08:38Z</time>
      </trkpt>
      <trkpt lat="45.05168" lon="4.80358">
        <ele>351.78994750977</ele>
        <time>2009-02-25T13:08:41Z</time>
      </trkpt>
      <trkpt lat="45.05249" lon="4.80335">
        <ele>352.69644165039</ele>
        <time>2009-02-25T13:08:55Z</time>
      </trkpt>
      <trkpt lat="45.05302" lon="4.80301">
        <ele>346.33016967773</ele>
        <time>2009-02-25T13:09:04Z</time>
      </trkpt>
      <trkpt lat="45.05307" lon="4.80291">
        <ele>345.78082275391</ele>
        <time>2009-02-25T13:09:05Z</time>
      </trkpt>
      <trkpt lat="45.05312" lon="4.80251">
        <ele>345.82534790039</ele>
        <time>2009-02-25T13:09:10Z</time>
      </trkpt>
      <trkpt lat="45.05308" lon="4.80225">
        <ele>346.5673828125</ele>
        <time>2009-02-25T13:09:13Z</time>
      </trkpt>
      <trkpt lat="45.05299" lon="4.80217">
        <ele>348.53112792969</ele>
        <time>2009-02-25T13:09:15Z</time>
      </trkpt>
      <trkpt lat="45.05243" lon="4.80205">
        <ele>360.86322021484</ele>
        <time>2009-02-25T13:09:24Z</time>
      </trkpt>
      <trkpt lat="45.05227" lon="4.80188">
        <ele>364.80160522461</ele>
        <time>2009-02-25T13:09:27Z</time>
      </trkpt>
      <trkpt lat="45.05227" lon="4.80174">
        <ele>365.87228393555</ele>
        <time>2009-02-25T13:09:29Z</time>
      </trkpt>
      <trkpt lat="45.05233" lon="4.80156">
        <ele>365.00747680664</ele>
        <time>2009-02-25T13:09:31Z</time>
      </trkpt>
      <trkpt lat="45.05254" lon="4.80115">
        <ele>359.76751708984</ele>
        <time>2009-02-25T13:09:37Z</time>
      </trkpt>
      <trkpt lat="45.05255" lon="4.80105">
        <ele>359.25796508789</ele>
        <time>2009-02-25T13:09:38Z</time>
      </trkpt>
      <trkpt lat="45.05253" lon="4.80083">
        <ele>359.27877807617</ele>
        <time>2009-02-25T13:09:40Z</time>
      </trkpt>
      <trkpt lat="45.05236" lon="4.80051">
        <ele>358.796875</ele>
        <time>2009-02-25T13:09:45Z</time>
      </trkpt>
      <trkpt lat="45.05227" lon="4.80043">
        <ele>359.59338378906</ele>
        <time>2009-02-25T13:09:46Z</time>
      </trkpt>
      <trkpt lat="45.052" lon="4.80036">
        <ele>363.95816040039</ele>
        <time>2009-02-25T13:09:51Z</time>
      </trkpt>
      <trkpt lat="45.05107" lon="4.8003">
        <ele>377.86181640625</ele>
        <time>2009-02-25T13:10:06Z</time>
      </trkpt>
      <trkpt lat="45.05101" lon="4.80003">
        <ele>376.49038696289</ele>
        <time>2009-02-25T13:10:09Z</time>
      </trkpt>
      <trkpt lat="45.05103" lon="4.79961">
        <ele>371.48599243164</ele>
        <time>2009-02-25T13:10:14Z</time>
      </trkpt>
      <trkpt lat="45.05096" lon="4.79938">
        <ele>369.80068969727</ele>
        <time>2009-02-25T13:10:17Z</time>
      </trkpt>
      <trkpt lat="45.04992" lon="4.79926">
        <ele>381.02923583984</ele>
        <time>2009-02-25T13:10:33Z</time>
      </trkpt>
      <trkpt lat="45.04937" lon="4.79874">
        <ele>391.13461303711</ele>
        <time>2009-02-25T13:10:44Z</time>
      </trkpt>
      <trkpt lat="45.04937" lon="4.79865">
        <ele>391.78079223633</ele>
        <time>2009-02-25T13:10:45Z</time>
      </trkpt>
      <trkpt lat="45.04942" lon="4.79859">
        <ele>391.65872192383</ele>
        <time>2009-02-25T13:10:46Z</time>
      </trkpt>
      <trkpt lat="45.05035" lon="4.79783">
        <ele>387.28073120117</ele>
        <time>2009-02-25T13:11:03Z</time>
      </trkpt>
      <trkpt lat="45.0504" lon="4.79772">
        <ele>387.42535400391</ele>
        <time>2009-02-25T13:11:05Z</time>
      </trkpt>
      <trkpt lat="45.05034" lon="4.79753">
        <ele>390.04885864258</ele>
        <time>2009-02-25T13:11:07Z</time>
      </trkpt>
      <trkpt lat="45.05022" lon="4.79742">
        <ele>392.48773193359</ele>
        <time>2009-02-25T13:11:09Z</time>
      </trkpt>
      <trkpt lat="45.05013" lon="4.79716">
        <ele>394.64950561523</ele>
        <time>2009-02-25T13:11:12Z</time>
      </trkpt>
      <trkpt lat="45.05019" lon="4.79686">
        <ele>394.34396362305</ele>
        <time>2009-02-25T13:11:16Z</time>
      </trkpt>
      <trkpt lat="45.05037" lon="4.7965">
        <ele>391.15167236328</ele>
        <time>2009-02-25T13:11:21Z</time>
      </trkpt>
      <trkpt lat="45.05038" lon="4.79625">
        <ele>390.0173034668</ele>
        <time>2009-02-25T13:11:24Z</time>
      </trkpt>
      <trkpt lat="45.05026" lon="4.79611">
        <ele>391.14489746094</ele>
        <time>2009-02-25T13:11:26Z</time>
      </trkpt>
      <trkpt lat="45.04966" lon="4.79591">
        <ele>396.61337280273</ele>
        <time>2009-02-25T13:11:36Z</time>
      </trkpt>
      <trkpt lat="45.04948" lon="4.79542">
        <ele>397.9235534668</ele>
        <time>2009-02-25T13:11:42Z</time>
      </trkpt>
      <trkpt lat="45.04927" lon="4.79512">
        <ele>400.53775024414</ele>
        <time>2009-02-25T13:11:47Z</time>
      </trkpt>
      <trkpt lat="45.04925" lon="4.79493">
        <ele>401.14865112305</ele>
        <time>2009-02-25T13:11:49Z</time>
      </trkpt>
      <trkpt lat="45.04935" lon="4.79457">
        <ele>401.34634399414</ele>
        <time>2009-02-25T13:11:54Z</time>
      </trkpt>
      <trkpt lat="45.04933" lon="4.79416">
        <ele>403.24224853516</ele>
        <time>2009-02-25T13:11:58Z</time>
      </trkpt>
      <trkpt lat="45.04886" lon="4.79379">
        <ele>409.21917724609</ele>
        <time>2009-02-25T13:12:07Z</time>
      </trkpt>
      <trkpt lat="45.0482" lon="4.79292">
        <ele>411.33673095703</ele>
        <time>2009-02-25T13:12:21Z</time>
      </trkpt>
      <trkpt lat="45.0481" lon="4.79285">
        <ele>411.3430480957</ele>
        <time>2009-02-25T13:12:23Z</time>
      </trkpt>
      <trkpt lat="45.04748" lon="4.793">
        <ele>416.25500488281</ele>
        <time>2009-02-25T13:12:33Z</time>
      </trkpt>
      <trkpt lat="45.04712" lon="4.79295">
        <ele>417.04217529297</ele>
        <time>2009-02-25T13:12:39Z</time>
      </trkpt>
      <trkpt lat="45.04656" lon="4.79254">
        <ele>417.89315795898</ele>
        <time>2009-02-25T13:12:49Z</time>
      </trkpt>
      <trkpt lat="45.04627" lon="4.79238">
        <ele>415.77291870117</ele>
        <time>2009-02-25T13:12:54Z</time>
      </trkpt>
      <trkpt lat="45.04609" lon="4.79234">
        <ele>415.22274780273</ele>
        <time>2009-02-25T13:12:57Z</time>
      </trkpt>
      <trkpt lat="45.04575" lon="4.79231">
        <ele>414.818359375</ele>
        <time>2009-02-25T13:13:03Z</time>
      </trkpt>
      <trkpt lat="45.04392" lon="4.79248">
        <ele>419.90588378906</ele>
        <time>2009-02-25T13:13:32Z</time>
      </trkpt>
      <trkpt lat="45.0434" lon="4.79244">
        <ele>423.99765014648</ele>
        <time>2009-02-25T13:13:40Z</time>
      </trkpt>
      <trkpt lat="45.04314" lon="4.79237">
        <ele>425.36502075195</ele>
        <time>2009-02-25T13:13:45Z</time>
      </trkpt>
      <trkpt lat="45.04285" lon="4.7922">
        <ele>426.57177734375</ele>
        <time>2009-02-25T13:13:50Z</time>
      </trkpt>
      <trkpt lat="45.04257" lon="4.79132">
        <ele>425.94668579102</ele>
        <time>2009-02-25T13:14:00Z</time>
      </trkpt>
      <trkpt lat="45.04245" lon="4.79117">
        <ele>426.65588378906</ele>
        <time>2009-02-25T13:14:03Z</time>
      </trkpt>
      <trkpt lat="45.04235" lon="4.79112">
        <ele>427.39743041992</ele>
        <time>2009-02-25T13:14:05Z</time>
      </trkpt>
      <trkpt lat="45.0418" lon="4.79098">
        <ele>432.48223876953</ele>
        <time>2009-02-25T13:14:14Z</time>
      </trkpt>
      <trkpt lat="45.04152" lon="4.79082">
        <ele>433.87997436523</ele>
        <time>2009-02-25T13:14:19Z</time>
      </trkpt>
      <trkpt lat="45.04124" lon="4.79025">
        <ele>438.11059570312</ele>
        <time>2009-02-25T13:14:26Z</time>
      </trkpt>
      <trkpt lat="45.04043" lon="4.78954">
        <ele>447.31335449219</ele>
        <time>2009-02-25T13:14:42Z</time>
      </trkpt>
      <trkpt lat="45.04016" lon="4.78923">
        <ele>449.54495239258</ele>
        <time>2009-02-25T13:14:47Z</time>
      </trkpt>
      <trkpt lat="45.03937" lon="4.78813">
        <ele>454.41259765625</ele>
        <time>2009-02-25T13:15:05Z</time>
      </trkpt>
      <trkpt lat="45.03904" lon="4.7876">
        <ele>457.38143920898</ele>
        <time>2009-02-25T13:15:13Z</time>
      </trkpt>
      <trkpt lat="45.03826" lon="4.78745">
        <ele>458.66989135742</ele>
        <time>2009-02-25T13:15:26Z</time>
      </trkpt>
      <trkpt lat="45.03803" lon="4.78748">
        <ele>459.24798583984</ele>
        <time>2009-02-25T13:15:29Z</time>
      </trkpt>
      <trkpt lat="45.03757" lon="4.78807">
        <ele>456.63912963867</ele>
        <time>2009-02-25T13:15:39Z</time>
      </trkpt>
      <trkpt lat="45.03643" lon="4.78869">
        <ele>454.18380737305</ele>
        <time>2009-02-25T13:15:59Z</time>
      </trkpt>
      <trkpt lat="45.03509" lon="4.78951">
        <ele>453.87155151367</ele>
        <time>2009-02-25T13:16:22Z</time>
      </trkpt>
      <trkpt lat="45.03213" lon="4.78935">
        <ele>470.1735534668</ele>
        <time>2009-02-25T13:17:10Z</time>
      </trkpt>
      <trkpt lat="45.03094" lon="4.78893">
        <ele>463.88592529297</ele>
        <time>2009-02-25T13:17:29Z</time>
      </trkpt>
      <trkpt lat="45.03088" lon="4.78887">
        <ele>463.51626586914</ele>
        <time>2009-02-25T13:17:30Z</time>
      </trkpt>
      <trkpt lat="45.03074" lon="4.78853">
        <ele>463.07818603516</ele>
        <time>2009-02-25T13:17:35Z</time>
      </trkpt>
      <trkpt lat="45.03069" lon="4.78833">
        <ele>463.26306152344</ele>
        <time>2009-02-25T13:17:37Z</time>
      </trkpt>
      <trkpt lat="45.03068" lon="4.78802">
        <ele>462.42764282227</ele>
        <time>2009-02-25T13:17:41Z</time>
      </trkpt>
      <trkpt lat="45.0307" lon="4.7878">
        <ele>462.12780761719</ele>
        <time>2009-02-25T13:17:43Z</time>
      </trkpt>
      <trkpt lat="45.03086" lon="4.78718">
        <ele>463.31042480469</ele>
        <time>2009-02-25T13:17:51Z</time>
      </trkpt>
      <trkpt lat="45.03086" lon="4.78694">
        <ele>463.31994628906</ele>
        <time>2009-02-25T13:17:53Z</time>
      </trkpt>
      <trkpt lat="45.03063" lon="4.78515">
        <ele>467.68246459961</ele>
        <time>2009-02-25T13:18:14Z</time>
      </trkpt>
      <trkpt lat="45.03002" lon="4.7846">
        <ele>465.60736083984</ele>
        <time>2009-02-25T13:18:26Z</time>
      </trkpt>
      <trkpt lat="45.0287" lon="4.78377">
        <ele>451.37902832031</ele>
        <time>2009-02-25T13:18:49Z</time>
      </trkpt>
      <trkpt lat="45.02852" lon="4.78355">
        <ele>448.38528442383</ele>
        <time>2009-02-25T13:18:53Z</time>
      </trkpt>
      <trkpt lat="45.02849" lon="4.78342">
        <ele>447.91464233398</ele>
        <time>2009-02-25T13:18:54Z</time>
      </trkpt>
      <trkpt lat="45.02851" lon="4.78323">
        <ele>446.85864257812</ele>
        <time>2009-02-25T13:18:56Z</time>
      </trkpt>
      <trkpt lat="45.02877" lon="4.78286">
        <ele>447.52368164062</ele>
        <time>2009-02-25T13:19:02Z</time>
      </trkpt>
      <trkpt lat="45.02885" lon="4.78222">
        <ele>443.54824829102</ele>
        <time>2009-02-25T13:19:09Z</time>
      </trkpt>
      <trkpt lat="45.02915" lon="4.78179">
        <ele>450.02160644531</ele>
        <time>2009-02-25T13:19:16Z</time>
      </trkpt>
      <trkpt lat="45.0292" lon="4.78164">
        <ele>451.66543579102</ele>
        <time>2009-02-25T13:19:18Z</time>
      </trkpt>
      <trkpt lat="45.02915" lon="4.78137">
        <ele>454.07000732422</ele>
        <time>2009-02-25T13:19:21Z</time>
      </trkpt>
      <trkpt lat="45.029" lon="4.78101">
        <ele>455.49530029297</ele>
        <time>2009-02-25T13:19:26Z</time>
      </trkpt>
      <trkpt lat="45.02882" lon="4.78071">
        <ele>456.71984863281</ele>
        <time>2009-02-25T13:19:31Z</time>
      </trkpt>
      <trkpt lat="45.02855" lon="4.78039">
        <ele>458.31832885742</ele>
        <time>2009-02-25T13:19:36Z</time>
      </trkpt>
      <trkpt lat="45.02828" lon="4.78022">
        <ele>456.73937988281</ele>
        <time>2009-02-25T13:19:41Z</time>
      </trkpt>
      <trkpt lat="45.02751" lon="4.78014">
        <ele>446.1650390625</ele>
        <time>2009-02-25T13:19:53Z</time>
      </trkpt>
      <trkpt lat="45.02744" lon="4.78008">
        <ele>446.70571899414</ele>
        <time>2009-02-25T13:19:55Z</time>
      </trkpt>
      <trkpt lat="45.02726" lon="4.77975">
        <ele>451.3678894043</ele>
        <time>2009-02-25T13:19:59Z</time>
      </trkpt>
      <trkpt lat="45.02665" lon="4.77929">
        <ele>451.27136230469</ele>
        <time>2009-02-25T13:20:10Z</time>
      </trkpt>
      <trkpt lat="45.02638" lon="4.77924">
        <ele>451.11154174805</ele>
        <time>2009-02-25T13:20:15Z</time>
      </trkpt>
      <trkpt lat="45.02566" lon="4.77931">
        <ele>447.35076904297</ele>
        <time>2009-02-25T13:20:26Z</time>
      </trkpt>
      <trkpt lat="45.02514" lon="4.77925">
        <ele>444.59939575195</ele>
        <time>2009-02-25T13:20:35Z</time>
      </trkpt>
      <trkpt lat="45.0248" lon="4.77912">
        <ele>441.94924926758</ele>
        <time>2009-02-25T13:20:40Z</time>
      </trkpt>
      <trkpt lat="45.02351" lon="4.77846">
        <ele>433.87557983398</ele>
        <time>2009-02-25T13:21:02Z</time>
      </trkpt>
      <trkpt lat="45.02326" lon="4.77829">
        <ele>434.65634155273</ele>
        <time>2009-02-25T13:21:07Z</time>
      </trkpt>
      <trkpt lat="45.02297" lon="4.77804">
        <ele>430.52401733398</ele>
        <time>2009-02-25T13:21:12Z</time>
      </trkpt>
      <trkpt lat="45.02247" lon="4.77743">
        <ele>429.99957275391</ele>
        <time>2009-02-25T13:21:23Z</time>
      </trkpt>
      <trkpt lat="45.02223" lon="4.77723">
        <ele>426.43338012695</ele>
        <time>2009-02-25T13:21:27Z</time>
      </trkpt>
      <trkpt lat="45.02202" lon="4.77708">
        <ele>424.16674804688</ele>
        <time>2009-02-25T13:21:31Z</time>
      </trkpt>
      <trkpt lat="45.02159" lon="4.77692">
        <ele>422.32876586914</ele>
        <time>2009-02-25T13:21:38Z</time>
      </trkpt>
      <trkpt lat="45.02119" lon="4.77718">
        <ele>425.83764648438</ele>
        <time>2009-02-25T13:21:45Z</time>
      </trkpt>
      <trkpt lat="45.02087" lon="4.77748">
        <ele>429.61737060547</ele>
        <time>2009-02-25T13:21:51Z</time>
      </trkpt>
      <trkpt lat="45.02075" lon="4.77864">
        <ele>431.73007202148</ele>
        <time>2009-02-25T13:22:05Z</time>
      </trkpt>
      <trkpt lat="45.02071" lon="4.77882">
        <ele>430.69161987305</ele>
        <time>2009-02-25T13:22:07Z</time>
      </trkpt>
      <trkpt lat="45.02066" lon="4.77886">
        <ele>430.83416748047</ele>
        <time>2009-02-25T13:22:08Z</time>
      </trkpt>
      <trkpt lat="45.02" lon="4.77887">
        <ele>436.91033935547</ele>
        <time>2009-02-25T13:22:18Z</time>
      </trkpt>
      <trkpt lat="45.01924" lon="4.77875">
        <ele>442.59762573242</ele>
        <time>2009-02-25T13:22:30Z</time>
      </trkpt>
      <trkpt lat="45.01883" lon="4.7785">
        <ele>447.16583251953</ele>
        <time>2009-02-25T13:22:38Z</time>
      </trkpt>
      <trkpt lat="45.01857" lon="4.77843">
        <ele>448.18957519531</ele>
        <time>2009-02-25T13:22:42Z</time>
      </trkpt>
      <trkpt lat="45.0172" lon="4.77847">
        <ele>448.15756225586</ele>
        <time>2009-02-25T13:23:04Z</time>
      </trkpt>
      <trkpt lat="45.01704" lon="4.77927">
        <ele>450.14703369141</ele>
        <time>2009-02-25T13:23:13Z</time>
      </trkpt>
      <trkpt lat="45.01686" lon="4.7794">
        <ele>450.86737060547</ele>
        <time>2009-02-25T13:23:16Z</time>
      </trkpt>
      <trkpt lat="45.01671" lon="4.77971">
        <ele>452.03576660156</ele>
        <time>2009-02-25T13:23:21Z</time>
      </trkpt>
      <trkpt lat="45.01663" lon="4.78153">
        <ele>456.41549682617</ele>
        <time>2009-02-25T13:23:41Z</time>
      </trkpt>
      <trkpt lat="45.01651" lon="4.7818">
        <ele>457.64260864258</ele>
        <time>2009-02-25T13:23:45Z</time>
      </trkpt>
      <trkpt lat="45.01617" lon="4.78209">
        <ele>459.46374511719</ele>
        <time>2009-02-25T13:23:51Z</time>
      </trkpt>
      <trkpt lat="45.01476" lon="4.78296">
        <ele>462.1513671875</ele>
        <time>2009-02-25T13:24:16Z</time>
      </trkpt>
      <trkpt lat="45.01351" lon="4.78394">
        <ele>467.9970703125</ele>
        <time>2009-02-25T13:24:39Z</time>
      </trkpt>
      <trkpt lat="45.01335" lon="4.78404">
        <ele>469.17465209961</ele>
        <time>2009-02-25T13:24:42Z</time>
      </trkpt>
      <trkpt lat="45.01314" lon="4.78408">
        <ele>469.55191040039</ele>
        <time>2009-02-25T13:24:45Z</time>
      </trkpt>
      <trkpt lat="45.01287" lon="4.78397">
        <ele>469.21249389648</ele>
        <time>2009-02-25T13:24:49Z</time>
      </trkpt>
      <trkpt lat="45.01066" lon="4.78199">
        <ele>472.60266113281</ele>
        <time>2009-02-25T13:25:31Z</time>
      </trkpt>
      <trkpt lat="45.01019" lon="4.78152">
        <ele>472.67269897461</ele>
        <time>2009-02-25T13:25:41Z</time>
      </trkpt>
      <trkpt lat="45.01004" lon="4.78144">
        <ele>472.86563110352</ele>
        <time>2009-02-25T13:25:43Z</time>
      </trkpt>
      <trkpt lat="45.00952" lon="4.78137">
        <ele>475.62347412109</ele>
        <time>2009-02-25T13:25:51Z</time>
      </trkpt>
      <trkpt lat="45.00943" lon="4.7813">
        <ele>475.86065673828</ele>
        <time>2009-02-25T13:25:53Z</time>
      </trkpt>
      <trkpt lat="45.0094" lon="4.7812">
        <ele>475.57684326172</ele>
        <time>2009-02-25T13:25:54Z</time>
      </trkpt>
      <trkpt lat="45.00933" lon="4.77715">
        <ele>460.93188476562</ele>
        <time>2009-02-25T13:26:40Z</time>
      </trkpt>
      <trkpt lat="45.00927" lon="4.77695">
        <ele>460.59567260742</ele>
        <time>2009-02-25T13:26:43Z</time>
      </trkpt>
      <trkpt lat="45.00908" lon="4.77662">
        <ele>459.62603759766</ele>
        <time>2009-02-25T13:26:47Z</time>
      </trkpt>
      <trkpt lat="45.00737" lon="4.77429">
        <ele>446.77114868164</ele>
        <time>2009-02-25T13:27:25Z</time>
      </trkpt>
      <trkpt lat="45.00705" lon="4.77332">
        <ele>449.86944580078</ele>
        <time>2009-02-25T13:27:38Z</time>
      </trkpt>
      <trkpt lat="45.00693" lon="4.77272">
        <ele>450.83847045898</ele>
        <time>2009-02-25T13:27:45Z</time>
      </trkpt>
      <trkpt lat="45.00693" lon="4.77202">
        <ele>447.66595458984</ele>
        <time>2009-02-25T13:27:53Z</time>
      </trkpt>
      <trkpt lat="45.00713" lon="4.77122">
        <ele>442.55514526367</ele>
        <time>2009-02-25T13:28:02Z</time>
      </trkpt>
      <trkpt lat="45.00763" lon="4.76953">
        <ele>434.03833007812</ele>
        <time>2009-02-25T13:28:23Z</time>
      </trkpt>
      <trkpt lat="45.00767" lon="4.76907">
        <ele>432.68606567383</ele>
        <time>2009-02-25T13:28:28Z</time>
      </trkpt>
      <trkpt lat="45.00756" lon="4.76873">
        <ele>432.24890136719</ele>
        <time>2009-02-25T13:28:32Z</time>
      </trkpt>
      <trkpt lat="45.00733" lon="4.76825">
        <ele>432.03610229492</ele>
        <time>2009-02-25T13:28:39Z</time>
      </trkpt>
      <trkpt lat="45.00629" lon="4.76624">
        <ele>425.56460571289</ele>
        <time>2009-02-25T13:29:07Z</time>
      </trkpt>
      <trkpt lat="45.00605" lon="4.76586">
        <ele>424.65667724609</ele>
        <time>2009-02-25T13:29:13Z</time>
      </trkpt>
      <trkpt lat="45.00478" lon="4.76438">
        <ele>419.19369506836</ele>
        <time>2009-02-25T13:29:39Z</time>
      </trkpt>
      <trkpt lat="45.00441" lon="4.76333">
        <ele>414.2473449707</ele>
        <time>2009-02-25T13:29:53Z</time>
      </trkpt>
      <trkpt lat="45.00426" lon="4.76301">
        <ele>414.7643737793</ele>
        <time>2009-02-25T13:29:57Z</time>
      </trkpt>
      <trkpt lat="45.00375" lon="4.76259">
        <ele>412.59295654297</ele>
        <time>2009-02-25T13:30:06Z</time>
      </trkpt>
      <trkpt lat="45.00343" lon="4.7625">
        <ele>410.46173095703</ele>
        <time>2009-02-25T13:30:12Z</time>
      </trkpt>
      <trkpt lat="45.00303" lon="4.7625">
        <ele>405.98153686523</ele>
        <time>2009-02-25T13:30:18Z</time>
      </trkpt>
      <trkpt lat="45.00259" lon="4.76258">
        <ele>401.22451782227</ele>
        <time>2009-02-25T13:30:25Z</time>
      </trkpt>
      <trkpt lat="45.00211" lon="4.76291">
        <ele>397.87347412109</ele>
        <time>2009-02-25T13:30:34Z</time>
      </trkpt>
      <trkpt lat="45.00176" lon="4.76307">
        <ele>393.08654785156</ele>
        <time>2009-02-25T13:30:40Z</time>
      </trkpt>
      <trkpt lat="45.00171" lon="4.76322">
        <ele>393.14077758789</ele>
        <time>2009-02-25T13:30:41Z</time>
      </trkpt>
      <trkpt lat="45.00161" lon="4.764">
        <ele>389.11264038086</ele>
        <time>2009-02-25T13:30:50Z</time>
      </trkpt>
      <trkpt lat="45.00193" lon="4.76475">
        <ele>395.36428833008</ele>
        <time>2009-02-25T13:31:00Z</time>
      </trkpt>
      <trkpt lat="45.0019" lon="4.76492">
        <ele>393.77294921875</ele>
        <time>2009-02-25T13:31:02Z</time>
      </trkpt>
      <trkpt lat="45.00171" lon="4.76511">
        <ele>388.41189575195</ele>
        <time>2009-02-25T13:31:06Z</time>
      </trkpt>
      <trkpt lat="45.00162" lon="4.76536">
        <ele>386.78973388672</ele>
        <time>2009-02-25T13:31:09Z</time>
      </trkpt>
      <trkpt lat="45.00163" lon="4.76559">
        <ele>387.56048583984</ele>
        <time>2009-02-25T13:31:12Z</time>
      </trkpt>
      <trkpt lat="45.00178" lon="4.76611">
        <ele>393.41479492188</ele>
        <time>2009-02-25T13:31:18Z</time>
      </trkpt>
      <trkpt lat="45.00177" lon="4.76636">
        <ele>394.63931274414</ele>
        <time>2009-02-25T13:31:21Z</time>
      </trkpt>
      <trkpt lat="45.00171" lon="4.76645">
        <ele>393.71517944336</ele>
        <time>2009-02-25T13:31:22Z</time>
      </trkpt>
      <trkpt lat="45.00161" lon="4.76645">
        <ele>391.572265625</ele>
        <time>2009-02-25T13:31:24Z</time>
      </trkpt>
      <trkpt lat="45.00111" lon="4.76592">
        <ele>377.63781738281</ele>
        <time>2009-02-25T13:31:34Z</time>
      </trkpt>
      <trkpt lat="45.00096" lon="4.76591">
        <ele>374.38110351562</ele>
        <time>2009-02-25T13:31:36Z</time>
      </trkpt>
      <trkpt lat="45.00083" lon="4.76602">
        <ele>372.57705688477</ele>
        <time>2009-02-25T13:31:39Z</time>
      </trkpt>
      <trkpt lat="45.00076" lon="4.76623">
        <ele>374.49411010742</ele>
        <time>2009-02-25T13:31:41Z</time>
      </trkpt>
      <trkpt lat="45.00086" lon="4.76725">
        <ele>379.32641601562</ele>
        <time>2009-02-25T13:31:53Z</time>
      </trkpt>
      <trkpt lat="45.00084" lon="4.76765">
        <ele>380.42520141602</ele>
        <time>2009-02-25T13:31:58Z</time>
      </trkpt>
      <trkpt lat="45.00033" lon="4.76853">
        <ele>379.08267211914</ele>
        <time>2009-02-25T13:32:11Z</time>
      </trkpt>
      <trkpt lat="45.00025" lon="4.76862">
        <ele>378.22943115234</ele>
        <time>2009-02-25T13:32:12Z</time>
      </trkpt>
      <trkpt lat="45.00017" lon="4.76863">
        <ele>376.74807739258</ele>
        <time>2009-02-25T13:32:13Z</time>
      </trkpt>
      <trkpt lat="45" lon="4.76853">
        <ele>372.94348144531</ele>
        <time>2009-02-25T13:32:16Z</time>
      </trkpt>
      <trkpt lat="44.99986" lon="4.76833">
        <ele>374.87939453125</ele>
        <time>2009-02-25T13:32:20Z</time>
      </trkpt>
      <trkpt lat="44.9997" lon="4.76753">
        <ele>379.27551269531</ele>
        <time>2009-02-25T13:32:29Z</time>
      </trkpt>
      <trkpt lat="44.99941" lon="4.76713">
        <ele>386.63192749023</ele>
        <time>2009-02-25T13:32:36Z</time>
      </trkpt>
      <trkpt lat="44.99939" lon="4.76705">
        <ele>386.94775390625</ele>
        <time>2009-02-25T13:32:36Z</time>
      </trkpt>
      <trkpt lat="44.99941" lon="4.76695">
        <ele>386.29806518555</ele>
        <time>2009-02-25T13:32:38Z</time>
      </trkpt>
      <trkpt lat="44.99973" lon="4.76646">
        <ele>380.6611328125</ele>
        <time>2009-02-25T13:32:45Z</time>
      </trkpt>
      <trkpt lat="44.99977" lon="4.76611">
        <ele>382.68621826172</ele>
        <time>2009-02-25T13:32:49Z</time>
      </trkpt>
      <trkpt lat="45.00009" lon="4.7645">
        <ele>387.49432373047</ele>
        <time>2009-02-25T13:33:08Z</time>
      </trkpt>
      <trkpt lat="45.00012" lon="4.76427">
        <ele>388.02795410156</ele>
        <time>2009-02-25T13:33:11Z</time>
      </trkpt>
      <trkpt lat="45.0001" lon="4.76377">
        <ele>387.69314575195</ele>
        <time>2009-02-25T13:33:16Z</time>
      </trkpt>
      <trkpt lat="45.00002" lon="4.76337">
        <ele>387.80191040039</ele>
        <time>2009-02-25T13:33:21Z</time>
      </trkpt>
      <trkpt lat="44.99988" lon="4.76308">
        <ele>387.09307861328</ele>
        <time>2009-02-25T13:33:25Z</time>
      </trkpt>
      <trkpt lat="44.99952" lon="4.76278">
        <ele>391.37643432617</ele>
        <time>2009-02-25T13:33:32Z</time>
      </trkpt>
      <trkpt lat="44.99928" lon="4.76267">
        <ele>395.57550048828</ele>
        <time>2009-02-25T13:33:36Z</time>
      </trkpt>
      <trkpt lat="44.99914" lon="4.76251">
        <ele>396.31051635742</ele>
        <time>2009-02-25T13:33:39Z</time>
      </trkpt>
      <trkpt lat="44.99911" lon="4.76233">
        <ele>394.93127441406</ele>
        <time>2009-02-25T13:33:41Z</time>
      </trkpt>
      <trkpt lat="44.99918" lon="4.76201">
        <ele>391.57794189453</ele>
        <time>2009-02-25T13:33:45Z</time>
      </trkpt>
      <trkpt lat="44.99913" lon="4.76181">
        <ele>390.3561706543</ele>
        <time>2009-02-25T13:33:47Z</time>
      </trkpt>
      <trkpt lat="44.99907" lon="4.76174">
        <ele>389.99954223633</ele>
        <time>2009-02-25T13:33:48Z</time>
      </trkpt>
      <trkpt lat="44.99883" lon="4.76168">
        <ele>390.34869384766</ele>
        <time>2009-02-25T13:33:52Z</time>
      </trkpt>
      <trkpt lat="44.99867" lon="4.7617">
        <ele>391.14611816406</ele>
        <time>2009-02-25T13:33:55Z</time>
      </trkpt>
      <trkpt lat="44.99832" lon="4.76198">
        <ele>395.87747192383</ele>
        <time>2009-02-25T13:34:01Z</time>
      </trkpt>
      <trkpt lat="44.99807" lon="4.76204">
        <ele>399.04470825195</ele>
        <time>2009-02-25T13:34:05Z</time>
      </trkpt>
      <trkpt lat="44.99775" lon="4.76193">
        <ele>401.02423095703</ele>
        <time>2009-02-25T13:34:11Z</time>
      </trkpt>
      <trkpt lat="44.99739" lon="4.76153">
        <ele>401.66470336914</ele>
        <time>2009-02-25T13:34:18Z</time>
      </trkpt>
      <trkpt lat="44.99706" lon="4.76141">
        <ele>405.61013793945</ele>
        <time>2009-02-25T13:34:23Z</time>
      </trkpt>
      <trkpt lat="44.997" lon="4.76133">
        <ele>406.04202270508</ele>
        <time>2009-02-25T13:34:25Z</time>
      </trkpt>
      <trkpt lat="44.99696" lon="4.76117">
        <ele>405.92462158203</ele>
        <time>2009-02-25T13:34:27Z</time>
      </trkpt>
      <trkpt lat="44.99696" lon="4.76107">
        <ele>405.47961425781</ele>
        <time>2009-02-25T13:34:28Z</time>
      </trkpt>
      <trkpt lat="44.99707" lon="4.76079">
        <ele>402.79928588867</ele>
        <time>2009-02-25T13:34:31Z</time>
      </trkpt>
      <trkpt lat="44.9971" lon="4.76061">
        <ele>402.81903076172</ele>
        <time>2009-02-25T13:34:33Z</time>
      </trkpt>
      <trkpt lat="44.99705" lon="4.76034">
        <ele>403.95626831055</ele>
        <time>2009-02-25T13:34:37Z</time>
      </trkpt>
      <trkpt lat="44.99686" lon="4.76">
        <ele>405.30236816406</ele>
        <time>2009-02-25T13:34:41Z</time>
      </trkpt>
      <trkpt lat="44.99651" lon="4.75977">
        <ele>404.63220214844</ele>
        <time>2009-02-25T13:34:48Z</time>
      </trkpt>
      <trkpt lat="44.99611" lon="4.75971">
        <ele>403.96630859375</ele>
        <time>2009-02-25T13:34:54Z</time>
      </trkpt>
      <trkpt lat="44.99406" lon="4.75977">
        <ele>400.20388793945</ele>
        <time>2009-02-25T13:35:27Z</time>
      </trkpt>
      <trkpt lat="44.99381" lon="4.75979">
        <ele>399.26428222656</ele>
        <time>2009-02-25T13:35:31Z</time>
      </trkpt>
      <trkpt lat="44.99318" lon="4.76006">
        <ele>398.99307250977</ele>
        <time>2009-02-25T13:35:41Z</time>
      </trkpt>
      <trkpt lat="44.99259" lon="4.75984">
        <ele>399.73052978516</ele>
        <time>2009-02-25T13:35:51Z</time>
      </trkpt>
      <trkpt lat="44.99224" lon="4.7598">
        <ele>399.50119018555</ele>
        <time>2009-02-25T13:35:57Z</time>
      </trkpt>
      <trkpt lat="44.99184" lon="4.75979">
        <ele>398.94155883789</ele>
        <time>2009-02-25T13:36:03Z</time>
      </trkpt>
      <trkpt lat="44.99115" lon="4.75987">
        <ele>397.11608886719</ele>
        <time>2009-02-25T13:36:14Z</time>
      </trkpt>
      <trkpt lat="44.99067" lon="4.75981">
        <ele>394.94769287109</ele>
        <time>2009-02-25T13:36:22Z</time>
      </trkpt>
      <trkpt lat="44.99053" lon="4.75985">
        <ele>395.38027954102</ele>
        <time>2009-02-25T13:36:24Z</time>
      </trkpt>
      <trkpt lat="44.99011" lon="4.7602">
        <ele>398.4714050293</ele>
        <time>2009-02-25T13:36:32Z</time>
      </trkpt>
      <trkpt lat="44.98999" lon="4.76024">
        <ele>398.75537109375</ele>
        <time>2009-02-25T13:36:34Z</time>
      </trkpt>
      <trkpt lat="44.98981" lon="4.76015">
        <ele>398.57424926758</ele>
        <time>2009-02-25T13:36:37Z</time>
      </trkpt>
      <trkpt lat="44.98945" lon="4.75972">
        <ele>395.07537841797</ele>
        <time>2009-02-25T13:36:45Z</time>
      </trkpt>
      <trkpt lat="44.98913" lon="4.75952">
        <ele>393.25323486328</ele>
        <time>2009-02-25T13:36:50Z</time>
      </trkpt>
      <trkpt lat="44.98901" lon="4.75949">
        <ele>392.91104125977</ele>
        <time>2009-02-25T13:36:52Z</time>
      </trkpt>
      <trkpt lat="44.98889" lon="4.75953">
        <ele>393.46255493164</ele>
        <time>2009-02-25T13:36:54Z</time>
      </trkpt>
      <trkpt lat="44.98852" lon="4.75992">
        <ele>399.36706542969</ele>
        <time>2009-02-25T13:37:02Z</time>
      </trkpt>
      <trkpt lat="44.98841" lon="4.75987">
        <ele>398.83010864258</ele>
        <time>2009-02-25T13:37:04Z</time>
      </trkpt>
      <trkpt lat="44.98823" lon="4.75937">
        <ele>391.69046020508</ele>
        <time>2009-02-25T13:37:10Z</time>
      </trkpt>
      <trkpt lat="44.98805" lon="4.75912">
        <ele>388.82876586914</ele>
        <time>2009-02-25T13:37:14Z</time>
      </trkpt>
      <trkpt lat="44.98751" lon="4.759">
        <ele>389.14474487305</ele>
        <time>2009-02-25T13:37:23Z</time>
      </trkpt>
      <trkpt lat="44.987" lon="4.75902">
        <ele>385.76596069336</ele>
        <time>2009-02-25T13:37:31Z</time>
      </trkpt>
      <trkpt lat="44.98685" lon="4.75912">
        <ele>386.61285400391</ele>
        <time>2009-02-25T13:37:33Z</time>
      </trkpt>
      <trkpt lat="44.98681" lon="4.7596">
        <ele>393.25863647461</ele>
        <time>2009-02-25T13:37:39Z</time>
      </trkpt>
      <trkpt lat="44.98673" lon="4.7597">
        <ele>394.10302734375</ele>
        <time>2009-02-25T13:37:41Z</time>
      </trkpt>
      <trkpt lat="44.98638" lon="4.75993">
        <ele>397.70693969727</ele>
        <time>2009-02-25T13:37:47Z</time>
      </trkpt>
      <trkpt lat="44.98614" lon="4.76018">
        <ele>401.60406494141</ele>
        <time>2009-02-25T13:37:52Z</time>
      </trkpt>
      <trkpt lat="44.98599" lon="4.76019">
        <ele>401.8918762207</ele>
        <time>2009-02-25T13:37:54Z</time>
      </trkpt>
      <trkpt lat="44.98587" lon="4.76012">
        <ele>401.23818969727</ele>
        <time>2009-02-25T13:37:56Z</time>
      </trkpt>
      <trkpt lat="44.98582" lon="4.76003">
        <ele>400.76379394531</ele>
        <time>2009-02-25T13:37:57Z</time>
      </trkpt>
      <trkpt lat="44.98585" lon="4.75938">
        <ele>391.75506591797</ele>
        <time>2009-02-25T13:38:05Z</time>
      </trkpt>
      <trkpt lat="44.98582" lon="4.7592">
        <ele>389.89352416992</ele>
        <time>2009-02-25T13:38:07Z</time>
      </trkpt>
      <trkpt lat="44.98572" lon="4.75907">
        <ele>390.623046875</ele>
        <time>2009-02-25T13:38:09Z</time>
      </trkpt>
      <trkpt lat="44.98416" lon="4.75802">
        <ele>404.87280273438</ele>
        <time>2009-02-25T13:38:37Z</time>
      </trkpt>
      <trkpt lat="44.98385" lon="4.75776">
        <ele>405.19152832031</ele>
        <time>2009-02-25T13:38:42Z</time>
      </trkpt>
      <trkpt lat="44.98373" lon="4.75755">
        <ele>401.80413818359</ele>
        <time>2009-02-25T13:38:46Z</time>
      </trkpt>
      <trkpt lat="44.98356" lon="4.7571">
        <ele>397.63235473633</ele>
        <time>2009-02-25T13:38:51Z</time>
      </trkpt>
      <trkpt lat="44.98333" lon="4.75676">
        <ele>398.89727783203</ele>
        <time>2009-02-25T13:38:57Z</time>
      </trkpt>
      <trkpt lat="44.9833" lon="4.75663">
        <ele>397.9836730957</ele>
        <time>2009-02-25T13:38:58Z</time>
      </trkpt>
      <trkpt lat="44.9833" lon="4.75647">
        <ele>397.81549072266</ele>
        <time>2009-02-25T13:39:00Z</time>
      </trkpt>
      <trkpt lat="44.98335" lon="4.75629">
        <ele>395.97265625</ele>
        <time>2009-02-25T13:39:02Z</time>
      </trkpt>
      <trkpt lat="44.98356" lon="4.75602">
        <ele>387.69290161133</ele>
        <time>2009-02-25T13:39:07Z</time>
      </trkpt>
      <trkpt lat="44.98368" lon="4.75577">
        <ele>382.91900634766</ele>
        <time>2009-02-25T13:39:10Z</time>
      </trkpt>
      <trkpt lat="44.98372" lon="4.75531">
        <ele>383.36959838867</ele>
        <time>2009-02-25T13:39:15Z</time>
      </trkpt>
      <trkpt lat="44.98386" lon="4.75469">
        <ele>381.93267822266</ele>
        <time>2009-02-25T13:39:23Z</time>
      </trkpt>
      <trkpt lat="44.98385" lon="4.75426">
        <ele>385.79086303711</ele>
        <time>2009-02-25T13:39:28Z</time>
      </trkpt>
      <trkpt lat="44.98393" lon="4.75384">
        <ele>386.99615478516</ele>
        <time>2009-02-25T13:39:33Z</time>
      </trkpt>
      <trkpt lat="44.98392" lon="4.75365">
        <ele>388.85040283203</ele>
        <time>2009-02-25T13:39:35Z</time>
      </trkpt>
      <trkpt lat="44.98365" lon="4.75301">
        <ele>398.58435058594</ele>
        <time>2009-02-25T13:39:43Z</time>
      </trkpt>
      <trkpt lat="44.98361" lon="4.75272">
        <ele>399.67303466797</ele>
        <time>2009-02-25T13:39:47Z</time>
      </trkpt>
      <trkpt lat="44.98364" lon="4.75261">
        <ele>399.65390014648</ele>
        <time>2009-02-25T13:39:48Z</time>
      </trkpt>
      <trkpt lat="44.98366" lon="4.75255">
        <ele>399.67947387695</ele>
        <time>2009-02-25T13:39:49Z</time>
      </trkpt>
      <trkpt lat="44.98375" lon="4.75251">
        <ele>399.45401000977</ele>
        <time>2009-02-25T13:39:50Z</time>
      </trkpt>
      <trkpt lat="44.9839" lon="4.75259">
        <ele>398.22592163086</ele>
        <time>2009-02-25T13:39:53Z</time>
      </trkpt>
      <trkpt lat="44.98438" lon="4.75337">
        <ele>384.25518798828</ele>
        <time>2009-02-25T13:40:04Z</time>
      </trkpt>
      <trkpt lat="44.98446" lon="4.75346">
        <ele>382.50625610352</ele>
        <time>2009-02-25T13:40:06Z</time>
      </trkpt>
      <trkpt lat="44.98468" lon="4.75354">
        <ele>379.61657714844</ele>
        <time>2009-02-25T13:40:10Z</time>
      </trkpt>
      <trkpt lat="44.9849" lon="4.75339">
        <ele>380.56274414062</ele>
        <time>2009-02-25T13:40:14Z</time>
      </trkpt>
      <trkpt lat="44.98531" lon="4.75289">
        <ele>382.31903076172</ele>
        <time>2009-02-25T13:40:22Z</time>
      </trkpt>
      <trkpt lat="44.98553" lon="4.75254">
        <ele>381.53207397461</ele>
        <time>2009-02-25T13:40:28Z</time>
      </trkpt>
      <trkpt lat="44.98561" lon="4.75231">
        <ele>380.53857421875</ele>
        <time>2009-02-25T13:40:30Z</time>
      </trkpt>
      <trkpt lat="44.98553" lon="4.7518">
        <ele>385.50881958008</ele>
        <time>2009-02-25T13:40:36Z</time>
      </trkpt>
      <trkpt lat="44.9854" lon="4.75028">
        <ele>386.41577148438</ele>
        <time>2009-02-25T13:40:54Z</time>
      </trkpt>
      <trkpt lat="44.98534" lon="4.74991">
        <ele>385.67218017578</ele>
        <time>2009-02-25T13:40:58Z</time>
      </trkpt>
      <trkpt lat="44.98509" lon="4.74894">
        <ele>381.58444213867</ele>
        <time>2009-02-25T13:41:10Z</time>
      </trkpt>
      <trkpt lat="44.9855" lon="4.74852">
        <ele>379.35366821289</ele>
        <time>2009-02-25T13:41:18Z</time>
      </trkpt>
      <trkpt lat="44.98553" lon="4.74807">
        <ele>382.13912963867</ele>
        <time>2009-02-25T13:41:23Z</time>
      </trkpt>
      <trkpt lat="44.98545" lon="4.74771">
        <ele>383.65368652344</ele>
        <time>2009-02-25T13:41:27Z</time>
      </trkpt>
      <trkpt lat="44.98523" lon="4.74738">
        <ele>383.29483032227</ele>
        <time>2009-02-25T13:41:32Z</time>
      </trkpt>
      <trkpt lat="44.98416" lon="4.74613">
        <ele>384.04055786133</ele>
        <time>2009-02-25T13:41:55Z</time>
      </trkpt>
      <trkpt lat="44.98405" lon="4.74556">
        <ele>388.59783935547</ele>
        <time>2009-02-25T13:42:01Z</time>
      </trkpt>
      <trkpt lat="44.98391" lon="4.74549">
        <ele>388.87368774414</ele>
        <time>2009-02-25T13:42:04Z</time>
      </trkpt>
      <trkpt lat="44.98375" lon="4.74549">
        <ele>388.64804077148</ele>
        <time>2009-02-25T13:42:06Z</time>
      </trkpt>
      <trkpt lat="44.98339" lon="4.74567">
        <ele>383.67980957031</ele>
        <time>2009-02-25T13:42:12Z</time>
      </trkpt>
      <trkpt lat="44.98319" lon="4.74569">
        <ele>382.49423217773</ele>
        <time>2009-02-25T13:42:16Z</time>
      </trkpt>
      <trkpt lat="44.98281" lon="4.74541">
        <ele>388.27624511719</ele>
        <time>2009-02-25T13:42:22Z</time>
      </trkpt>
      <trkpt lat="44.98244" lon="4.74531">
        <ele>389.08511352539</ele>
        <time>2009-02-25T13:42:28Z</time>
      </trkpt>
      <trkpt lat="44.98216" lon="4.74531">
        <ele>388.02108764648</ele>
        <time>2009-02-25T13:42:33Z</time>
      </trkpt>
      <trkpt lat="44.98188" lon="4.74514">
        <ele>389.88061523438</ele>
        <time>2009-02-25T13:42:38Z</time>
      </trkpt>
      <trkpt lat="44.9817" lon="4.74518">
        <ele>388.35095214844</ele>
        <time>2009-02-25T13:42:41Z</time>
      </trkpt>
      <trkpt lat="44.98149" lon="4.74564">
        <ele>384.63485717773</ele>
        <time>2009-02-25T13:42:47Z</time>
      </trkpt>
      <trkpt lat="44.98058" lon="4.74617">
        <ele>394.41220092773</ele>
        <time>2009-02-25T13:43:03Z</time>
      </trkpt>
      <trkpt lat="44.98018" lon="4.74653">
        <ele>393.31140136719</ele>
        <time>2009-02-25T13:43:10Z</time>
      </trkpt>
      <trkpt lat="44.97966" lon="4.74682">
        <ele>397.78298950195</ele>
        <time>2009-02-25T13:43:19Z</time>
      </trkpt>
      <trkpt lat="44.9793" lon="4.74743">
        <ele>397.36138916016</ele>
        <time>2009-02-25T13:43:28Z</time>
      </trkpt>
      <trkpt lat="44.9783" lon="4.74784">
        <ele>399.12490844727</ele>
        <time>2009-02-25T13:43:45Z</time>
      </trkpt>
      <trkpt lat="44.97762" lon="4.74785">
        <ele>403.6203918457</ele>
        <time>2009-02-25T13:43:56Z</time>
      </trkpt>
      <trkpt lat="44.97719" lon="4.74806">
        <ele>404.02233886719</ele>
        <time>2009-02-25T13:44:03Z</time>
      </trkpt>
      <trkpt lat="44.97664" lon="4.74797">
        <ele>413.06127929688</ele>
        <time>2009-02-25T13:44:12Z</time>
      </trkpt>
      <trkpt lat="44.97654" lon="4.74806">
        <ele>413.46557617188</ele>
        <time>2009-02-25T13:44:14Z</time>
      </trkpt>
      <trkpt lat="44.9763" lon="4.74866">
        <ele>410.03176879883</ele>
        <time>2009-02-25T13:44:22Z</time>
      </trkpt>
      <trkpt lat="44.97584" lon="4.74905">
        <ele>412.94320678711</ele>
        <time>2009-02-25T13:44:30Z</time>
      </trkpt>
      <trkpt lat="44.9752" lon="4.74925">
        <ele>414.93597412109</ele>
        <time>2009-02-25T13:44:41Z</time>
      </trkpt>
      <trkpt lat="44.97469" lon="4.74935">
        <ele>415.2353515625</ele>
        <time>2009-02-25T13:44:49Z</time>
      </trkpt>
      <trkpt lat="44.97438" lon="4.74926">
        <ele>417.23077392578</ele>
        <time>2009-02-25T13:44:54Z</time>
      </trkpt>
      <trkpt lat="44.97361" lon="4.74873">
        <ele>427.79846191406</ele>
        <time>2009-02-25T13:45:08Z</time>
      </trkpt>
      <trkpt lat="44.97345" lon="4.74871">
        <ele>429.03750610352</ele>
        <time>2009-02-25T13:45:10Z</time>
      </trkpt>
      <trkpt lat="44.97143" lon="4.74893">
        <ele>426.40444946289</ele>
        <time>2009-02-25T13:45:43Z</time>
      </trkpt>
      <trkpt lat="44.97107" lon="4.74887">
        <ele>423.94879150391</ele>
        <time>2009-02-25T13:45:49Z</time>
      </trkpt>
      <trkpt lat="44.97099" lon="4.74877">
        <ele>425.05911254883</ele>
        <time>2009-02-25T13:45:50Z</time>
      </trkpt>
      <trkpt lat="44.97092" lon="4.74856">
        <ele>428.23480224609</ele>
        <time>2009-02-25T13:45:53Z</time>
      </trkpt>
      <trkpt lat="44.97074" lon="4.74756">
        <ele>438.7233581543</ele>
        <time>2009-02-25T13:46:05Z</time>
      </trkpt>
      <trkpt lat="44.97061" lon="4.74709">
        <ele>444.32705688477</ele>
        <time>2009-02-25T13:46:10Z</time>
      </trkpt>
      <trkpt lat="44.97056" lon="4.74696">
        <ele>445.82693481445</ele>
        <time>2009-02-25T13:46:12Z</time>
      </trkpt>
      <trkpt lat="44.97046" lon="4.74687">
        <ele>446.8883972168</ele>
        <time>2009-02-25T13:46:14Z</time>
      </trkpt>
      <trkpt lat="44.97032" lon="4.74696">
        <ele>446.12680053711</ele>
        <time>2009-02-25T13:46:16Z</time>
      </trkpt>
      <trkpt lat="44.97017" lon="4.74775">
        <ele>438.03741455078</ele>
        <time>2009-02-25T13:46:26Z</time>
      </trkpt>
      <trkpt lat="44.97002" lon="4.74807">
        <ele>433.78894042969</ele>
        <time>2009-02-25T13:46:30Z</time>
      </trkpt>
      <trkpt lat="44.96978" lon="4.74815">
        <ele>432.95910644531</ele>
        <time>2009-02-25T13:46:34Z</time>
      </trkpt>
      <trkpt lat="44.96954" lon="4.74814">
        <ele>433.51617431641</ele>
        <time>2009-02-25T13:46:38Z</time>
      </trkpt>
      <trkpt lat="44.96923" lon="4.74804">
        <ele>436.54544067383</ele>
        <time>2009-02-25T13:46:43Z</time>
      </trkpt>
      <trkpt lat="44.96893" lon="4.74785">
        <ele>443.1858215332</ele>
        <time>2009-02-25T13:46:48Z</time>
      </trkpt>
      <trkpt lat="44.96795" lon="4.74786">
        <ele>445.96221923828</ele>
        <time>2009-02-25T13:47:04Z</time>
      </trkpt>
      <trkpt lat="44.96689" lon="4.74774">
        <ele>446.19482421875</ele>
        <time>2009-02-25T13:47:21Z</time>
      </trkpt>
      <trkpt lat="44.96673" lon="4.74764">
        <ele>448.2961730957</ele>
        <time>2009-02-25T13:47:24Z</time>
      </trkpt>
      <trkpt lat="44.96655" lon="4.7474">
        <ele>452.99099731445</ele>
        <time>2009-02-25T13:47:28Z</time>
      </trkpt>
      <trkpt lat="44.966" lon="4.74703">
        <ele>453.96694946289</ele>
        <time>2009-02-25T13:47:37Z</time>
      </trkpt>
      <trkpt lat="44.96576" lon="4.74643">
        <ele>460.81274414062</ele>
        <time>2009-02-25T13:47:45Z</time>
      </trkpt>
      <trkpt lat="44.96523" lon="4.74638">
        <ele>460.34457397461</ele>
        <time>2009-02-25T13:47:54Z</time>
      </trkpt>
      <trkpt lat="44.96479" lon="4.74585">
        <ele>468.58547973633</ele>
        <time>2009-02-25T13:48:03Z</time>
      </trkpt>
      <trkpt lat="44.96463" lon="4.74576">
        <ele>470.94876098633</ele>
        <time>2009-02-25T13:48:06Z</time>
      </trkpt>
      <trkpt lat="44.96443" lon="4.74583">
        <ele>471.80142211914</ele>
        <time>2009-02-25T13:48:09Z</time>
      </trkpt>
      <trkpt lat="44.96435" lon="4.74597">
        <ele>471.79153442383</ele>
        <time>2009-02-25T13:48:11Z</time>
      </trkpt>
      <trkpt lat="44.96436" lon="4.74655">
        <ele>468.87258911133</ele>
        <time>2009-02-25T13:48:18Z</time>
      </trkpt>
      <trkpt lat="44.96416" lon="4.7469">
        <ele>473.19348144531</ele>
        <time>2009-02-25T13:48:23Z</time>
      </trkpt>
      <trkpt lat="44.96413" lon="4.74704">
        <ele>474.2158203125</ele>
        <time>2009-02-25T13:48:24Z</time>
      </trkpt>
      <trkpt lat="44.96414" lon="4.74777">
        <ele>472.32290649414</ele>
        <time>2009-02-25T13:48:33Z</time>
      </trkpt>
      <trkpt lat="44.96404" lon="4.74786">
        <ele>471.89031982422</ele>
        <time>2009-02-25T13:48:34Z</time>
      </trkpt>
      <trkpt lat="44.96326" lon="4.74816">
        <ele>474.40258789062</ele>
        <time>2009-02-25T13:48:47Z</time>
      </trkpt>
      <trkpt lat="44.9629" lon="4.74849">
        <ele>473.68951416016</ele>
        <time>2009-02-25T13:48:54Z</time>
      </trkpt>
      <trkpt lat="44.96255" lon="4.74867">
        <ele>476.60723876953</ele>
        <time>2009-02-25T13:49:00Z</time>
      </trkpt>
      <trkpt lat="44.96176" lon="4.7485">
        <ele>483.87796020508</ele>
        <time>2009-02-25T13:49:13Z</time>
      </trkpt>
      <trkpt lat="44.9609" lon="4.74782">
        <ele>491.10079956055</ele>
        <time>2009-02-25T13:49:29Z</time>
      </trkpt>
      <trkpt lat="44.96" lon="4.74758">
        <ele>491.93991088867</ele>
        <time>2009-02-25T13:49:44Z</time>
      </trkpt>
      <trkpt lat="44.95976" lon="4.74747">
        <ele>492.48223876953</ele>
        <time>2009-02-25T13:49:48Z</time>
      </trkpt>
      <trkpt lat="44.95941" lon="4.7472">
        <ele>494.22750854492</ele>
        <time>2009-02-25T13:49:54Z</time>
      </trkpt>
      <trkpt lat="44.95918" lon="4.74692">
        <ele>496.31719970703</ele>
        <time>2009-02-25T13:49:59Z</time>
      </trkpt>
      <trkpt lat="44.95894" lon="4.74611">
        <ele>500.21405029297</ele>
        <time>2009-02-25T13:50:09Z</time>
      </trkpt>
      <trkpt lat="44.95889" lon="4.74605">
        <ele>500.28149414062</ele>
        <time>2009-02-25T13:50:10Z</time>
      </trkpt>
      <trkpt lat="44.95869" lon="4.74587">
        <ele>500.43768310547</ele>
        <time>2009-02-25T13:50:14Z</time>
      </trkpt>
      <trkpt lat="44.95815" lon="4.74571">
        <ele>499.7639465332</ele>
        <time>2009-02-25T13:50:22Z</time>
      </trkpt>
      <trkpt lat="44.95759" lon="4.74558">
        <ele>501.62030029297</ele>
        <time>2009-02-25T13:50:32Z</time>
      </trkpt>
      <trkpt lat="44.9565" lon="4.7458">
        <ele>503.28778076172</ele>
        <time>2009-02-25T13:50:49Z</time>
      </trkpt>
      <trkpt lat="44.95584" lon="4.74554">
        <ele>505.81137084961</ele>
        <time>2009-02-25T13:51:00Z</time>
      </trkpt>
      <trkpt lat="44.95564" lon="4.74556">
        <ele>506.16940307617</ele>
        <time>2009-02-25T13:51:03Z</time>
      </trkpt>
      <trkpt lat="44.95513" lon="4.74585">
        <ele>505.39318847656</ele>
        <time>2009-02-25T13:51:12Z</time>
      </trkpt>
      <trkpt lat="44.95496" lon="4.74589">
        <ele>505.62600708008</ele>
        <time>2009-02-25T13:51:15Z</time>
      </trkpt>
      <trkpt lat="44.95419" lon="4.74572">
        <ele>508.31912231445</ele>
        <time>2009-02-25T13:51:27Z</time>
      </trkpt>
      <trkpt lat="44.95382" lon="4.7457">
        <ele>509.08505249023</ele>
        <time>2009-02-25T13:51:33Z</time>
      </trkpt>
      <trkpt lat="44.95282" lon="4.74585">
        <ele>509.5950012207</ele>
        <time>2009-02-25T13:51:49Z</time>
      </trkpt>
      <trkpt lat="44.9522" lon="4.74584">
        <ele>508.75103759766</ele>
        <time>2009-02-25T13:51:59Z</time>
      </trkpt>
      <trkpt lat="44.95161" lon="4.74483">
        <ele>512.77679443359</ele>
        <time>2009-02-25T13:52:14Z</time>
      </trkpt>
      <trkpt lat="44.95158" lon="4.74466">
        <ele>512.88031005859</ele>
        <time>2009-02-25T13:52:16Z</time>
      </trkpt>
      <trkpt lat="44.95161" lon="4.74428">
        <ele>515.10693359375</ele>
        <time>2009-02-25T13:52:20Z</time>
      </trkpt>
      <trkpt lat="44.95173" lon="4.74379">
        <ele>516.65563964844</ele>
        <time>2009-02-25T13:52:26Z</time>
      </trkpt>
      <trkpt lat="44.95193" lon="4.74328">
        <ele>520.51116943359</ele>
        <time>2009-02-25T13:52:33Z</time>
      </trkpt>
      <trkpt lat="44.95211" lon="4.74299">
        <ele>524.67980957031</ele>
        <time>2009-02-25T13:52:37Z</time>
      </trkpt>
      <trkpt lat="44.95219" lon="4.74269">
        <ele>525.65789794922</ele>
        <time>2009-02-25T13:52:41Z</time>
      </trkpt>
      <trkpt lat="44.95214" lon="4.74255">
        <ele>523.98077392578</ele>
        <time>2009-02-25T13:52:43Z</time>
      </trkpt>
      <trkpt lat="44.95147" lon="4.74169">
        <ele>523.85510253906</ele>
        <time>2009-02-25T13:52:57Z</time>
      </trkpt>
      <trkpt lat="44.95119" lon="4.7411">
        <ele>527.29833984375</ele>
        <time>2009-02-25T13:53:05Z</time>
      </trkpt>
      <trkpt lat="44.95089" lon="4.74067">
        <ele>527.93188476562</ele>
        <time>2009-02-25T13:53:12Z</time>
      </trkpt>
      <trkpt lat="44.9508" lon="4.74037">
        <ele>530.3525390625</ele>
        <time>2009-02-25T13:53:16Z</time>
      </trkpt>
      <trkpt lat="44.9507" lon="4.7402">
        <ele>531.66998291016</ele>
        <time>2009-02-25T13:53:18Z</time>
      </trkpt>
      <trkpt lat="44.95055" lon="4.74011">
        <ele>531.68634033203</ele>
        <time>2009-02-25T13:53:21Z</time>
      </trkpt>
      <trkpt lat="44.95018" lon="4.74001">
        <ele>530.18817138672</ele>
        <time>2009-02-25T13:53:27Z</time>
      </trkpt>
      <trkpt lat="44.94991" lon="4.73985">
        <ele>529.15924072266</ele>
        <time>2009-02-25T13:53:32Z</time>
      </trkpt>
      <trkpt lat="44.9494" lon="4.7393">
        <ele>530.00201416016</ele>
        <time>2009-02-25T13:53:42Z</time>
      </trkpt>
      <trkpt lat="44.94916" lon="4.73892">
        <ele>531.44610595703</ele>
        <time>2009-02-25T13:53:48Z</time>
      </trkpt>
      <trkpt lat="44.94908" lon="4.73872">
        <ele>532.11407470703</ele>
        <time>2009-02-25T13:53:50Z</time>
      </trkpt>
      <trkpt lat="44.94903" lon="4.73848">
        <ele>533.17712402344</ele>
        <time>2009-02-25T13:53:53Z</time>
      </trkpt>
      <trkpt lat="44.94899" lon="4.73783">
        <ele>534.01995849609</ele>
        <time>2009-02-25T13:54:01Z</time>
      </trkpt>
      <trkpt lat="44.94894" lon="4.73767">
        <ele>534.08776855469</ele>
        <time>2009-02-25T13:54:03Z</time>
      </trkpt>
      <trkpt lat="44.9486" lon="4.7372">
        <ele>536.48034667969</ele>
        <time>2009-02-25T13:54:10Z</time>
      </trkpt>
      <trkpt lat="44.94835" lon="4.73698">
        <ele>538.10144042969</ele>
        <time>2009-02-25T13:54:15Z</time>
      </trkpt>
      <trkpt lat="44.94817" lon="4.73693">
        <ele>538.34832763672</ele>
        <time>2009-02-25T13:54:18Z</time>
      </trkpt>
      <trkpt lat="44.94785" lon="4.73691">
        <ele>538.29895019531</ele>
        <time>2009-02-25T13:54:23Z</time>
      </trkpt>
      <trkpt lat="44.94755" lon="4.73698">
        <ele>537.88751220703</ele>
        <time>2009-02-25T13:54:28Z</time>
      </trkpt>
      <trkpt lat="44.94724" lon="4.73692">
        <ele>537.87036132812</ele>
        <time>2009-02-25T13:54:33Z</time>
      </trkpt>
      <trkpt lat="44.94701" lon="4.7367">
        <ele>538.31536865234</ele>
        <time>2009-02-25T13:54:37Z</time>
      </trkpt>
      <trkpt lat="44.94645" lon="4.73577">
        <ele>545.66717529297</ele>
        <time>2009-02-25T13:54:51Z</time>
      </trkpt>
      <trkpt lat="44.94607" lon="4.73499">
        <ele>552.2216796875</ele>
        <time>2009-02-25T13:55:02Z</time>
      </trkpt>
      <trkpt lat="44.946" lon="4.73471">
        <ele>550.787109375</ele>
        <time>2009-02-25T13:55:05Z</time>
      </trkpt>
      <trkpt lat="44.94597" lon="4.7344">
        <ele>548.68579101562</ele>
        <time>2009-02-25T13:55:09Z</time>
      </trkpt>
      <trkpt lat="44.94599" lon="4.73357">
        <ele>544.85235595703</ele>
        <time>2009-02-25T13:55:18Z</time>
      </trkpt>
      <trkpt lat="44.94574" lon="4.73264">
        <ele>545.10296630859</ele>
        <time>2009-02-25T13:55:29Z</time>
      </trkpt>
      <trkpt lat="44.94482" lon="4.73015">
        <ele>549.85150146484</ele>
        <time>2009-02-25T13:56:01Z</time>
      </trkpt>
      <trkpt lat="44.94469" lon="4.73003">
        <ele>549.79168701172</ele>
        <time>2009-02-25T13:56:04Z</time>
      </trkpt>
      <trkpt lat="44.94474" lon="4.7299">
        <ele>550.38024902344</ele>
        <time>2009-02-25T13:56:05Z</time>
      </trkpt>
      <trkpt lat="44.94471" lon="4.72971">
        <ele>550.89324951172</ele>
        <time>2009-02-25T13:56:08Z</time>
      </trkpt>
      <trkpt lat="44.9444" lon="4.72932">
        <ele>551.64813232422</ele>
        <time>2009-02-25T13:56:14Z</time>
      </trkpt>
      <trkpt lat="44.94431" lon="4.72902">
        <ele>552.96478271484</ele>
        <time>2009-02-25T13:56:18Z</time>
      </trkpt>
      <trkpt lat="44.94398" lon="4.72869">
        <ele>553.04705810547</ele>
        <time>2009-02-25T13:56:24Z</time>
      </trkpt>
      <trkpt lat="44.94439" lon="4.72677">
        <ele>560.80426025391</ele>
        <time>2009-02-25T13:56:47Z</time>
      </trkpt>
      <trkpt lat="44.94457" lon="4.72655">
        <ele>561.87463378906</ele>
        <time>2009-02-25T13:56:51Z</time>
      </trkpt>
      <trkpt lat="44.94519" lon="4.7263">
        <ele>567.37927246094</ele>
        <time>2009-02-25T13:57:01Z</time>
      </trkpt>
      <trkpt lat="44.94532" lon="4.72619">
        <ele>568.94201660156</ele>
        <time>2009-02-25T13:57:04Z</time>
      </trkpt>
      <trkpt lat="44.9454" lon="4.72607">
        <ele>570.30041503906</ele>
        <time>2009-02-25T13:57:06Z</time>
      </trkpt>
      <trkpt lat="44.94545" lon="4.72588">
        <ele>571.80059814453</ele>
        <time>2009-02-25T13:57:08Z</time>
      </trkpt>
      <trkpt lat="44.94544" lon="4.72531">
        <ele>573.49108886719</ele>
        <time>2009-02-25T13:57:14Z</time>
      </trkpt>
      <trkpt lat="44.94541" lon="4.72486">
        <ele>573.89434814453</ele>
        <time>2009-02-25T13:57:19Z</time>
      </trkpt>
      <trkpt lat="44.94546" lon="4.72435">
        <ele>574.88000488281</ele>
        <time>2009-02-25T13:57:25Z</time>
      </trkpt>
      <trkpt lat="44.94601" lon="4.72334">
        <ele>578.59899902344</ele>
        <time>2009-02-25T13:57:40Z</time>
      </trkpt>
      <trkpt lat="44.94628" lon="4.72302">
        <ele>579.96667480469</ele>
        <time>2009-02-25T13:57:45Z</time>
      </trkpt>
      <trkpt lat="44.94664" lon="4.72279">
        <ele>582.46051025391</ele>
        <time>2009-02-25T13:57:52Z</time>
      </trkpt>
      <trkpt lat="44.94774" lon="4.72255">
        <ele>586.43237304688</ele>
        <time>2009-02-25T13:58:10Z</time>
      </trkpt>
      <trkpt lat="44.9482" lon="4.72194">
        <ele>586.97943115234</ele>
        <time>2009-02-25T13:58:20Z</time>
      </trkpt>
      <trkpt lat="44.94846" lon="4.72134">
        <ele>589.33264160156</ele>
        <time>2009-02-25T13:58:28Z</time>
      </trkpt>
      <trkpt lat="44.94871" lon="4.72066">
        <ele>595.61877441406</ele>
        <time>2009-02-25T13:58:36Z</time>
      </trkpt>
      <trkpt lat="44.94875" lon="4.72038">
        <ele>598.52886962891</ele>
        <time>2009-02-25T13:58:40Z</time>
      </trkpt>
      <trkpt lat="44.94872" lon="4.72022">
        <ele>599.21594238281</ele>
        <time>2009-02-25T13:58:41Z</time>
      </trkpt>
      <trkpt lat="44.94856" lon="4.71991">
        <ele>599.38159179688</ele>
        <time>2009-02-25T13:58:46Z</time>
      </trkpt>
      <trkpt lat="44.94819" lon="4.71962">
        <ele>597.78015136719</ele>
        <time>2009-02-25T13:58:53Z</time>
      </trkpt>
      <trkpt lat="44.94804" lon="4.71942">
        <ele>598.41870117188</ele>
        <time>2009-02-25T13:58:56Z</time>
      </trkpt>
      <trkpt lat="44.94799" lon="4.71925">
        <ele>599.69512939453</ele>
        <time>2009-02-25T13:58:58Z</time>
      </trkpt>
      <trkpt lat="44.94799" lon="4.71904">
        <ele>600.52532958984</ele>
        <time>2009-02-25T13:59:00Z</time>
      </trkpt>
      <trkpt lat="44.948" lon="4.71888">
        <ele>600.55554199219</ele>
        <time>2009-02-25T13:59:02Z</time>
      </trkpt>
      <trkpt lat="44.94817" lon="4.71841">
        <ele>603.09088134766</ele>
        <time>2009-02-25T13:59:08Z</time>
      </trkpt>
      <trkpt lat="44.94862" lon="4.71765">
        <ele>607.73565673828</ele>
        <time>2009-02-25T13:59:19Z</time>
      </trkpt>
      <trkpt lat="44.94909" lon="4.71726">
        <ele>613.09613037109</ele>
        <time>2009-02-25T13:59:28Z</time>
      </trkpt>
      <trkpt lat="44.94947" lon="4.71711">
        <ele>615.87005615234</ele>
        <time>2009-02-25T13:59:34Z</time>
      </trkpt>
      <trkpt lat="44.95069" lon="4.71693">
        <ele>624.73498535156</ele>
        <time>2009-02-25T13:59:54Z</time>
      </trkpt>
      <trkpt lat="44.95121" lon="4.71648">
        <ele>622.80407714844</ele>
        <time>2009-02-25T14:00:04Z</time>
      </trkpt>
      <trkpt lat="44.95183" lon="4.71621">
        <ele>626.72857666016</ele>
        <time>2009-02-25T14:00:14Z</time>
      </trkpt>
      <trkpt lat="44.95194" lon="4.71605">
        <ele>626.57855224609</ele>
        <time>2009-02-25T14:00:17Z</time>
      </trkpt>
      <trkpt lat="44.95207" lon="4.71557">
        <ele>626.51342773438</ele>
        <time>2009-02-25T14:00:23Z</time>
      </trkpt>
      <trkpt lat="44.95214" lon="4.71502">
        <ele>626.3134765625</ele>
        <time>2009-02-25T14:00:29Z</time>
      </trkpt>
      <trkpt lat="44.95213" lon="4.71452">
        <ele>626.28790283203</ele>
        <time>2009-02-25T14:00:35Z</time>
      </trkpt>
      <trkpt lat="44.95209" lon="4.71428">
        <ele>626.77093505859</ele>
        <time>2009-02-25T14:00:37Z</time>
      </trkpt>
      <trkpt lat="44.95194" lon="4.71391">
        <ele>628.27349853516</ele>
        <time>2009-02-25T14:00:42Z</time>
      </trkpt>
      <trkpt lat="44.95175" lon="4.71361">
        <ele>630.76684570312</ele>
        <time>2009-02-25T14:00:47Z</time>
      </trkpt>
      <trkpt lat="44.95143" lon="4.71296">
        <ele>634.09393310547</ele>
        <time>2009-02-25T14:00:56Z</time>
      </trkpt>
      <trkpt lat="44.95124" lon="4.7123">
        <ele>634.51849365234</ele>
        <time>2009-02-25T14:01:04Z</time>
      </trkpt>
      <trkpt lat="44.95109" lon="4.71211">
        <ele>635.01428222656</ele>
        <time>2009-02-25T14:01:07Z</time>
      </trkpt>
      <trkpt lat="44.95069" lon="4.71193">
        <ele>636.875</ele>
        <time>2009-02-25T14:01:14Z</time>
      </trkpt>
      <trkpt lat="44.95059" lon="4.71184">
        <ele>636.67834472656</ele>
        <time>2009-02-25T14:01:16Z</time>
      </trkpt>
      <trkpt lat="44.95052" lon="4.71169">
        <ele>636.22717285156</ele>
        <time>2009-02-25T14:01:18Z</time>
      </trkpt>
      <trkpt lat="44.95047" lon="4.71112">
        <ele>636.71221923828</ele>
        <time>2009-02-25T14:01:24Z</time>
      </trkpt>
      <trkpt lat="44.95037" lon="4.71056">
        <ele>637.77569580078</ele>
        <time>2009-02-25T14:01:31Z</time>
      </trkpt>
      <trkpt lat="44.95" lon="4.70947">
        <ele>642.71203613281</ele>
        <time>2009-02-25T14:01:44Z</time>
      </trkpt>
      <trkpt lat="44.94989" lon="4.709">
        <ele>643.84991455078</ele>
        <time>2009-02-25T14:01:50Z</time>
      </trkpt>
      <trkpt lat="44.94986" lon="4.70848">
        <ele>645.50128173828</ele>
        <time>2009-02-25T14:01:56Z</time>
      </trkpt>
      <trkpt lat="44.94994" lon="4.70805">
        <ele>645.61950683594</ele>
        <time>2009-02-25T14:02:01Z</time>
      </trkpt>
      <trkpt lat="44.94988" lon="4.70783">
        <ele>646.7099609375</ele>
        <time>2009-02-25T14:02:04Z</time>
      </trkpt>
      <trkpt lat="44.94982" lon="4.70774">
        <ele>647.27258300781</ele>
        <time>2009-02-25T14:02:05Z</time>
      </trkpt>
      <trkpt lat="44.94926" lon="4.70731">
        <ele>648.16638183594</ele>
        <time>2009-02-25T14:02:15Z</time>
      </trkpt>
      <trkpt lat="44.94791" lon="4.706">
        <ele>653.29962158203</ele>
        <time>2009-02-25T14:02:41Z</time>
      </trkpt>
      <trkpt lat="44.94772" lon="4.70588">
        <ele>655.59515380859</ele>
        <time>2009-02-25T14:02:45Z</time>
      </trkpt>
      <trkpt lat="44.94739" lon="4.70578">
        <ele>659.8173828125</ele>
        <time>2009-02-25T14:02:50Z</time>
      </trkpt>
      <trkpt lat="44.94725" lon="4.70566">
        <ele>660.40063476562</ele>
        <time>2009-02-25T14:02:53Z</time>
      </trkpt>
      <trkpt lat="44.94691" lon="4.70519">
        <ele>660.69573974609</ele>
        <time>2009-02-25T14:03:00Z</time>
      </trkpt>
      <trkpt lat="44.9466" lon="4.70489">
        <ele>661.44854736328</ele>
        <time>2009-02-25T14:03:06Z</time>
      </trkpt>
      <trkpt lat="44.94578" lon="4.7046">
        <ele>663.74102783203</ele>
        <time>2009-02-25T14:03:20Z</time>
      </trkpt>
      <trkpt lat="44.94556" lon="4.70441">
        <ele>662.61328125</ele>
        <time>2009-02-25T14:03:24Z</time>
      </trkpt>
      <trkpt lat="44.94488" lon="4.70323">
        <ele>660.36077880859</ele>
        <time>2009-02-25T14:03:41Z</time>
      </trkpt>
      <trkpt lat="44.94465" lon="4.70294">
        <ele>659.61114501953</ele>
        <time>2009-02-25T14:03:46Z</time>
      </trkpt>
      <trkpt lat="44.9439" lon="4.70217">
        <ele>661.2177734375</ele>
        <time>2009-02-25T14:04:01Z</time>
      </trkpt>
      <trkpt lat="44.94357" lon="4.70168">
        <ele>666.13903808594</ele>
        <time>2009-02-25T14:04:09Z</time>
      </trkpt>
      <trkpt lat="44.94343" lon="4.70129">
        <ele>670.34674072266</ele>
        <time>2009-02-25T14:04:14Z</time>
      </trkpt>
      <trkpt lat="44.94343" lon="4.7006">
        <ele>674.77923583984</ele>
        <time>2009-02-25T14:04:22Z</time>
      </trkpt>
      <trkpt lat="44.9435" lon="4.70029">
        <ele>675.35229492188</ele>
        <time>2009-02-25T14:04:25Z</time>
      </trkpt>
      <trkpt lat="44.94401" lon="4.69935">
        <ele>679.72875976562</ele>
        <time>2009-02-25T14:04:39Z</time>
      </trkpt>
      <trkpt lat="44.9443" lon="4.69917">
        <ele>681.77734375</ele>
        <time>2009-02-25T14:04:44Z</time>
      </trkpt>
      <trkpt lat="44.94451" lon="4.69919">
        <ele>682.81304931641</ele>
        <time>2009-02-25T14:04:47Z</time>
      </trkpt>
      <trkpt lat="44.94505" lon="4.69941">
        <ele>682.91052246094</ele>
        <time>2009-02-25T14:04:56Z</time>
      </trkpt>
      <trkpt lat="44.94525" lon="4.69936">
        <ele>685.32983398438</ele>
        <time>2009-02-25T14:04:59Z</time>
      </trkpt>
      <trkpt lat="44.94542" lon="4.69924">
        <ele>688.46325683594</ele>
        <time>2009-02-25T14:05:02Z</time>
      </trkpt>
      <trkpt lat="44.94569" lon="4.69919">
        <ele>691.45928955078</ele>
        <time>2009-02-25T14:05:07Z</time>
      </trkpt>
      <trkpt lat="44.94612" lon="4.69933">
        <ele>691.82177734375</ele>
        <time>2009-02-25T14:05:14Z</time>
      </trkpt>
      <trkpt lat="44.94692" lon="4.69934">
        <ele>692.15942382812</ele>
        <time>2009-02-25T14:05:27Z</time>
      </trkpt>
      <trkpt lat="44.94707" lon="4.69931">
        <ele>691.52215576172</ele>
        <time>2009-02-25T14:05:29Z</time>
      </trkpt>
      <trkpt lat="44.94774" lon="4.69896">
        <ele>693.29119873047</ele>
        <time>2009-02-25T14:05:41Z</time>
      </trkpt>
      <trkpt lat="44.94805" lon="4.69873">
        <ele>695.55145263672</ele>
        <time>2009-02-25T14:05:46Z</time>
      </trkpt>
      <trkpt lat="44.94816" lon="4.69854">
        <ele>698.32659912109</ele>
        <time>2009-02-25T14:05:49Z</time>
      </trkpt>
      <trkpt lat="44.94832" lon="4.69808">
        <ele>705.32238769531</ele>
        <time>2009-02-25T14:05:55Z</time>
      </trkpt>
      <trkpt lat="44.94847" lon="4.69794">
        <ele>708.19323730469</ele>
        <time>2009-02-25T14:05:58Z</time>
      </trkpt>
      <trkpt lat="44.94875" lon="4.69795">
        <ele>709.20989990234</ele>
        <time>2009-02-25T14:06:02Z</time>
      </trkpt>
      <trkpt lat="44.94924" lon="4.69813">
        <ele>708.80194091797</ele>
        <time>2009-02-25T14:06:10Z</time>
      </trkpt>
      <trkpt lat="44.95005" lon="4.69821">
        <ele>714.36810302734</ele>
        <time>2009-02-25T14:06:23Z</time>
      </trkpt>
      <trkpt lat="44.95018" lon="4.69821">
        <ele>714.45452880859</ele>
        <time>2009-02-25T14:06:25Z</time>
      </trkpt>
      <trkpt lat="44.95035" lon="4.69812">
        <ele>715.40081787109</ele>
        <time>2009-02-25T14:06:28Z</time>
      </trkpt>
      <trkpt lat="44.95042" lon="4.69803">
        <ele>716.22961425781</ele>
        <time>2009-02-25T14:06:30Z</time>
      </trkpt>
      <trkpt lat="44.95052" lon="4.69758">
        <ele>720.06982421875</ele>
        <time>2009-02-25T14:06:35Z</time>
      </trkpt>
      <trkpt lat="44.95039" lon="4.69563">
        <ele>732.52551269531</ele>
        <time>2009-02-25T14:06:57Z</time>
      </trkpt>
      <trkpt lat="44.95047" lon="4.69513">
        <ele>734.68908691406</ele>
        <time>2009-02-25T14:07:03Z</time>
      </trkpt>
      <trkpt lat="44.95064" lon="4.69489">
        <ele>735.00823974609</ele>
        <time>2009-02-25T14:07:07Z</time>
      </trkpt>
      <trkpt lat="44.95087" lon="4.69483">
        <ele>734.05072021484</ele>
        <time>2009-02-25T14:07:11Z</time>
      </trkpt>
      <trkpt lat="44.9517" lon="4.69484">
        <ele>734.31677246094</ele>
        <time>2009-02-25T14:07:24Z</time>
      </trkpt>
      <trkpt lat="44.9521" lon="4.69462">
        <ele>741.21453857422</ele>
        <time>2009-02-25T14:07:31Z</time>
      </trkpt>
      <trkpt lat="44.95232" lon="4.69461">
        <ele>742.87396240234</ele>
        <time>2009-02-25T14:07:34Z</time>
      </trkpt>
      <trkpt lat="44.95247" lon="4.69473">
        <ele>741.98992919922</ele>
        <time>2009-02-25T14:07:37Z</time>
      </trkpt>
      <trkpt lat="44.95279" lon="4.69528">
        <ele>737.83294677734</ele>
        <time>2009-02-25T14:07:45Z</time>
      </trkpt>
      <trkpt lat="44.95303" lon="4.69552">
        <ele>738.10485839844</ele>
        <time>2009-02-25T14:07:50Z</time>
      </trkpt>
      <trkpt lat="44.9532" lon="4.69562">
        <ele>739.75512695312</ele>
        <time>2009-02-25T14:07:53Z</time>
      </trkpt>
      <trkpt lat="44.95379" lon="4.69572">
        <ele>743.20068359375</ele>
        <time>2009-02-25T14:08:02Z</time>
      </trkpt>
      <trkpt lat="44.95405" lon="4.69565">
        <ele>745.39294433594</ele>
        <time>2009-02-25T14:08:07Z</time>
      </trkpt>
      <trkpt lat="44.9542" lon="4.69554">
        <ele>747.05792236328</ele>
        <time>2009-02-25T14:08:09Z</time>
      </trkpt>
      <trkpt lat="44.95437" lon="4.69529">
        <ele>749.06652832031</ele>
        <time>2009-02-25T14:08:13Z</time>
      </trkpt>
      <trkpt lat="44.95473" lon="4.69448">
        <ele>754.43859863281</ele>
        <time>2009-02-25T14:08:24Z</time>
      </trkpt>
      <trkpt lat="44.95482" lon="4.69352">
        <ele>759.94799804688</ele>
        <time>2009-02-25T14:08:35Z</time>
      </trkpt>
      <trkpt lat="44.95484" lon="4.69276">
        <ele>761.85296630859</ele>
        <time>2009-02-25T14:08:44Z</time>
      </trkpt>
      <trkpt lat="44.95488" lon="4.69255">
        <ele>762.33715820312</ele>
        <time>2009-02-25T14:08:46Z</time>
      </trkpt>
      <trkpt lat="44.95519" lon="4.69154">
        <ele>758.41766357422</ele>
        <time>2009-02-25T14:08:59Z</time>
      </trkpt>
      <trkpt lat="44.95548" lon="4.69084">
        <ele>751.94476318359</ele>
        <time>2009-02-25T14:09:08Z</time>
      </trkpt>
      <trkpt lat="44.95558" lon="4.69031">
        <ele>749.53967285156</ele>
        <time>2009-02-25T14:09:14Z</time>
      </trkpt>
      <trkpt lat="44.95557" lon="4.68997">
        <ele>747.73895263672</ele>
        <time>2009-02-25T14:09:18Z</time>
      </trkpt>
      <trkpt lat="44.95549" lon="4.68945">
        <ele>747.19696044922</ele>
        <time>2009-02-25T14:09:24Z</time>
      </trkpt>
      <trkpt lat="44.95524" lon="4.68837">
        <ele>744.31970214844</ele>
        <time>2009-02-25T14:09:37Z</time>
      </trkpt>
      <trkpt lat="44.95508" lon="4.68707">
        <ele>744.45062255859</ele>
        <time>2009-02-25T14:09:52Z</time>
      </trkpt>
      <trkpt lat="44.95506" lon="4.68664">
        <ele>744.63092041016</ele>
        <time>2009-02-25T14:09:57Z</time>
      </trkpt>
      <trkpt lat="44.95509" lon="4.68615">
        <ele>744.76745605469</ele>
        <time>2009-02-25T14:10:02Z</time>
      </trkpt>
      <trkpt lat="44.95525" lon="4.68545">
        <ele>744.32720947266</ele>
        <time>2009-02-25T14:10:10Z</time>
      </trkpt>
      <trkpt lat="44.956" lon="4.68327">
        <ele>736.35357666016</ele>
        <time>2009-02-25T14:10:38Z</time>
      </trkpt>
      <trkpt lat="44.95585" lon="4.6826">
        <ele>732.47509765625</ele>
        <time>2009-02-25T14:10:46Z</time>
      </trkpt>
      <trkpt lat="44.95588" lon="4.68243">
        <ele>732.15252685547</ele>
        <time>2009-02-25T14:10:48Z</time>
      </trkpt>
      <trkpt lat="44.95626" lon="4.68173">
        <ele>732.28045654297</ele>
        <time>2009-02-25T14:10:58Z</time>
      </trkpt>
      <trkpt lat="44.95624" lon="4.68142">
        <ele>730.91412353516</ele>
        <time>2009-02-25T14:11:01Z</time>
      </trkpt>
      <trkpt lat="44.95619" lon="4.68126">
        <ele>729.88726806641</ele>
        <time>2009-02-25T14:11:03Z</time>
      </trkpt>
      <trkpt lat="44.95588" lon="4.6808">
        <ele>725.31188964844</ele>
        <time>2009-02-25T14:11:11Z</time>
      </trkpt>
      <trkpt lat="44.95584" lon="4.68066">
        <ele>724.65417480469</ele>
        <time>2009-02-25T14:11:12Z</time>
      </trkpt>
      <trkpt lat="44.95592" lon="4.67985">
        <ele>723.53338623047</ele>
        <time>2009-02-25T14:11:22Z</time>
      </trkpt>
      <trkpt lat="44.95592" lon="4.67956">
        <ele>722.5263671875</ele>
        <time>2009-02-25T14:11:25Z</time>
      </trkpt>
      <trkpt lat="44.95587" lon="4.6793">
        <ele>720.97692871094</ele>
        <time>2009-02-25T14:11:28Z</time>
      </trkpt>
      <trkpt lat="44.95569" lon="4.6789">
        <ele>719.5126953125</ele>
        <time>2009-02-25T14:11:33Z</time>
      </trkpt>
      <trkpt lat="44.95541" lon="4.6785">
        <ele>717.98132324219</ele>
        <time>2009-02-25T14:11:40Z</time>
      </trkpt>
      <trkpt lat="44.95528" lon="4.67824">
        <ele>716.45007324219</ele>
        <time>2009-02-25T14:11:43Z</time>
      </trkpt>
      <trkpt lat="44.95523" lon="4.67795">
        <ele>714.37408447266</ele>
        <time>2009-02-25T14:11:47Z</time>
      </trkpt>
      <trkpt lat="44.95525" lon="4.67763">
        <ele>712.5087890625</ele>
        <time>2009-02-25T14:11:50Z</time>
      </trkpt>
      <trkpt lat="44.9552" lon="4.67702">
        <ele>709.41186523438</ele>
        <time>2009-02-25T14:11:57Z</time>
      </trkpt>
      <trkpt lat="44.95493" lon="4.67626">
        <ele>701.52392578125</ele>
        <time>2009-02-25T14:12:07Z</time>
      </trkpt>
      <trkpt lat="44.95497" lon="4.67592">
        <ele>699.35943603516</ele>
        <time>2009-02-25T14:12:11Z</time>
      </trkpt>
      <trkpt lat="44.95527" lon="4.67537">
        <ele>698.30017089844</ele>
        <time>2009-02-25T14:12:19Z</time>
      </trkpt>
      <trkpt lat="44.95543" lon="4.67471">
        <ele>695.06176757812</ele>
        <time>2009-02-25T14:12:27Z</time>
      </trkpt>
      <trkpt lat="44.95583" lon="4.67371">
        <ele>693.23089599609</ele>
        <time>2009-02-25T14:12:40Z</time>
      </trkpt>
      <trkpt lat="44.95577" lon="4.67343">
        <ele>691.16430664062</ele>
        <time>2009-02-25T14:12:43Z</time>
      </trkpt>
      <trkpt lat="44.9552" lon="4.67288">
        <ele>685.02600097656</ele>
        <time>2009-02-25T14:12:54Z</time>
      </trkpt>
      <trkpt lat="44.95516" lon="4.67273">
        <ele>684.05322265625</ele>
        <time>2009-02-25T14:12:56Z</time>
      </trkpt>
      <trkpt lat="44.95517" lon="4.67258">
        <ele>683.40093994141</ele>
        <time>2009-02-25T14:12:57Z</time>
      </trkpt>
      <trkpt lat="44.95529" lon="4.67222">
        <ele>681.83679199219</ele>
        <time>2009-02-25T14:13:02Z</time>
      </trkpt>
      <trkpt lat="44.95587" lon="4.67149">
        <ele>678.85736083984</ele>
        <time>2009-02-25T14:13:14Z</time>
      </trkpt>
      <trkpt lat="44.95598" lon="4.67126">
        <ele>677.50836181641</ele>
        <time>2009-02-25T14:13:18Z</time>
      </trkpt>
      <trkpt lat="44.956" lon="4.67098">
        <ele>675.49438476562</ele>
        <time>2009-02-25T14:13:21Z</time>
      </trkpt>
      <trkpt lat="44.95596" lon="4.67063">
        <ele>673.74053955078</ele>
        <time>2009-02-25T14:13:25Z</time>
      </trkpt>
      <trkpt lat="44.9559" lon="4.67042">
        <ele>673.08697509766</ele>
        <time>2009-02-25T14:13:27Z</time>
      </trkpt>
      <trkpt lat="44.95524" lon="4.66966">
        <ele>667.30816650391</ele>
        <time>2009-02-25T14:13:41Z</time>
      </trkpt>
      <trkpt lat="44.9552" lon="4.66939">
        <ele>666.70965576172</ele>
        <time>2009-02-25T14:13:44Z</time>
      </trkpt>
      <trkpt lat="44.95595" lon="4.66777">
        <ele>669.650390625</ele>
        <time>2009-02-25T14:14:06Z</time>
      </trkpt>
      <trkpt lat="44.95601" lon="4.66754">
        <ele>670.43695068359</ele>
        <time>2009-02-25T14:14:09Z</time>
      </trkpt>
      <trkpt lat="44.95601" lon="4.66723">
        <ele>669.84539794922</ele>
        <time>2009-02-25T14:14:12Z</time>
      </trkpt>
      <trkpt lat="44.9559" lon="4.66664">
        <ele>669.29693603516</ele>
        <time>2009-02-25T14:14:19Z</time>
      </trkpt>
      <trkpt lat="44.9559" lon="4.66626">
        <ele>668.17156982422</ele>
        <time>2009-02-25T14:14:24Z</time>
      </trkpt>
      <trkpt lat="44.95613" lon="4.66279">
        <ele>660.16143798828</ele>
        <time>2009-02-25T14:15:03Z</time>
      </trkpt>
      <trkpt lat="44.95616" lon="4.65969">
        <ele>653.42559814453</ele>
        <time>2009-02-25T14:15:38Z</time>
      </trkpt>
      <trkpt lat="44.95639" lon="4.65907">
        <ele>652.54675292969</ele>
        <time>2009-02-25T14:15:46Z</time>
      </trkpt>
      <trkpt lat="44.95667" lon="4.65864">
        <ele>649.61236572266</ele>
        <time>2009-02-25T14:15:53Z</time>
      </trkpt>
      <trkpt lat="44.95705" lon="4.65789">
        <ele>646.83654785156</ele>
        <time>2009-02-25T14:16:03Z</time>
      </trkpt>
      <trkpt lat="44.95739" lon="4.65743">
        <ele>646.13055419922</ele>
        <time>2009-02-25T14:16:11Z</time>
      </trkpt>
      <trkpt lat="44.95771" lon="4.65725">
        <ele>646.92681884766</ele>
        <time>2009-02-25T14:16:16Z</time>
      </trkpt>
      <trkpt lat="44.95791" lon="4.65723">
        <ele>647.2490234375</ele>
        <time>2009-02-25T14:16:19Z</time>
      </trkpt>
      <trkpt lat="44.95816" lon="4.65724">
        <ele>647.31683349609</ele>
        <time>2009-02-25T14:16:23Z</time>
      </trkpt>
      <trkpt lat="44.95905" lon="4.65749">
        <ele>640.61437988281</ele>
        <time>2009-02-25T14:16:38Z</time>
      </trkpt>
      <trkpt lat="44.95915" lon="4.65747">
        <ele>640.20111083984</ele>
        <time>2009-02-25T14:16:40Z</time>
      </trkpt>
      <trkpt lat="44.95927" lon="4.65734">
        <ele>640.68151855469</ele>
        <time>2009-02-25T14:16:42Z</time>
      </trkpt>
      <trkpt lat="44.95944" lon="4.65657">
        <ele>641.49920654297</ele>
        <time>2009-02-25T14:16:51Z</time>
      </trkpt>
      <trkpt lat="44.9594" lon="4.65627">
        <ele>640.98474121094</ele>
        <time>2009-02-25T14:16:55Z</time>
      </trkpt>
      <trkpt lat="44.95918" lon="4.65568">
        <ele>639.08917236328</ele>
        <time>2009-02-25T14:17:02Z</time>
      </trkpt>
      <trkpt lat="44.95887" lon="4.65507">
        <ele>638.80267333984</ele>
        <time>2009-02-25T14:17:11Z</time>
      </trkpt>
      <trkpt lat="44.95852" lon="4.65381">
        <ele>632.08526611328</ele>
        <time>2009-02-25T14:17:26Z</time>
      </trkpt>
      <trkpt lat="44.95846" lon="4.6537">
        <ele>630.79431152344</ele>
        <time>2009-02-25T14:17:28Z</time>
      </trkpt>
      <trkpt lat="44.95839" lon="4.65364">
        <ele>629.55853271484</ele>
        <time>2009-02-25T14:17:29Z</time>
      </trkpt>
      <trkpt lat="44.95763" lon="4.65352">
        <ele>629.53131103516</ele>
        <time>2009-02-25T14:17:41Z</time>
      </trkpt>
      <trkpt lat="44.95746" lon="4.65337">
        <ele>628.13757324219</ele>
        <time>2009-02-25T14:17:44Z</time>
      </trkpt>
      <trkpt lat="44.95728" lon="4.65294">
        <ele>633.15411376953</ele>
        <time>2009-02-25T14:17:50Z</time>
      </trkpt>
      <trkpt lat="44.95727" lon="4.65261">
        <ele>635.91717529297</ele>
        <time>2009-02-25T14:17:54Z</time>
      </trkpt>
      <trkpt lat="44.95734" lon="4.65227">
        <ele>636.71496582031</ele>
        <time>2009-02-25T14:17:58Z</time>
      </trkpt>
      <trkpt lat="44.95786" lon="4.65095">
        <ele>631.36755371094</ele>
        <time>2009-02-25T14:18:15Z</time>
      </trkpt>
      <trkpt lat="44.95818" lon="4.6489">
        <ele>626.47814941406</ele>
        <time>2009-02-25T14:18:39Z</time>
      </trkpt>
      <trkpt lat="44.95827" lon="4.6486">
        <ele>627.86645507812</ele>
        <time>2009-02-25T14:18:42Z</time>
      </trkpt>
      <trkpt lat="44.95843" lon="4.64839">
        <ele>629.0732421875</ele>
        <time>2009-02-25T14:18:46Z</time>
      </trkpt>
      <trkpt lat="44.95858" lon="4.64836">
        <ele>629.27978515625</ele>
        <time>2009-02-25T14:18:48Z</time>
      </trkpt>
      <trkpt lat="44.95888" lon="4.64845">
        <ele>627.06774902344</ele>
        <time>2009-02-25T14:18:53Z</time>
      </trkpt>
      <trkpt lat="44.95939" lon="4.64892">
        <ele>616.82720947266</ele>
        <time>2009-02-25T14:19:03Z</time>
      </trkpt>
      <trkpt lat="44.95977" lon="4.6495">
        <ele>612.24914550781</ele>
        <time>2009-02-25T14:19:12Z</time>
      </trkpt>
      <trkpt lat="44.96006" lon="4.64983">
        <ele>609.61859130859</ele>
        <time>2009-02-25T14:19:18Z</time>
      </trkpt>
      <trkpt lat="44.96019" lon="4.6499">
        <ele>608.93304443359</ele>
        <time>2009-02-25T14:19:20Z</time>
      </trkpt>
      <trkpt lat="44.96061" lon="4.64997">
        <ele>608.26116943359</ele>
        <time>2009-02-25T14:19:27Z</time>
      </trkpt>
      <trkpt lat="44.96101" lon="4.64984">
        <ele>608.38323974609</ele>
        <time>2009-02-25T14:19:33Z</time>
      </trkpt>
      <trkpt lat="44.96135" lon="4.64949">
        <ele>607.39361572266</ele>
        <time>2009-02-25T14:19:40Z</time>
      </trkpt>
      <trkpt lat="44.96145" lon="4.64921">
        <ele>606.82080078125</ele>
        <time>2009-02-25T14:19:44Z</time>
      </trkpt>
      <trkpt lat="44.96147" lon="4.64872">
        <ele>606.29028320312</ele>
        <time>2009-02-25T14:19:49Z</time>
      </trkpt>
      <trkpt lat="44.96144" lon="4.64852">
        <ele>606.62249755859</ele>
        <time>2009-02-25T14:19:52Z</time>
      </trkpt>
      <trkpt lat="44.96118" lon="4.648">
        <ele>609.93316650391</ele>
        <time>2009-02-25T14:19:59Z</time>
      </trkpt>
      <trkpt lat="44.96117" lon="4.6478">
        <ele>609.72357177734</ele>
        <time>2009-02-25T14:20:01Z</time>
      </trkpt>
      <trkpt lat="44.96126" lon="4.64709">
        <ele>609.72961425781</ele>
        <time>2009-02-25T14:20:09Z</time>
      </trkpt>
      <trkpt lat="44.96156" lon="4.64627">
        <ele>609.84167480469</ele>
        <time>2009-02-25T14:20:20Z</time>
      </trkpt>
      <trkpt lat="44.96174" lon="4.64591">
        <ele>611.40350341797</ele>
        <time>2009-02-25T14:20:25Z</time>
      </trkpt>
      <trkpt lat="44.96203" lon="4.64563">
        <ele>608.32751464844</ele>
        <time>2009-02-25T14:20:30Z</time>
      </trkpt>
      <trkpt lat="44.9629" lon="4.64523">
        <ele>599.11956787109</ele>
        <time>2009-02-25T14:20:45Z</time>
      </trkpt>
      <trkpt lat="44.96321" lon="4.645">
        <ele>598.02716064453</ele>
        <time>2009-02-25T14:20:51Z</time>
      </trkpt>
      <trkpt lat="44.96351" lon="4.64466">
        <ele>596.19812011719</ele>
        <time>2009-02-25T14:20:57Z</time>
      </trkpt>
      <trkpt lat="44.9636" lon="4.64432">
        <ele>595.84136962891</ele>
        <time>2009-02-25T14:21:01Z</time>
      </trkpt>
      <trkpt lat="44.96352" lon="4.64388">
        <ele>596.16607666016</ele>
        <time>2009-02-25T14:21:06Z</time>
      </trkpt>
      <trkpt lat="44.96343" lon="4.6437">
        <ele>596.58203125</ele>
        <time>2009-02-25T14:21:08Z</time>
      </trkpt>
      <trkpt lat="44.96311" lon="4.64338">
        <ele>596.81604003906</ele>
        <time>2009-02-25T14:21:15Z</time>
      </trkpt>
      <trkpt lat="44.96185" lon="4.64284">
        <ele>598.96875</ele>
        <time>2009-02-25T14:21:36Z</time>
      </trkpt>
      <trkpt lat="44.96152" lon="4.64254">
        <ele>597.11712646484</ele>
        <time>2009-02-25T14:21:42Z</time>
      </trkpt>
      <trkpt lat="44.96142" lon="4.6424">
        <ele>596.52825927734</ele>
        <time>2009-02-25T14:21:44Z</time>
      </trkpt>
      <trkpt lat="44.96134" lon="4.64218">
        <ele>594.10559082031</ele>
        <time>2009-02-25T14:21:47Z</time>
      </trkpt>
      <trkpt lat="44.96109" lon="4.64134">
        <ele>586.02191162109</ele>
        <time>2009-02-25T14:21:58Z</time>
      </trkpt>
      <trkpt lat="44.96087" lon="4.64111">
        <ele>586.48663330078</ele>
        <time>2009-02-25T14:22:02Z</time>
      </trkpt>
      <trkpt lat="44.96052" lon="4.64096">
        <ele>589.42852783203</ele>
        <time>2009-02-25T14:22:08Z</time>
      </trkpt>
      <trkpt lat="44.96044" lon="4.64089">
        <ele>589.52294921875</ele>
        <time>2009-02-25T14:22:09Z</time>
      </trkpt>
      <trkpt lat="44.96041" lon="4.64078">
        <ele>589.52795410156</ele>
        <time>2009-02-25T14:22:11Z</time>
      </trkpt>
      <trkpt lat="44.96045" lon="4.64057">
        <ele>590.76654052734</ele>
        <time>2009-02-25T14:22:13Z</time>
      </trkpt>
      <trkpt lat="44.96055" lon="4.64045">
        <ele>590.46844482422</ele>
        <time>2009-02-25T14:22:15Z</time>
      </trkpt>
      <trkpt lat="44.96105" lon="4.64032">
        <ele>584.81579589844</ele>
        <time>2009-02-25T14:22:23Z</time>
      </trkpt>
      <trkpt lat="44.96123" lon="4.64013">
        <ele>583.439453125</ele>
        <time>2009-02-25T14:22:27Z</time>
      </trkpt>
      <trkpt lat="44.96172" lon="4.6395">
        <ele>579.23461914062</ele>
        <time>2009-02-25T14:22:37Z</time>
      </trkpt>
      <trkpt lat="44.96202" lon="4.63891">
        <ele>576.24987792969</ele>
        <time>2009-02-25T14:22:46Z</time>
      </trkpt>
      <trkpt lat="44.96207" lon="4.63862">
        <ele>574.67059326172</ele>
        <time>2009-02-25T14:22:49Z</time>
      </trkpt>
      <trkpt lat="44.96216" lon="4.63713">
        <ele>575.53924560547</ele>
        <time>2009-02-25T14:23:06Z</time>
      </trkpt>
      <trkpt lat="44.96257" lon="4.63559">
        <ele>571.18395996094</ele>
        <time>2009-02-25T14:23:25Z</time>
      </trkpt>
      <trkpt lat="44.96253" lon="4.63539">
        <ele>569.55688476562</ele>
        <time>2009-02-25T14:23:27Z</time>
      </trkpt>
      <trkpt lat="44.96239" lon="4.63504">
        <ele>568.58276367188</ele>
        <time>2009-02-25T14:23:32Z</time>
      </trkpt>
      <trkpt lat="44.9624" lon="4.63432">
        <ele>564.28686523438</ele>
        <time>2009-02-25T14:23:40Z</time>
      </trkpt>
      <trkpt lat="44.96222" lon="4.63358">
        <ele>570.79040527344</ele>
        <time>2009-02-25T14:23:49Z</time>
      </trkpt>
      <trkpt lat="44.96245" lon="4.63311">
        <ele>569.55609130859</ele>
        <time>2009-02-25T14:23:55Z</time>
      </trkpt>
      <trkpt lat="44.96283" lon="4.63231">
        <ele>567.94750976562</ele>
        <time>2009-02-25T14:24:06Z</time>
      </trkpt>
      <trkpt lat="44.96281" lon="4.63257">
        <ele>566.46295166016</ele>
        <time>2009-02-25T14:24:09Z</time>
      </trkpt>
      <trkpt lat="44.96263" lon="4.63321">
        <ele>563.35015869141</ele>
        <time>2009-02-25T14:24:17Z</time>
      </trkpt>
      <trkpt lat="44.96279" lon="4.63336">
        <ele>557.62847900391</ele>
        <time>2009-02-25T14:24:20Z</time>
      </trkpt>
      <trkpt lat="44.9637" lon="4.6338">
        <ele>550.17333984375</ele>
        <time>2009-02-25T14:24:35Z</time>
      </trkpt>
      <trkpt lat="44.96403" lon="4.63424">
        <ele>557.00457763672</ele>
        <time>2009-02-25T14:24:43Z</time>
      </trkpt>
      <trkpt lat="44.96458" lon="4.63456">
        <ele>564.28991699219</ele>
        <time>2009-02-25T14:24:52Z</time>
      </trkpt>
      <trkpt lat="44.96481" lon="4.63491">
        <ele>564.19274902344</ele>
        <time>2009-02-25T14:24:57Z</time>
      </trkpt>
      <trkpt lat="44.96548" lon="4.63553">
        <ele>571.04400634766</ele>
        <time>2009-02-25T14:25:10Z</time>
      </trkpt>
      <trkpt lat="44.96577" lon="4.63609">
        <ele>570.42663574219</ele>
        <time>2009-02-25T14:25:18Z</time>
      </trkpt>
      <trkpt lat="44.96593" lon="4.6363">
        <ele>571.04534912109</ele>
        <time>2009-02-25T14:25:22Z</time>
      </trkpt>
      <trkpt lat="44.96645" lon="4.63653">
        <ele>578.66156005859</ele>
        <time>2009-02-25T14:25:30Z</time>
      </trkpt>
      <trkpt lat="44.96648" lon="4.6367">
        <ele>577.84185791016</ele>
        <time>2009-02-25T14:25:32Z</time>
      </trkpt>
      <trkpt lat="44.96643" lon="4.63707">
        <ele>576.88952636719</ele>
        <time>2009-02-25T14:25:37Z</time>
      </trkpt>
      <trkpt lat="44.96668" lon="4.63808">
        <ele>578.60070800781</ele>
        <time>2009-02-25T14:25:49Z</time>
      </trkpt>
      <trkpt lat="44.9668" lon="4.63846">
        <ele>581.05383300781</ele>
        <time>2009-02-25T14:25:53Z</time>
      </trkpt>
      <trkpt lat="44.96726" lon="4.6395">
        <ele>585.60815429688</ele>
        <time>2009-02-25T14:26:07Z</time>
      </trkpt>
      <trkpt lat="44.96753" lon="4.63968">
        <ele>585.30346679688</ele>
        <time>2009-02-25T14:26:12Z</time>
      </trkpt>
      <trkpt lat="44.96791" lon="4.63972">
        <ele>590.77239990234</ele>
        <time>2009-02-25T14:26:18Z</time>
      </trkpt>
      <trkpt lat="44.96821" lon="4.63983">
        <ele>593.75817871094</ele>
        <time>2009-02-25T14:26:23Z</time>
      </trkpt>
      <trkpt lat="44.96844" lon="4.64004">
        <ele>594.70501708984</ele>
        <time>2009-02-25T14:26:28Z</time>
      </trkpt>
      <trkpt lat="44.96928" lon="4.64049">
        <ele>605.36334228516</ele>
        <time>2009-02-25T14:26:42Z</time>
      </trkpt>
      <trkpt lat="44.9696" lon="4.64075">
        <ele>607.78369140625</ele>
        <time>2009-02-25T14:26:48Z</time>
      </trkpt>
      <trkpt lat="44.96961" lon="4.64087">
        <ele>607.75854492188</ele>
        <time>2009-02-25T14:26:49Z</time>
      </trkpt>
      <trkpt lat="44.96952" lon="4.64094">
        <ele>608.01342773438</ele>
        <time>2009-02-25T14:26:51Z</time>
      </trkpt>
      <trkpt lat="44.96893" lon="4.64099">
        <ele>603.92034912109</ele>
        <time>2009-02-25T14:27:00Z</time>
      </trkpt>
      <trkpt lat="44.96828" lon="4.64097">
        <ele>597.82727050781</ele>
        <time>2009-02-25T14:27:11Z</time>
      </trkpt>
      <trkpt lat="44.96814" lon="4.64105">
        <ele>596.89349365234</ele>
        <time>2009-02-25T14:27:13Z</time>
      </trkpt>
      <trkpt lat="44.96811" lon="4.6412">
        <ele>598.03350830078</ele>
        <time>2009-02-25T14:27:15Z</time>
      </trkpt>
      <trkpt lat="44.96829" lon="4.64155">
        <ele>604.10906982422</ele>
        <time>2009-02-25T14:27:20Z</time>
      </trkpt>
      <trkpt lat="44.96857" lon="4.64263">
        <ele>611.90966796875</ele>
        <time>2009-02-25T14:27:33Z</time>
      </trkpt>
      <trkpt lat="44.9689" lon="4.64325">
        <ele>618.21362304688</ele>
        <time>2009-02-25T14:27:42Z</time>
      </trkpt>
      <trkpt lat="44.96894" lon="4.64374">
        <ele>620.65393066406</ele>
        <time>2009-02-25T14:27:47Z</time>
      </trkpt>
      <trkpt lat="44.96934" lon="4.64479">
        <ele>625.53747558594</ele>
        <time>2009-02-25T14:28:01Z</time>
      </trkpt>
      <trkpt lat="44.9694" lon="4.64642">
        <ele>631.765625</ele>
        <time>2009-02-25T14:28:19Z</time>
      </trkpt>
      <trkpt lat="44.96964" lon="4.64738">
        <ele>633.68664550781</ele>
        <time>2009-02-25T14:28:31Z</time>
      </trkpt>
      <trkpt lat="44.96977" lon="4.64773">
        <ele>635.46923828125</ele>
        <time>2009-02-25T14:28:35Z</time>
      </trkpt>
      <trkpt lat="44.97038" lon="4.64857">
        <ele>635.44946289062</ele>
        <time>2009-02-25T14:28:49Z</time>
      </trkpt>
      <trkpt lat="44.97047" lon="4.64876">
        <ele>634.80480957031</ele>
        <time>2009-02-25T14:28:51Z</time>
      </trkpt>
      <trkpt lat="44.9705" lon="4.64911">
        <ele>634.72705078125</ele>
        <time>2009-02-25T14:28:55Z</time>
      </trkpt>
      <trkpt lat="44.97057" lon="4.64933">
        <ele>633.71020507812</ele>
        <time>2009-02-25T14:28:58Z</time>
      </trkpt>
      <trkpt lat="44.9716" lon="4.65123">
        <ele>620.06164550781</ele>
        <time>2009-02-25T14:29:25Z</time>
      </trkpt>
      <trkpt lat="44.97162" lon="4.65144">
        <ele>619.88421630859</ele>
        <time>2009-02-25T14:29:28Z</time>
      </trkpt>
      <trkpt lat="44.97158" lon="4.65167">
        <ele>619.43530273438</ele>
        <time>2009-02-25T14:29:30Z</time>
      </trkpt>
      <trkpt lat="44.97133" lon="4.65171">
        <ele>617.34790039062</ele>
        <time>2009-02-25T14:29:34Z</time>
      </trkpt>
      <trkpt lat="44.97108" lon="4.65156">
        <ele>617.47619628906</ele>
        <time>2009-02-25T14:29:39Z</time>
      </trkpt>
      <trkpt lat="44.97057" lon="4.65102">
        <ele>626.91271972656</ele>
        <time>2009-02-25T14:29:49Z</time>
      </trkpt>
      <trkpt lat="44.97033" lon="4.65089">
        <ele>631.42535400391</ele>
        <time>2009-02-25T14:29:53Z</time>
      </trkpt>
      <trkpt lat="44.97023" lon="4.65099">
        <ele>631.57891845703</ele>
        <time>2009-02-25T14:29:55Z</time>
      </trkpt>
      <trkpt lat="44.97019" lon="4.65177">
        <ele>624.44036865234</ele>
        <time>2009-02-25T14:30:04Z</time>
      </trkpt>
      <trkpt lat="44.97002" lon="4.65221">
        <ele>625.58361816406</ele>
        <time>2009-02-25T14:30:10Z</time>
      </trkpt>
      <trkpt lat="44.97001" lon="4.65232">
        <ele>625.43536376953</ele>
        <time>2009-02-25T14:30:11Z</time>
      </trkpt>
      <trkpt lat="44.97003" lon="4.65245">
        <ele>624.36236572266</ele>
        <time>2009-02-25T14:30:12Z</time>
      </trkpt>
      <trkpt lat="44.97025" lon="4.653">
        <ele>616.92510986328</ele>
        <time>2009-02-25T14:30:20Z</time>
      </trkpt>
      <trkpt lat="44.97024" lon="4.65316">
        <ele>616.68304443359</ele>
        <time>2009-02-25T14:30:21Z</time>
      </trkpt>
      <trkpt lat="44.97014" lon="4.65351">
        <ele>620.642578125</ele>
        <time>2009-02-25T14:30:26Z</time>
      </trkpt>
      <trkpt lat="44.97015" lon="4.65365">
        <ele>621.14538574219</ele>
        <time>2009-02-25T14:30:27Z</time>
      </trkpt>
      <trkpt lat="44.97053" lon="4.6548">
        <ele>617.21234130859</ele>
        <time>2009-02-25T14:30:42Z</time>
      </trkpt>
      <trkpt lat="44.97073" lon="4.65506">
        <ele>613.42730712891</ele>
        <time>2009-02-25T14:30:46Z</time>
      </trkpt>
      <trkpt lat="44.97082" lon="4.65526">
        <ele>611.57659912109</ele>
        <time>2009-02-25T14:30:49Z</time>
      </trkpt>
      <trkpt lat="44.97124" lon="4.65671">
        <ele>604.57897949219</ele>
        <time>2009-02-25T14:31:06Z</time>
      </trkpt>
      <trkpt lat="44.97124" lon="4.6568">
        <ele>603.44360351562</ele>
        <time>2009-02-25T14:31:07Z</time>
      </trkpt>
      <trkpt lat="44.97123" lon="4.6569">
        <ele>602.32098388672</ele>
        <time>2009-02-25T14:31:09Z</time>
      </trkpt>
      <trkpt lat="44.97106" lon="4.65716">
        <ele>600.82934570312</ele>
        <time>2009-02-25T14:31:13Z</time>
      </trkpt>
      <trkpt lat="44.9709" lon="4.6572">
        <ele>601.96240234375</ele>
        <time>2009-02-25T14:31:15Z</time>
      </trkpt>
      <trkpt lat="44.96994" lon="4.65719">
        <ele>611.51275634766</ele>
        <time>2009-02-25T14:31:31Z</time>
      </trkpt>
      <trkpt lat="44.96988" lon="4.65728">
        <ele>610.90472412109</ele>
        <time>2009-02-25T14:31:32Z</time>
      </trkpt>
      <trkpt lat="44.96985" lon="4.65751">
        <ele>608.29302978516</ele>
        <time>2009-02-25T14:31:35Z</time>
      </trkpt>
      <trkpt lat="44.96988" lon="4.65759">
        <ele>608.78790283203</ele>
        <time>2009-02-25T14:31:36Z</time>
      </trkpt>
      <trkpt lat="44.9703" lon="4.65804">
        <ele>607.52130126953</ele>
        <time>2009-02-25T14:31:44Z</time>
      </trkpt>
      <trkpt lat="44.97052" lon="4.65846">
        <ele>608.51043701172</ele>
        <time>2009-02-25T14:31:50Z</time>
      </trkpt>
      <trkpt lat="44.97069" lon="4.65856">
        <ele>607.68365478516</ele>
        <time>2009-02-25T14:31:53Z</time>
      </trkpt>
      <trkpt lat="44.97153" lon="4.65871">
        <ele>598.68127441406</ele>
        <time>2009-02-25T14:32:06Z</time>
      </trkpt>
      <trkpt lat="44.97173" lon="4.65891">
        <ele>599.55206298828</ele>
        <time>2009-02-25T14:32:10Z</time>
      </trkpt>
      <trkpt lat="44.97201" lon="4.65938">
        <ele>602.67962646484</ele>
        <time>2009-02-25T14:32:17Z</time>
      </trkpt>
      <trkpt lat="44.97211" lon="4.65948">
        <ele>602.13208007812</ele>
        <time>2009-02-25T14:32:19Z</time>
      </trkpt>
      <trkpt lat="44.97251" lon="4.65966">
        <ele>595.23419189453</ele>
        <time>2009-02-25T14:32:26Z</time>
      </trkpt>
      <trkpt lat="44.97267" lon="4.65983">
        <ele>593.39727783203</ele>
        <time>2009-02-25T14:32:29Z</time>
      </trkpt>
      <trkpt lat="44.97286" lon="4.66025">
        <ele>592.98126220703</ele>
        <time>2009-02-25T14:32:35Z</time>
      </trkpt>
      <trkpt lat="44.97294" lon="4.66091">
        <ele>597.33050537109</ele>
        <time>2009-02-25T14:32:42Z</time>
      </trkpt>
      <trkpt lat="44.97302" lon="4.66104">
        <ele>596.57385253906</ele>
        <time>2009-02-25T14:32:44Z</time>
      </trkpt>
      <trkpt lat="44.9733" lon="4.66125">
        <ele>590.49267578125</ele>
        <time>2009-02-25T14:32:49Z</time>
      </trkpt>
      <trkpt lat="44.97337" lon="4.66135">
        <ele>589.7568359375</ele>
        <time>2009-02-25T14:32:51Z</time>
      </trkpt>
      <trkpt lat="44.97356" lon="4.66209">
        <ele>594.04486083984</ele>
        <time>2009-02-25T14:33:00Z</time>
      </trkpt>
      <trkpt lat="44.97405" lon="4.66246">
        <ele>588.80242919922</ele>
        <time>2009-02-25T14:33:09Z</time>
      </trkpt>
      <trkpt lat="44.97479" lon="4.66284">
        <ele>580.974609375</ele>
        <time>2009-02-25T14:33:22Z</time>
      </trkpt>
      <trkpt lat="44.97522" lon="4.66319">
        <ele>579.17102050781</ele>
        <time>2009-02-25T14:33:29Z</time>
      </trkpt>
      <trkpt lat="44.97545" lon="4.66349">
        <ele>578.85015869141</ele>
        <time>2009-02-25T14:33:34Z</time>
      </trkpt>
      <trkpt lat="44.97573" lon="4.66413">
        <ele>578.81109619141</ele>
        <time>2009-02-25T14:33:43Z</time>
      </trkpt>
      <trkpt lat="44.97573" lon="4.66439">
        <ele>577.81512451172</ele>
        <time>2009-02-25T14:33:46Z</time>
      </trkpt>
      <trkpt lat="44.97563" lon="4.66454">
        <ele>579.0908203125</ele>
        <time>2009-02-25T14:33:48Z</time>
      </trkpt>
      <trkpt lat="44.97547" lon="4.66496">
        <ele>580.44866943359</ele>
        <time>2009-02-25T14:33:54Z</time>
      </trkpt>
      <trkpt lat="44.97522" lon="4.66579">
        <ele>577.70733642578</ele>
        <time>2009-02-25T14:34:04Z</time>
      </trkpt>
      <trkpt lat="44.97541" lon="4.66643">
        <ele>572.03338623047</ele>
        <time>2009-02-25T14:34:12Z</time>
      </trkpt>
      <trkpt lat="44.97544" lon="4.66668">
        <ele>571.00335693359</ele>
        <time>2009-02-25T14:34:15Z</time>
      </trkpt>
      <trkpt lat="44.97542" lon="4.66688">
        <ele>569.501953125</ele>
        <time>2009-02-25T14:34:17Z</time>
      </trkpt>
      <trkpt lat="44.97536" lon="4.66709">
        <ele>568.45892333984</ele>
        <time>2009-02-25T14:34:19Z</time>
      </trkpt>
      <trkpt lat="44.97517" lon="4.66726">
        <ele>569.37225341797</ele>
        <time>2009-02-25T14:34:23Z</time>
      </trkpt>
      <trkpt lat="44.97494" lon="4.6674">
        <ele>571.10479736328</ele>
        <time>2009-02-25T14:34:27Z</time>
      </trkpt>
      <trkpt lat="44.97446" lon="4.66758">
        <ele>579.02038574219</ele>
        <time>2009-02-25T14:34:35Z</time>
      </trkpt>
      <trkpt lat="44.97441" lon="4.66766">
        <ele>580.28131103516</ele>
        <time>2009-02-25T14:34:36Z</time>
      </trkpt>
      <trkpt lat="44.97445" lon="4.66797">
        <ele>580.77990722656</ele>
        <time>2009-02-25T14:34:40Z</time>
      </trkpt>
      <trkpt lat="44.97457" lon="4.66824">
        <ele>579.00262451172</ele>
        <time>2009-02-25T14:34:43Z</time>
      </trkpt>
      <trkpt lat="44.97472" lon="4.6684">
        <ele>576.62554931641</ele>
        <time>2009-02-25T14:34:46Z</time>
      </trkpt>
      <trkpt lat="44.97519" lon="4.6687">
        <ele>569.05676269531</ele>
        <time>2009-02-25T14:34:55Z</time>
      </trkpt>
      <trkpt lat="44.97534" lon="4.66888">
        <ele>567.40625</ele>
        <time>2009-02-25T14:34:58Z</time>
      </trkpt>
      <trkpt lat="44.97549" lon="4.66917">
        <ele>566.26080322266</ele>
        <time>2009-02-25T14:35:02Z</time>
      </trkpt>
      <trkpt lat="44.97576" lon="4.67023">
        <ele>568.63256835938</ele>
        <time>2009-02-25T14:35:15Z</time>
      </trkpt>
      <trkpt lat="44.9759" lon="4.67058">
        <ele>567.91882324219</ele>
        <time>2009-02-25T14:35:19Z</time>
      </trkpt>
      <trkpt lat="44.97638" lon="4.67139">
        <ele>561.11901855469</ele>
        <time>2009-02-25T14:35:31Z</time>
      </trkpt>
      <trkpt lat="44.97662" lon="4.67207">
        <ele>558.38610839844</ele>
        <time>2009-02-25T14:35:40Z</time>
      </trkpt>
      <trkpt lat="44.9768" lon="4.67276">
        <ele>558.2431640625</ele>
        <time>2009-02-25T14:35:48Z</time>
      </trkpt>
      <trkpt lat="44.9768" lon="4.67367">
        <ele>567.30120849609</ele>
        <time>2009-02-25T14:35:58Z</time>
      </trkpt>
      <trkpt lat="44.97687" lon="4.67374">
        <ele>567.48516845703</ele>
        <time>2009-02-25T14:36:00Z</time>
      </trkpt>
      <trkpt lat="44.97747" lon="4.67386">
        <ele>560.22033691406</ele>
        <time>2009-02-25T14:36:10Z</time>
      </trkpt>
      <trkpt lat="44.97802" lon="4.67414">
        <ele>554.32958984375</ele>
        <time>2009-02-25T14:36:19Z</time>
      </trkpt>
      <trkpt lat="44.97849" lon="4.67466">
        <ele>554.75408935547</ele>
        <time>2009-02-25T14:36:28Z</time>
      </trkpt>
      <trkpt lat="44.97919" lon="4.67564">
        <ele>548.98553466797</ele>
        <time>2009-02-25T14:36:44Z</time>
      </trkpt>
      <trkpt lat="44.98146" lon="4.6776">
        <ele>536.52813720703</ele>
        <time>2009-02-25T14:37:27Z</time>
      </trkpt>
      <trkpt lat="44.98178" lon="4.6804">
        <ele>526.41003417969</ele>
        <time>2009-02-25T14:37:59Z</time>
      </trkpt>
      <trkpt lat="44.98063" lon="4.68163">
        <ele>532.42645263672</ele>
        <time>2009-02-25T14:38:22Z</time>
      </trkpt>
      <trkpt lat="44.98051" lon="4.68234">
        <ele>527.56365966797</ele>
        <time>2009-02-25T14:38:30Z</time>
      </trkpt>
      <trkpt lat="44.979" lon="4.68336">
        <ele>532.23229980469</ele>
        <time>2009-02-25T14:38:57Z</time>
      </trkpt>
      <trkpt lat="44.97911" lon="4.68387">
        <ele>543.552734375</ele>
        <time>2009-02-25T14:39:03Z</time>
      </trkpt>
      <trkpt lat="44.9808" lon="4.68341">
        <ele>532.05865478516</ele>
        <time>2009-02-25T14:39:31Z</time>
      </trkpt>
      <trkpt lat="44.98279" lon="4.68193">
        <ele>508.68255615234</ele>
        <time>2009-02-25T14:40:07Z</time>
      </trkpt>
      <trkpt lat="44.98376" lon="4.68244">
        <ele>513.9384765625</ele>
        <time>2009-02-25T14:40:23Z</time>
      </trkpt>
      <trkpt lat="44.98456" lon="4.68198">
        <ele>497.27014160156</ele>
        <time>2009-02-25T14:40:37Z</time>
      </trkpt>
      <trkpt lat="44.98611" lon="4.6829">
        <ele>494.39501953125</ele>
        <time>2009-02-25T14:41:04Z</time>
      </trkpt>
      <trkpt lat="44.98651" lon="4.68459">
        <ele>489.57135009766</ele>
        <time>2009-02-25T14:41:24Z</time>
      </trkpt>
      <trkpt lat="44.98597" lon="4.68622">
        <ele>489.74212646484</ele>
        <time>2009-02-25T14:41:45Z</time>
      </trkpt>
      <trkpt lat="44.98579" lon="4.68693">
        <ele>492.75787353516</ele>
        <time>2009-02-25T14:41:53Z</time>
      </trkpt>
      <trkpt lat="44.98655" lon="4.68693">
        <ele>485.89715576172</ele>
        <time>2009-02-25T14:42:05Z</time>
      </trkpt>
      <trkpt lat="44.98719" lon="4.6875">
        <ele>479.42889404297</ele>
        <time>2009-02-25T14:42:17Z</time>
      </trkpt>
      <trkpt lat="44.98756" lon="4.68678">
        <ele>468.50601196289</ele>
        <time>2009-02-25T14:42:27Z</time>
      </trkpt>
      <trkpt lat="44.98705" lon="4.68617">
        <ele>475.46087646484</ele>
        <time>2009-02-25T14:42:38Z</time>
      </trkpt>
      <trkpt lat="44.98849" lon="4.68556">
        <ele>455.18902587891</ele>
        <time>2009-02-25T14:43:02Z</time>
      </trkpt>
      <trkpt lat="44.98864" lon="4.68448">
        <ele>453.46072387695</ele>
        <time>2009-02-25T14:43:15Z</time>
      </trkpt>
      <trkpt lat="44.98951" lon="4.68413">
        <ele>460.99963378906</ele>
        <time>2009-02-25T14:43:29Z</time>
      </trkpt>
      <trkpt lat="44.9915" lon="4.68714">
        <ele>447.00790405273</ele>
        <time>2009-02-25T14:44:16Z</time>
      </trkpt>
      <trkpt lat="44.99204" lon="4.68596">
        <ele>468.84033203125</ele>
        <time>2009-02-25T14:44:32Z</time>
      </trkpt>
      <trkpt lat="44.99215" lon="4.6875">
        <ele>454.03594970703</ele>
        <time>2009-02-25T14:44:49Z</time>
      </trkpt>
      <trkpt lat="44.99431" lon="4.69035">
        <ele>456.41787719727</ele>
        <time>2009-02-25T14:45:36Z</time>
      </trkpt>
      <trkpt lat="44.995" lon="4.69015">
        <ele>472.49703979492</ele>
        <time>2009-02-25T14:45:48Z</time>
      </trkpt>
      <trkpt lat="44.99503" lon="4.69097">
        <ele>458.8908996582</ele>
        <time>2009-02-25T14:45:57Z</time>
      </trkpt>
      <trkpt lat="44.99576" lon="4.69071">
        <ele>472.72186279297</ele>
        <time>2009-02-25T14:46:09Z</time>
      </trkpt>
      <trkpt lat="44.99597" lon="4.69306">
        <ele>454.68209838867</ele>
        <time>2009-02-25T14:46:36Z</time>
      </trkpt>
      <trkpt lat="44.99717" lon="4.69423">
        <ele>459.97894287109</ele>
        <time>2009-02-25T14:46:59Z</time>
      </trkpt>
      <trkpt lat="44.99778" lon="4.69219">
        <ele>475.83676147461</ele>
        <time>2009-02-25T14:47:24Z</time>
      </trkpt>
      <trkpt lat="44.9976" lon="4.69142">
        <ele>479.86340332031</ele>
        <time>2009-02-25T14:47:33Z</time>
      </trkpt>
      <trkpt lat="44.99886" lon="4.6902">
        <ele>490.42926025391</ele>
        <time>2009-02-25T14:47:58Z</time>
      </trkpt>
      <trkpt lat="44.99872" lon="4.69158">
        <ele>478.67538452148</ele>
        <time>2009-02-25T14:48:14Z</time>
      </trkpt>
      <trkpt lat="45.00053" lon="4.69362">
        <ele>483.69262695312</ele>
        <time>2009-02-25T14:48:51Z</time>
      </trkpt>
      <trkpt lat="45.00103" lon="4.69347">
        <ele>489.80935668945</ele>
        <time>2009-02-25T14:48:59Z</time>
      </trkpt>
      <trkpt lat="45.0019" lon="4.69489">
        <ele>489.07815551758</ele>
        <time>2009-02-25T14:49:20Z</time>
      </trkpt>
      <trkpt lat="45.00219" lon="4.69607">
        <ele>488.26168823242</ele>
        <time>2009-02-25T14:49:34Z</time>
      </trkpt>
      <trkpt lat="45.00303" lon="4.69637">
        <ele>495.59649658203</ele>
        <time>2009-02-25T14:49:48Z</time>
      </trkpt>
      <trkpt lat="45.00309" lon="4.69739">
        <ele>491.38619995117</ele>
        <time>2009-02-25T14:50:00Z</time>
      </trkpt>
      <trkpt lat="45.00504" lon="4.69765">
        <ele>499.85864257812</ele>
        <time>2009-02-25T14:50:31Z</time>
      </trkpt>
      <trkpt lat="45.00771" lon="4.6975">
        <ele>503.02239990234</ele>
        <time>2009-02-25T14:51:14Z</time>
      </trkpt>
      <trkpt lat="45.00916" lon="4.69954">
        <ele>506.04397583008</ele>
        <time>2009-02-25T14:51:47Z</time>
      </trkpt>
      <trkpt lat="45.01035" lon="4.70112">
        <ele>510.7138671875</ele>
        <time>2009-02-25T14:52:13Z</time>
      </trkpt>
      <trkpt lat="45.01136" lon="4.7026">
        <ele>513.48315429688</ele>
        <time>2009-02-25T14:52:36Z</time>
      </trkpt>
      <trkpt lat="45.0149" lon="4.70117">
        <ele>506.67523193359</ele>
        <time>2009-02-25T14:53:35Z</time>
      </trkpt>
      <trkpt lat="45.01713" lon="4.70357">
        <ele>495.50735473633</ele>
        <time>2009-02-25T14:54:20Z</time>
      </trkpt>
      <trkpt lat="45.01772" lon="4.70652">
        <ele>483.8186340332</ele>
        <time>2009-02-25T14:54:55Z</time>
      </trkpt>
      <trkpt lat="45.01947" lon="4.70857">
        <ele>495.9065246582</ele>
        <time>2009-02-25T14:55:31Z</time>
      </trkpt>
      <trkpt lat="45.01973" lon="4.7102">
        <ele>488.21499633789</ele>
        <time>2009-02-25T14:55:50Z</time>
      </trkpt>
      <trkpt lat="45.02316" lon="4.71378">
        <ele>496.50347900391</ele>
        <time>2009-02-25T14:56:58Z</time>
      </trkpt>
      <trkpt lat="45.02492" lon="4.71628">
        <ele>500.80737304688</ele>
        <time>2009-02-25T14:57:38Z</time>
      </trkpt>
      <trkpt lat="45.02516" lon="4.71769">
        <ele>499.0029296875</ele>
        <time>2009-02-25T14:57:55Z</time>
      </trkpt>
      <trkpt lat="45.02748" lon="4.71995">
        <ele>510.00637817383</ele>
        <time>2009-02-25T14:58:40Z</time>
      </trkpt>
      <trkpt lat="45.03112" lon="4.71873">
        <ele>506.57467651367</ele>
        <time>2009-02-25T14:59:40Z</time>
      </trkpt>
      <trkpt lat="45.03145" lon="4.71745">
        <ele>510.3659362793</ele>
        <time>2009-02-25T14:59:55Z</time>
      </trkpt>
      <trkpt lat="45.03787" lon="4.72031">
        <ele>494.55261230469</ele>
        <time>2009-02-25T15:01:43Z</time>
      </trkpt>
      <trkpt lat="45.04004" lon="4.72291">
        <ele>498.6487121582</ele>
        <time>2009-02-25T15:02:28Z</time>
      </trkpt>
      <trkpt lat="45.04227" lon="4.72419">
        <ele>503.80026245117</ele>
        <time>2009-02-25T15:03:07Z</time>
      </trkpt>
      <trkpt lat="45.04574" lon="4.72628">
        <ele>491.50216674805</ele>
        <time>2009-02-25T15:04:07Z</time>
      </trkpt>
      <trkpt lat="45.04779" lon="4.73046">
        <ele>478.01568603516</ele>
        <time>2009-02-25T15:05:05Z</time>
      </trkpt>
      <trkpt lat="45.04823" lon="4.73434">
        <ele>468.83551025391</ele>
        <time>2009-02-25T15:05:49Z</time>
      </trkpt>
      <trkpt lat="45.04985" lon="4.73842">
        <ele>450.26391601562</ele>
        <time>2009-02-25T15:06:42Z</time>
      </trkpt>
      <trkpt lat="45.05057" lon="4.74067">
        <ele>435.69546508789</ele>
        <time>2009-02-25T15:07:10Z</time>
      </trkpt>
      <trkpt lat="45.05248" lon="4.74317">
        <ele>431.19903564453</ele>
        <time>2009-02-25T15:07:52Z</time>
      </trkpt>
      <trkpt lat="45.05551" lon="4.74552">
        <ele>431.02700805664</ele>
        <time>2009-02-25T15:08:47Z</time>
      </trkpt>
      <trkpt lat="45.05623" lon="4.7498">
        <ele>413.34976196289</ele>
        <time>2009-02-25T15:09:37Z</time>
      </trkpt>
      <trkpt lat="45.05771" lon="4.75333">
        <ele>420.0224609375</ele>
        <time>2009-02-25T15:10:23Z</time>
      </trkpt>
      <trkpt lat="45.05731" lon="4.7547">
        <ele>415.92990112305</ele>
        <time>2009-02-25T15:10:40Z</time>
      </trkpt>
      <trkpt lat="45.05865" lon="4.75812">
        <ele>397.20483398438</ele>
        <time>2009-02-25T15:11:24Z</time>
      </trkpt>
      <trkpt lat="45.05821" lon="4.76226">
        <ele>372.93991088867</ele>
        <time>2009-02-25T15:12:12Z</time>
      </trkpt>
      <trkpt lat="45.05721" lon="4.76236">
        <ele>364.16244506836</ele>
        <time>2009-02-25T15:12:28Z</time>
      </trkpt>
      <trkpt lat="45.05666" lon="4.75986">
        <ele>353.24783325195</ele>
        <time>2009-02-25T15:12:57Z</time>
      </trkpt>
      <trkpt lat="45.05533" lon="4.7643">
        <ele>323.12231445312</ele>
        <time>2009-02-25T15:13:52Z</time>
      </trkpt>
      <trkpt lat="45.05454" lon="4.7669">
        <ele>290.66268920898</ele>
        <time>2009-02-25T15:14:24Z</time>
      </trkpt>
      <trkpt lat="45.05346" lon="4.76889">
        <ele>265.82379150391</ele>
        <time>2009-02-25T15:14:52Z</time>
      </trkpt>
      <trkpt lat="45.05425" lon="4.76904">
        <ele>284.09460449219</ele>
        <time>2009-02-25T15:15:05Z</time>
      </trkpt>
      <trkpt lat="45.0549" lon="4.77058">
        <ele>269.73565673828</ele>
        <time>2009-02-25T15:15:25Z</time>
      </trkpt>
      <trkpt lat="45.05476" lon="4.77282">
        <ele>248.92593383789</ele>
        <time>2009-02-25T15:15:51Z</time>
      </trkpt>
      <trkpt lat="45.05306" lon="4.77532">
        <ele>206.93559265137</ele>
        <time>2009-02-25T15:16:30Z</time>
      </trkpt>
      <trkpt lat="45.05381" lon="4.77844">
        <ele>198.46383666992</ele>
        <time>2009-02-25T15:17:07Z</time>
      </trkpt>
      <trkpt lat="45.05406" lon="4.78053">
        <ele>174.20765686035</ele>
        <time>2009-02-25T15:17:31Z</time>
      </trkpt>
      <trkpt lat="45.05684" lon="4.78231">
        <ele>182.05905151367</ele>
        <time>2009-02-25T15:18:20Z</time>
      </trkpt>
      <trkpt lat="45.05622" lon="4.78451">
        <ele>178.03096008301</ele>
        <time>2009-02-25T15:18:47Z</time>
      </trkpt>
      <trkpt lat="45.05871" lon="4.78471">
        <ele>164.77145385742</ele>
        <time>2009-02-25T15:19:27Z</time>
      </trkpt>
      <trkpt lat="45.06076" lon="4.78655">
        <ele>164.87893676758</ele>
        <time>2009-02-25T15:20:06Z</time>
      </trkpt>
      <trkpt lat="45.0634" lon="4.78481">
        <ele>170.49632263184</ele>
        <time>2009-02-25T15:20:52Z</time>
      </trkpt>
      <trkpt lat="45.06426" lon="4.78083">
        <ele>137.12214660644</ele>
        <time>2009-02-25T15:21:39Z</time>
      </trkpt>
      <trkpt lat="45.06638" lon="4.78109">
        <ele>138.91223144531</ele>
        <time>2009-02-25T15:22:13Z</time>
      </trkpt>
      <trkpt lat="45.06638" lon="4.78522">
        <ele>150.43815612793</ele>
        <time>2009-02-25T15:23:00Z</time>
      </trkpt>
      <trkpt lat="45.06465" lon="4.79048">
        <ele>148.20385742188</ele>
        <time>2009-02-25T15:24:06Z</time>
      </trkpt>
      <trkpt lat="45.06548" lon="4.7941">
        <ele>140.96987915039</ele>
        <time>2009-02-25T15:24:49Z</time>
      </trkpt>
      <trkpt lat="45.06693" lon="4.79818">
        <ele>127.54888153076</ele>
        <time>2009-02-25T15:25:40Z</time>
      </trkpt>
      <trkpt lat="45.06681" lon="4.8063">
        <ele>129.40867614746</ele>
        <time>2009-02-25T15:27:12Z</time>
      </trkpt>
      <trkpt lat="45.06733" lon="4.81101">
        <ele>135.72369384766</ele>
        <time>2009-02-25T15:28:06Z</time>
      </trkpt>
      <trkpt lat="45.06865" lon="4.81416">
        <ele>129.57797241211</ele>
        <time>2009-02-25T15:28:48Z</time>
      </trkpt>
      <trkpt lat="45.06983" lon="4.81802">
        <ele>127.42269897461</ele>
        <time>2009-02-25T15:29:35Z</time>
      </trkpt>
      <trkpt lat="45.07042" lon="4.81967">
        <ele>128.42080688477</ele>
        <time>2009-02-25T15:29:56Z</time>
      </trkpt>
      <trkpt lat="45.07253" lon="4.82171">
        <ele>124.92882537842</ele>
        <time>2009-02-25T15:30:37Z</time>
      </trkpt>
      <trkpt lat="45.07103" lon="4.82622">
        <ele>124.28341674805</ele>
        <time>2009-02-25T15:31:33Z</time>
      </trkpt>
      <trkpt lat="45.06992" lon="4.82828">
        <ele>125.88873291016</ele>
        <time>2009-02-25T15:32:03Z</time>
      </trkpt>
      <trkpt lat="45.06889" lon="4.82959">
        <ele>125.47659301758</ele>
        <time>2009-02-25T15:32:25Z</time>
      </trkpt>
      <trkpt lat="45.06875" lon="4.83221">
        <ele>123.89496612549</ele>
        <time>2009-02-25T15:32:55Z</time>
      </trkpt>
      <trkpt lat="45.0659" lon="4.83851">
        <ele>120.00473022461</ele>
        <time>2009-02-25T15:34:19Z</time>
      </trkpt>
      <trkpt lat="45.06542" lon="4.84002">
        <ele>119.47411346435</ele>
        <time>2009-02-25T15:34:38Z</time>
      </trkpt>
      <trkpt lat="45.06891" lon="4.8424">
        <ele>121.04976654053</ele>
        <time>2009-02-25T15:35:40Z</time>
      </trkpt>
      <trkpt lat="45.06754" lon="4.84763">
        <ele>119.18597412109</ele>
        <time>2009-02-25T15:36:43Z</time>
      </trkpt>
      <trkpt lat="45.07027" lon="4.84691">
        <ele>121.09294128418</ele>
        <time>2009-02-25T15:37:28Z</time>
      </trkpt>
      <trkpt lat="45.07073" lon="4.85216">
        <ele>121.35459899902</ele>
        <time>2009-02-25T15:38:27Z</time>
      </trkpt>
      <trkpt lat="45.07075" lon="4.85828">
        <ele>127.92021942139</ele>
        <time>2009-02-25T15:39:37Z</time>
      </trkpt>
      <trkpt lat="45.07061" lon="4.86225">
        <ele>128.69638061523</ele>
        <time>2009-02-25T15:40:22Z</time>
      </trkpt>
      <trkpt lat="45.06992" lon="4.86435">
        <ele>129.00559997559</ele>
        <time>2009-02-25T15:40:48Z</time>
      </trkpt>
      <trkpt lat="45.07023" lon="4.86495">
        <ele>130.21565246582</ele>
        <time>2009-02-25T15:40:56Z</time>
      </trkpt>
      <trkpt lat="45.07014" lon="4.86594">
        <ele>131.23037719727</ele>
        <time>2009-02-25T15:41:07Z</time>
      </trkpt>
      <trkpt lat="45.06969" lon="4.86729">
        <ele>133.10494995117</ele>
        <time>2009-02-25T15:41:24Z</time>
      </trkpt>
      <trkpt lat="45.07019" lon="4.86751">
        <ele>134.31254577637</ele>
        <time>2009-02-25T15:41:33Z</time>
      </trkpt>
      <trkpt lat="45.07023" lon="4.8683">
        <ele>134.00729370117</ele>
        <time>2009-02-25T15:41:42Z</time>
      </trkpt>
      <trkpt lat="45.06998" lon="4.87032">
        <ele>139.75285339356</ele>
        <time>2009-02-25T15:42:05Z</time>
      </trkpt>
      <trkpt lat="45.06845" lon="4.87347">
        <ele>143.60020446777</ele>
        <time>2009-02-25T15:42:48Z</time>
      </trkpt>
      <trkpt lat="45.06823" lon="4.87592">
        <ele>144.04934692383</ele>
        <time>2009-02-25T15:43:16Z</time>
      </trkpt>
      <trkpt lat="45.0664" lon="4.88486">
        <ele>155.24586486816</ele>
        <time>2009-02-25T15:45:01Z</time>
      </trkpt>
      <trkpt lat="45.06605" lon="4.88918">
        <ele>154.74723815918</ele>
        <time>2009-02-25T15:45:50Z</time>
      </trkpt>
      <trkpt lat="45.0656" lon="4.89351">
        <ele>156</ele>
        <time>2009-02-25T15:46:40Z</time>
      </trkpt>
      <trkpt lat="45.06499" lon="4.89607">
        <ele>157.2488861084</ele>
        <time>2009-02-25T15:47:10Z</time>
      </trkpt>
      <trkpt lat="45.06268" lon="4.90111">
        <ele>157.09001159668</ele>
        <time>2009-02-25T15:48:18Z</time>
      </trkpt>
      <trkpt lat="45.06033" lon="4.90708">
        <ele>157.17793273926</ele>
        <time>2009-02-25T15:49:36Z</time>
      </trkpt>
      <trkpt lat="45.0597" lon="4.91185">
        <ele>159.79916381836</ele>
        <time>2009-02-25T15:50:31Z</time>
      </trkpt>
      <trkpt lat="45.05872" lon="4.91434">
        <ele>158.74266052246</ele>
        <time>2009-02-25T15:51:03Z</time>
      </trkpt>
      <trkpt lat="45.05888" lon="4.91454">
        <ele>159.46917724609</ele>
        <time>2009-02-25T15:51:06Z</time>
      </trkpt>
      <trkpt lat="45.05815" lon="4.91658">
        <ele>157.5721282959</ele>
        <time>2009-02-25T15:51:32Z</time>
      </trkpt>
      <trkpt lat="45.0579" lon="4.91825">
        <ele>157.72430419922</ele>
        <time>2009-02-25T15:51:51Z</time>
      </trkpt>
      <trkpt lat="45.05731" lon="4.92031">
        <ele>155.16497802734</ele>
        <time>2009-02-25T15:52:17Z</time>
      </trkpt>
      <trkpt lat="45.05724" lon="4.92106">
        <ele>155.14736938477</ele>
        <time>2009-02-25T15:52:25Z</time>
      </trkpt>
      <trkpt lat="45.05724" lon="4.92333">
        <ele>157.74397277832</ele>
        <time>2009-02-25T15:52:51Z</time>
      </trkpt>
      <trkpt lat="45.05721" lon="4.92378">
        <ele>157.06732177734</ele>
        <time>2009-02-25T15:52:56Z</time>
      </trkpt>
      <trkpt lat="45.05718" lon="4.92405">
        <ele>156.5969543457</ele>
        <time>2009-02-25T15:52:59Z</time>
      </trkpt>
      <trkpt lat="45.05689" lon="4.92496">
        <ele>156.65388488769</ele>
        <time>2009-02-25T15:53:10Z</time>
      </trkpt>
      <trkpt lat="45.05679" lon="4.92496">
        <ele>156.74444580078</ele>
        <time>2009-02-25T15:53:12Z</time>
      </trkpt>
      <trkpt lat="45.05674" lon="4.9251">
        <ele>157.13084411621</ele>
        <time>2009-02-25T15:53:14Z</time>
      </trkpt>
      <trkpt lat="45.05678" lon="4.92521">
        <ele>157.29626464844</ele>
        <time>2009-02-25T15:53:15Z</time>
      </trkpt>
      <trkpt lat="45.05684" lon="4.92524">
        <ele>157.25018310547</ele>
        <time>2009-02-25T15:53:16Z</time>
      </trkpt>
      <trkpt lat="45.05682" lon="4.92579">
        <ele>158.36309814453</ele>
        <time>2009-02-25T15:53:22Z</time>
      </trkpt>
      <trkpt lat="45.05688" lon="4.926">
        <ele>158.48017883301</ele>
        <time>2009-02-25T15:53:25Z</time>
      </trkpt>
      <trkpt lat="45.05759" lon="4.92686">
        <ele>158.82661437988</ele>
        <time>2009-02-25T15:53:40Z</time>
      </trkpt>
      <trkpt lat="45.059" lon="4.92874">
        <ele>159.58770751953</ele>
        <time>2009-02-25T15:54:11Z</time>
      </trkpt>
      <trkpt lat="45.06151" lon="4.93038">
        <ele>162.47100830078</ele>
        <time>2009-02-25T15:54:55Z</time>
      </trkpt>
      <trkpt lat="45.06489" lon="4.93196">
        <ele>163.40850830078</ele>
        <time>2009-02-25T15:55:52Z</time>
      </trkpt>
      <trkpt lat="45.06522" lon="4.93202">
        <ele>163.80883789062</ele>
        <time>2009-02-25T15:55:58Z</time>
      </trkpt>
      <trkpt lat="45.06588" lon="4.93195">
        <ele>163.71839904785</ele>
        <time>2009-02-25T15:56:08Z</time>
      </trkpt>
      <trkpt lat="45.06762" lon="4.93272">
        <ele>168.57275390625</ele>
        <time>2009-02-25T15:56:37Z</time>
      </trkpt>
      <trkpt lat="45.06935" lon="4.93334">
        <ele>169.33297729492</ele>
        <time>2009-02-25T15:57:06Z</time>
      </trkpt>
      <trkpt lat="45.07365" lon="4.93536">
        <ele>170.13177490234</ele>
        <time>2009-02-25T15:58:18Z</time>
      </trkpt>
      <trkpt lat="45.07494" lon="4.93569">
        <ele>170.01245117188</ele>
        <time>2009-02-25T15:58:39Z</time>
      </trkpt>
      <trkpt lat="45.07942" lon="4.93706">
        <ele>173.11373901367</ele>
        <time>2009-02-25T15:59:53Z</time>
      </trkpt>
      <trkpt lat="45.08104" lon="4.9375">
        <ele>174</ele>
        <time>2009-02-25T16:00:19Z</time>
      </trkpt>
      <trkpt lat="45.08493" lon="4.93683">
        <ele>177.61721801758</ele>
        <time>2009-02-25T16:01:22Z</time>
      </trkpt>
      <trkpt lat="45.08552" lon="4.9366">
        <ele>176.23455810547</ele>
        <time>2009-02-25T16:01:32Z</time>
      </trkpt>
      <trkpt lat="45.0872" lon="4.93575">
        <ele>179.00845336914</ele>
        <time>2009-02-25T16:02:00Z</time>
      </trkpt>
      <trkpt lat="45.08744" lon="4.93571">
        <ele>179.53991699219</ele>
        <time>2009-02-25T16:02:04Z</time>
      </trkpt>
      <trkpt lat="45.08871" lon="4.93576">
        <ele>182.56227111816</ele>
        <time>2009-02-25T16:02:25Z</time>
      </trkpt>
      <trkpt lat="45.0891" lon="4.93583">
        <ele>183.82104492188</ele>
        <time>2009-02-25T16:02:31Z</time>
      </trkpt>
      <trkpt lat="45.08954" lon="4.93599">
        <ele>183.17106628418</ele>
        <time>2009-02-25T16:02:38Z</time>
      </trkpt>
      <trkpt lat="45.09218" lon="4.93664">
        <ele>183.56195068359</ele>
        <time>2009-02-25T16:03:21Z</time>
      </trkpt>
      <trkpt lat="45.09332" lon="4.93713">
        <ele>185.09272766113</ele>
        <time>2009-02-25T16:03:40Z</time>
      </trkpt>
      <trkpt lat="45.09345" lon="4.93726">
        <ele>185.2859954834</ele>
        <time>2009-02-25T16:03:43Z</time>
      </trkpt>
      <trkpt lat="45.09378" lon="4.9378">
        <ele>185.84965515137</ele>
        <time>2009-02-25T16:03:51Z</time>
      </trkpt>
      <trkpt lat="45.09522" lon="4.94025">
        <ele>187.32150268555</ele>
        <time>2009-02-25T16:04:27Z</time>
      </trkpt>
      <trkpt lat="45.09607" lon="4.9418">
        <ele>188.12454223633</ele>
        <time>2009-02-25T16:04:49Z</time>
      </trkpt>
      <trkpt lat="45.09645" lon="4.94258">
        <ele>190.31433105469</ele>
        <time>2009-02-25T16:05:00Z</time>
      </trkpt>
      <trkpt lat="45.09681" lon="4.94319">
        <ele>189.54446411133</ele>
        <time>2009-02-25T16:05:09Z</time>
      </trkpt>
      <trkpt lat="45.09723" lon="4.94369">
        <ele>186.68029785156</ele>
        <time>2009-02-25T16:05:17Z</time>
      </trkpt>
      <trkpt lat="45.09838" lon="4.94465">
        <ele>182.05303955078</ele>
        <time>2009-02-25T16:05:39Z</time>
      </trkpt>
      <trkpt lat="45.09881" lon="4.94516">
        <ele>179.61790466309</ele>
        <time>2009-02-25T16:05:48Z</time>
      </trkpt>
      <trkpt lat="45.09937" lon="4.94593">
        <ele>182.64010620117</ele>
        <time>2009-02-25T16:06:00Z</time>
      </trkpt>
      <trkpt lat="45.10003" lon="4.94664">
        <ele>184.56170654297</ele>
        <time>2009-02-25T16:06:14Z</time>
      </trkpt>
      <trkpt lat="45.10042" lon="4.94701">
        <ele>184.54528808594</ele>
        <time>2009-02-25T16:06:21Z</time>
      </trkpt>
      <trkpt lat="45.10167" lon="4.94793">
        <ele>183.92262268066</ele>
        <time>2009-02-25T16:06:44Z</time>
      </trkpt>
      <trkpt lat="45.10274" lon="4.94864">
        <ele>187.97239685059</ele>
        <time>2009-02-25T16:07:03Z</time>
      </trkpt>
      <trkpt lat="45.10399" lon="4.94933">
        <ele>189.95275878906</ele>
        <time>2009-02-25T16:07:24Z</time>
      </trkpt>
      <trkpt lat="45.10408" lon="4.94943">
        <ele>189.90127563477</ele>
        <time>2009-02-25T16:07:26Z</time>
      </trkpt>
      <trkpt lat="45.10437" lon="4.9496">
        <ele>190.49237060547</ele>
        <time>2009-02-25T16:07:31Z</time>
      </trkpt>
      <trkpt lat="45.10438" lon="4.94977">
        <ele>189.48283386231</ele>
        <time>2009-02-25T16:07:33Z</time>
      </trkpt>
      <trkpt lat="45.10447" lon="4.94987">
        <ele>189.28858947754</ele>
        <time>2009-02-25T16:07:35Z</time>
      </trkpt>
      <trkpt lat="45.1046" lon="4.94986">
        <ele>190.00172424316</ele>
        <time>2009-02-25T16:07:37Z</time>
      </trkpt>
      <trkpt lat="45.10467" lon="4.94976">
        <ele>191.03782653809</ele>
        <time>2009-02-25T16:07:38Z</time>
      </trkpt>
      <trkpt lat="45.105" lon="4.94991">
        <ele>191.64456176758</ele>
        <time>2009-02-25T16:07:44Z</time>
      </trkpt>
      <trkpt lat="45.10512" lon="4.94991">
        <ele>192.26202392578</ele>
        <time>2009-02-25T16:07:46Z</time>
      </trkpt>
      <trkpt lat="45.1075" lon="4.95108">
        <ele>192.81015014648</ele>
        <time>2009-02-25T16:08:26Z</time>
      </trkpt>
      <trkpt lat="45.10911" lon="4.95279">
        <ele>194.63291931152</ele>
        <time>2009-02-25T16:08:58Z</time>
      </trkpt>
      <trkpt lat="45.10949" lon="4.95398">
        <ele>191.72419738769</ele>
        <time>2009-02-25T16:09:13Z</time>
      </trkpt>
      <trkpt lat="45.10964" lon="4.955">
        <ele>197.48745727539</ele>
        <time>2009-02-25T16:09:25Z</time>
      </trkpt>
      <trkpt lat="45.10971" lon="4.95528">
        <ele>198.01824951172</ele>
        <time>2009-02-25T16:09:28Z</time>
      </trkpt>
      <trkpt lat="45.10984" lon="4.95557">
        <ele>199.33639526367</ele>
        <time>2009-02-25T16:09:32Z</time>
      </trkpt>
      <trkpt lat="45.11011" lon="4.95589">
        <ele>202.41423034668</ele>
        <time>2009-02-25T16:09:38Z</time>
      </trkpt>
      <trkpt lat="45.11095" lon="4.95655">
        <ele>204.96310424805</ele>
        <time>2009-02-25T16:09:53Z</time>
      </trkpt>
      <trkpt lat="45.11111" lon="4.95678">
        <ele>202.45606994629</ele>
        <time>2009-02-25T16:09:57Z</time>
      </trkpt>
      <trkpt lat="45.11149" lon="4.95754">
        <ele>195.98263549805</ele>
        <time>2009-02-25T16:10:07Z</time>
      </trkpt>
      <trkpt lat="45.11262" lon="4.95926">
        <ele>200.72196960449</ele>
        <time>2009-02-25T16:10:34Z</time>
      </trkpt>
      <trkpt lat="45.11419" lon="4.96214">
        <ele>203.41395568848</ele>
        <time>2009-02-25T16:11:15Z</time>
      </trkpt>
      <trkpt lat="45.11445" lon="4.96276">
        <ele>201.54397583008</ele>
        <time>2009-02-25T16:11:23Z</time>
      </trkpt>
      <trkpt lat="45.11475" lon="4.96328">
        <ele>198.77952575684</ele>
        <time>2009-02-25T16:11:31Z</time>
      </trkpt>
      <trkpt lat="45.1156" lon="4.96456">
        <ele>195.61415100098</ele>
        <time>2009-02-25T16:11:51Z</time>
      </trkpt>
      <trkpt lat="45.11583" lon="4.96501">
        <ele>194.98155212402</ele>
        <time>2009-02-25T16:11:57Z</time>
      </trkpt>
      <trkpt lat="45.11655" lon="4.9669">
        <ele>194.48162841797</ele>
        <time>2009-02-25T16:12:21Z</time>
      </trkpt>
      <trkpt lat="45.11728" lon="4.96823">
        <ele>195.35646057129</ele>
        <time>2009-02-25T16:12:40Z</time>
      </trkpt>
      <trkpt lat="45.11723" lon="4.96835">
        <ele>195.34509277344</ele>
        <time>2009-02-25T16:12:42Z</time>
      </trkpt>
      <trkpt lat="45.11726" lon="4.96853">
        <ele>195.55635070801</ele>
        <time>2009-02-25T16:12:44Z</time>
      </trkpt>
      <trkpt lat="45.11738" lon="4.96862">
        <ele>195.68299865723</ele>
        <time>2009-02-25T16:12:46Z</time>
      </trkpt>
      <trkpt lat="45.1175" lon="4.96856">
        <ele>195.54531860352</ele>
        <time>2009-02-25T16:12:48Z</time>
      </trkpt>
      <trkpt lat="45.11768" lon="4.96888">
        <ele>196.53469848633</ele>
        <time>2009-02-25T16:12:53Z</time>
      </trkpt>
      <trkpt lat="45.11888" lon="4.97052">
        <ele>197.94848632812</ele>
        <time>2009-02-25T16:13:19Z</time>
      </trkpt>
      <trkpt lat="45.11882" lon="4.97064">
        <ele>197.59297180176</ele>
        <time>2009-02-25T16:13:21Z</time>
      </trkpt>
      <trkpt lat="45.1189" lon="4.97077">
        <ele>197.48553466797</ele>
        <time>2009-02-25T16:13:23Z</time>
      </trkpt>
      <trkpt lat="45.11882" lon="4.97105">
        <ele>197.06047058106</ele>
        <time>2009-02-25T16:13:26Z</time>
      </trkpt>
      <trkpt lat="45.11882" lon="4.97155">
        <ele>196.81089782715</ele>
        <time>2009-02-25T16:13:32Z</time>
      </trkpt>
      <trkpt lat="45.11926" lon="4.97458">
        <ele>196.27616882324</ele>
        <time>2009-02-25T16:14:07Z</time>
      </trkpt>
      <trkpt lat="45.11914" lon="4.97463">
        <ele>196</ele>
        <time>2009-02-25T16:14:09Z</time>
      </trkpt>
      <trkpt lat="45.11901" lon="4.97481">
        <ele>196</ele>
        <time>2009-02-25T16:14:12Z</time>
      </trkpt>
      <trkpt lat="45.11895" lon="4.97507">
        <ele>195.93785095215</ele>
        <time>2009-02-25T16:14:15Z</time>
      </trkpt>
      <trkpt lat="45.11897" lon="4.97524">
        <ele>195.78012084961</ele>
        <time>2009-02-25T16:14:17Z</time>
      </trkpt>
      <trkpt lat="45.11912" lon="4.97552">
        <ele>195.40963745117</ele>
        <time>2009-02-25T16:14:21Z</time>
      </trkpt>
      <trkpt lat="45.11924" lon="4.97559">
        <ele>195.67935180664</ele>
        <time>2009-02-25T16:14:23Z</time>
      </trkpt>
      <trkpt lat="45.11939" lon="4.97559">
        <ele>196.46783447266</ele>
        <time>2009-02-25T16:14:25Z</time>
      </trkpt>
      <trkpt lat="45.11962" lon="4.97643">
        <ele>196.62117004394</ele>
        <time>2009-02-25T16:14:36Z</time>
      </trkpt>
      <trkpt lat="45.11987" lon="4.97768">
        <ele>197.87701416016</ele>
        <time>2009-02-25T16:14:50Z</time>
      </trkpt>
    </trkseg>
  </trk>
</gpx>